Darstellungsparameter: Aktuell verwendete Einstellungen:
Skalierung der Graphiken ... ?
xyx+y,   Skalierungsfaktor:      Skalierung: Modus: x, Faktor: 1
Darstellungszeitraum ... ?
Vom - - bis: - -   Zeitraum: 30.01.2010 - 01.03.2010
Min/Max/Avg-Anzeige ... ?
Zeige MMA aktuell
Zeige MMA Monat
Zeige MMA alles
Zeige --A aktuell
Zeige --A Monat
Zeige --A alles
Keine MMA-Anzeige
MMA:
Average (ber die Originaldaten)
MMA-Basis: 30.01.2010 - 01.03.2010
Quicknavigation für Darstellung... ?
Tage:      1T, 2T, 3T, 5T -1T -2T -3T -5T +1T +2T +3T +5T
Wochen: 1W, 2W, 3W -1W -2W -3W +1W +2W +3W
Monate: 1M, 3M, 6M -1M -3M -6M +1M +3M +6M
Jahre:    1J, 3J, 5J, 10J -1J -3J -5J -10J +1J +3J +5J +10J
Nutze für die Darstellung ... ?
Originaldaten oder Mittelwerte auf ...
Stundenbasis Tagesbasis Wochenbasis
Monatsbasis Jahresbasis      Datenbasis: Original-Daten
Darstellen als:
Statistik (Auto) Statistik J:M      Darstellung:
Zur Graphik,    zurück zur Übersicht aller Sensoren.
 
Tabellarische Datenbersicht: ?
 
Sensor: Nr:Datum:Temp:Abs-Feuchte:Windchill:Wind:
Aussen-T/F 1 30-01-2010 00:08:12 -0.5 C 3.93 g/m*3 -0.5 C 0 km/h
2 30-01-2010 00:20:12 -0.3 C 3.94 g/m*3 -0.3 C 0 km/h
3 30-01-2010 00:32:12 -0.3 C 3.84 g/m*3 -0.3 C 0 km/h
4 30-01-2010 00:44:12 -0.1 C 3.8 g/m*3 -0.1 C 0 km/h
5 30-01-2010 00:56:12 0.1 C 3.81 g/m*3 0.1 C 0 km/h
6 30-01-2010 01:08:12 -0.1 C 3.8 g/m*3 -0.1 C 0 km/h
7 30-01-2010 01:20:12 -0.1 C 3.8 g/m*3 -0.1 C 0 km/h
8 30-01-2010 01:32:12 -0.1 C 3.8 g/m*3 -0.1 C 0 km/h
9 30-01-2010 01:44:12 -0.4 C 3.77 g/m*3 -0.4 C 0 km/h
10 30-01-2010 01:56:12 -0.4 C 3.82 g/m*3 -0.4 C 0 km/h
11 30-01-2010 02:08:12 -0.6 C 3.81 g/m*3 -0.6 C 0 km/h
12 30-01-2010 02:20:12 -0.9 C 3.78 g/m*3 -0.9 C 0 km/h
13 30-01-2010 02:32:12 -0.9 C 3.82 g/m*3 -0.9 C 0 km/h
14 30-01-2010 02:44:12 -0.9 C 3.82 g/m*3 -0.9 C 0 km/h
15 30-01-2010 02:56:12 -1 C 3.8 g/m*3 -1 C 0 km/h
16 30-01-2010 03:08:12 -0.8 C 3.85 g/m*3 -0.8 C 0 km/h
17 30-01-2010 03:20:12 -0.9 C 3.78 g/m*3 -0.9 C 0 km/h
18 30-01-2010 03:32:12 -1.3 C 3.67 g/m*3 -1.3 C 0 km/h
19 30-01-2010 03:44:13 -1.5 C 3.62 g/m*3 -1.5 C 0 km/h
20 30-01-2010 03:56:13 -1.5 C 3.67 g/m*3 -1.5 C 0 km/h
21 30-01-2010 04:08:13 -1.3 C 3.67 g/m*3 -1.3 C 0 km/h
22 30-01-2010 04:20:13 -1.5 C 3.54 g/m*3 -1.5 C 0 km/h
23 30-01-2010 04:32:13 -1.5 C 3.49 g/m*3 -1.5 C 0 km/h
24 30-01-2010 04:44:13 -1.4 C 3.52 g/m*3 -1.4 C 0 km/h
25 30-01-2010 04:56:13 -1.4 C 3.47 g/m*3 -1.4 C 0 km/h
Sensor: Nr:Datum:Temp:Abs-Feuchte:Windchill:Wind:
Aussen-T/F 26 30-01-2010 05:08:13 -1.4 C 3.47 g/m*3 -1.4 C 0 km/h
27 30-01-2010 05:20:13 -1.2 C 3.52 g/m*3 -1.2 C 0 km/h
28 30-01-2010 05:32:13 -0.9 C 3.51 g/m*3 -0.9 C 0 km/h
29 30-01-2010 05:44:13 -0.9 C 3.46 g/m*3 -0.9 C 0 km/h
30 30-01-2010 05:56:13 -0.5 C 3.46 g/m*3 -0.5 C 0 km/h
31 30-01-2010 06:08:13 -0.4 C 3.44 g/m*3 -0.4 C 0 km/h
32 30-01-2010 06:20:13 -0.3 C 3.42 g/m*3 -0.3 C 0 km/h
33 30-01-2010 06:32:13 -0.1 C 3.51 g/m*3 -0.1 C 0 km/h
34 30-01-2010 06:44:13 -0.1 C 3.51 g/m*3 -0.1 C 0 km/h
35 30-01-2010 06:56:13 0.1 C 3.42 g/m*3 0.1 C 0 km/h
36 30-01-2010 07:08:13 -0.1 C 3.42 g/m*3 -0.1 C 0 km/h
37 30-01-2010 07:20:13 -0.1 C 3.42 g/m*3 -0.1 C 0 km/h
38 30-01-2010 07:32:13 -0.1 C 3.42 g/m*3 -0.1 C 0 km/h
39 30-01-2010 07:44:13 -0.2 C 3.44 g/m*3 -0.2 C 0 km/h
40 30-01-2010 07:56:02 -0.2 C 3.49 g/m*3 -0.2 C 0 km/h
41 30-01-2010 08:08:02 -0.2 C 3.49 g/m*3 -0.2 C 0 km/h
42 30-01-2010 08:20:02 -0.1 C 3.51 g/m*3 -0.1 C 0 km/h
43 30-01-2010 08:32:02 -0.2 C 3.68 g/m*3 -0.2 C 0 km/h
44 30-01-2010 08:44:02 -0.3 C 3.7 g/m*3 -0.3 C 0 km/h
45 30-01-2010 08:56:03 -0.4 C 3.72 g/m*3 -0.4 C 0 km/h
46 30-01-2010 09:08:02 -0.4 C 3.77 g/m*3 -0.4 C 0 km/h
47 30-01-2010 09:20:02 -0.4 C 3.72 g/m*3 -0.4 C 0 km/h
48 30-01-2010 09:32:03 -0.3 C 3.7 g/m*3 -0.3 C 0 km/h
49 30-01-2010 09:44:03 0 C 3.68 g/m*3 0 C 0 km/h
50 30-01-2010 09:56:02 0.1 C 3.61 g/m*3 0.1 C 0 km/h
Sensor: Nr:Datum:Temp:Abs-Feuchte:Windchill:Wind:
Aussen-T/F 51 30-01-2010 10:08:02 0 C 3.59 g/m*3 0 C 0 km/h
52 30-01-2010 10:20:02 0 C 3.63 g/m*3 0 C 0 km/h
53 30-01-2010 10:32:02 -0.1 C 3.61 g/m*3 -0.1 C 0 km/h
54 30-01-2010 10:44:02 -0.1 C 3.75 g/m*3 -0.1 C 0 km/h
55 30-01-2010 10:56:02 -0.1 C 3.9 g/m*3 -0.1 C 0 km/h
56 30-01-2010 11:08:02 -0.4 C 3.91 g/m*3 -0.4 C 0 km/h
57 30-01-2010 11:20:02 -0.5 C 3.93 g/m*3 -0.5 C 0 km/h
58 30-01-2010 11:32:02 -0.3 C 4.03 g/m*3 -0.3 C 0 km/h
59 30-01-2010 11:44:02 0 C 4.02 g/m*3 0 C 0 km/h
60 30-01-2010 11:56:01 0.4 C 3.98 g/m*3 0.4 C 0 km/h
61 30-01-2010 12:08:02 0.2 C 3.88 g/m*3 0.2 C 0 km/h
62 30-01-2010 12:20:02 -0.2 C 3.92 g/m*3 -0.2 C 0 km/h
63 30-01-2010 12:32:01 -0.4 C 4.01 g/m*3 -0.4 C 0 km/h
64 30-01-2010 12:44:01 -0.3 C 4.08 g/m*3 -0.3 C 0 km/h
65 30-01-2010 12:56:01 -0.2 C 4.01 g/m*3 -0.2 C 0 km/h
66 30-01-2010 13:08:01 0 C 3.88 g/m*3 0 C 0 km/h
67 30-01-2010 13:20:02 0 C 3.63 g/m*3 0 C 0 km/h
68 30-01-2010 13:32:01 -0.2 C 3.49 g/m*3 -0.2 C 0 km/h
69 30-01-2010 13:44:01 0.3 C 3.56 g/m*3 0.3 C 0 km/h
70 30-01-2010 13:56:02 0.5 C 3.46 g/m*3 0.5 C 0 km/h
71 30-01-2010 14:08:01 0.6 C 3.48 g/m*3 0.6 C 0 km/h
72 30-01-2010 14:20:02 0.5 C 3.41 g/m*3 0.5 C 0 km/h
73 30-01-2010 14:32:01 0.4 C 3.44 g/m*3 0.4 C 0 km/h
74 30-01-2010 14:44:01 0.3 C 3.51 g/m*3 0.3 C 0 km/h
75 30-01-2010 14:56:03 -1.1 C 3.41 g/m*3 -1.1 C 0 km/h
Sensor: Nr:Datum:Temp:Abs-Feuchte:Windchill:Wind:
Aussen-T/F 76 30-01-2010 15:08:02 -1.3 C 3.5 g/m*3 -1.3 C 0 km/h
77 30-01-2010 15:20:02 -1.1 C 3.59 g/m*3 -1.1 C 0 km/h
78 30-01-2010 15:32:02 -0.9 C 3.6 g/m*3 -0.9 C 0 km/h
79 30-01-2010 15:44:02 -0.7 C 3.6 g/m*3 -0.7 C 0 km/h
80 30-01-2010 15:56:02 -0.9 C 3.41 g/m*3 -0.9 C 0 km/h
81 30-01-2010 16:08:02 -1.3 C 3.19 g/m*3 -1.3 C 0 km/h
82 30-01-2010 16:20:02 -1.4 C 3.21 g/m*3 -1.4 C 0 km/h
83 30-01-2010 16:32:01 -1.6 C 3.21 g/m*3 -1.6 C 0 km/h
84 30-01-2010 16:44:01 -1.5 C 3.27 g/m*3 -1.5 C 0 km/h
85 30-01-2010 16:56:02 -1.5 C 3.32 g/m*3 -1.5 C 0 km/h
86 30-01-2010 17:08:01 -1.6 C 3.34 g/m*3 -1.6 C 0 km/h
87 30-01-2010 17:20:02 -1.7 C 3.36 g/m*3 -1.7 C 0 km/h
88 30-01-2010 17:32:02 -2 C 3.29 g/m*3 -2 C 0 km/h
89 30-01-2010 17:44:02 -2.4 C 3.16 g/m*3 -2.4 C 0 km/h
90 30-01-2010 17:56:02 -2.6 C 3.15 g/m*3 -2.6 C 0 km/h
91 30-01-2010 18:08:02 -2.4 C 3.24 g/m*3 -2.4 C 0 km/h
92 30-01-2010 18:20:02 -2.4 C 3.24 g/m*3 -2.4 C 0 km/h
93 30-01-2010 18:32:03 -2.3 C 3.26 g/m*3 -2.3 C 0 km/h
94 30-01-2010 18:44:03 -2.4 C 3.2 g/m*3 -2.4 C 0 km/h
95 30-01-2010 18:56:02 -2.6 C 3.11 g/m*3 -2.6 C 0 km/h
96 30-01-2010 19:08:01 -2.9 C 3.05 g/m*3 -2.9 C 0 km/h
97 30-01-2010 19:20:02 -3.1 C 3 g/m*3 -3.1 C 0 km/h
98 30-01-2010 19:32:02 -3.3 C 2.96 g/m*3 -3.3 C 0 km/h
99 30-01-2010 19:44:02 -3.5 C 2.92 g/m*3 -3.5 C 0 km/h
100 30-01-2010 19:56:01 -3.7 C 2.92 g/m*3 -3.7 C 0 km/h
Sensor: Nr:Datum:Temp:Abs-Feuchte:Windchill:Wind:
Aussen-T/F 101 30-01-2010 20:08:02 -4 C 2.85 g/m*3 -4 C 0 km/h
102 30-01-2010 20:20:01 -4.2 C 2.81 g/m*3 -4.2 C 0 km/h
103 30-01-2010 20:32:02 -4.5 C 2.75 g/m*3 -4.5 C 0 km/h
104 30-01-2010 20:44:02 -4.9 C 2.68 g/m*3 -4.9 C 0 km/h
105 30-01-2010 20:56:02 -4.7 C 2.75 g/m*3 -4.7 C 0 km/h
106 30-01-2010 21:08:02 -4.3 C 2.86 g/m*3 -4.3 C 0 km/h
107 30-01-2010 21:20:02 -4.1 C 2.91 g/m*3 -4.1 C 0 km/h
108 30-01-2010 21:32:02 -4.2 C 2.89 g/m*3 -4.2 C 0 km/h
109 30-01-2010 21:44:02 -4.6 C 2.77 g/m*3 -4.6 C 0 km/h
110 30-01-2010 21:56:02 -5.1 C 2.64 g/m*3 -5.1 C 0 km/h
111 30-01-2010 22:08:02 -5.6 C 2.54 g/m*3 -5.6 C 0 km/h
112 30-01-2010 22:21:03 -5.9 C 2.49 g/m*3 -5.9 C 0 km/h
113 30-01-2010 22:33:04 -5.7 C 2.56 g/m*3 -5.7 C 0 km/h
114 30-01-2010 22:45:04 -6 C 2.5 g/m*3 -6 C 0 km/h
115 30-01-2010 22:57:04 -6.1 C 2.48 g/m*3 -6.1 C 0 km/h
116 30-01-2010 23:09:04 -6.3 C 2.45 g/m*3 -6.3 C 0 km/h
117 30-01-2010 23:21:04 -6.2 C 2.47 g/m*3 -6.2 C 0 km/h
118 30-01-2010 23:33:04 -6.4 C 2.43 g/m*3 -6.4 C 0 km/h
119 30-01-2010 23:45:04 -6.4 C 2.43 g/m*3 -6.4 C 0 km/h
120 30-01-2010 23:57:04 -6.3 C 2.48 g/m*3 -6.3 C 0 km/h
121 31-01-2010 00:09:04 -6.2 C 2.5 g/m*3 -6.2 C 0 km/h
122 31-01-2010 00:21:04 -6.1 C 2.52 g/m*3 -6.1 C 0 km/h
123 31-01-2010 00:33:04 -6 C 2.53 g/m*3 -6 C 0 km/h
124 31-01-2010 00:45:04 -6 C 2.5 g/m*3 -6 C 0 km/h
125 31-01-2010 00:57:04 -5.6 C 2.58 g/m*3 -5.6 C 0 km/h
Sensor: Nr:Datum:Temp:Abs-Feuchte:Windchill:Wind:
Aussen-T/F 126 31-01-2010 01:09:04 -5.1 C 2.67 g/m*3 -5.1 C 0 km/h
127 31-01-2010 01:21:04 -5 C 2.69 g/m*3 -5 C 0 km/h
128 31-01-2010 01:33:04 -4.7 C 2.71 g/m*3 -4.7 C 0 km/h
129 31-01-2010 01:45:04 -4.6 C 2.73 g/m*3 -4.6 C 0 km/h
130 31-01-2010 01:57:04 -4.6 C 2.8 g/m*3 -4.6 C 0 km/h
131 31-01-2010 02:09:04 -4.4 C 2.88 g/m*3 -4.4 C 0 km/h
132 31-01-2010 02:21:04 -4.3 C 2.94 g/m*3 -4.3 C 0 km/h
133 31-01-2010 02:33:04 -4.2 C 2.96 g/m*3 -4.2 C 0 km/h
134 31-01-2010 02:45:04 -4.2 C 2.99 g/m*3 -4.2 C 0 km/h
135 31-01-2010 02:57:05 -4.2 C 3.03 g/m*3 -4.2 C 0 km/h
136 31-01-2010 03:09:05 -4 C 3.07 g/m*3 -4 C 0 km/h
137 31-01-2010 03:21:05 -3.9 C 3.06 g/m*3 -3.9 C 0 km/h
138 31-01-2010 03:33:05 -3.7 C 3.1 g/m*3 -3.7 C 0 km/h
139 31-01-2010 03:45:05 -3.5 C 3.11 g/m*3 -3.5 C 0 km/h
140 31-01-2010 03:57:05 -3.5 C 3.15 g/m*3 -3.5 C 0 km/h
141 31-01-2010 04:09:05 -3.4 C 3.17 g/m*3 -3.4 C 0 km/h
142 31-01-2010 04:21:05 -3.4 C 3.17 g/m*3 -3.4 C 0 km/h
143 31-01-2010 04:33:05 -3.3 C 3.19 g/m*3 -3.3 C 0 km/h
144 31-01-2010 04:45:05 -3.2 C 3.18 g/m*3 -3.2 C 0 km/h
145 31-01-2010 04:57:05 -3.2 C 3.18 g/m*3 -3.2 C 0 km/h
146 31-01-2010 05:09:05 -3.2 C 3.21 g/m*3 -3.2 C 0 km/h
147 31-01-2010 05:21:05 -3.1 C 3.24 g/m*3 -3.1 C 0 km/h
148 31-01-2010 05:33:05 -2.9 C 3.24 g/m*3 -2.9 C 0 km/h
149 31-01-2010 05:45:05 -2.9 C 3.24 g/m*3 -2.9 C 0 km/h
150 31-01-2010 05:57:05 -2.9 C 3.24 g/m*3 -2.9 C 0 km/h
Sensor: Nr:Datum:Temp:Abs-Feuchte:Windchill:Wind:
Aussen-T/F 151 31-01-2010 06:09:05 -2.8 C 3.27 g/m*3 -2.8 C 0 km/h
152 31-01-2010 06:21:05 -2.8 C 3.27 g/m*3 -2.8 C 0 km/h
153 31-01-2010 06:33:05 -2.8 C 3.27 g/m*3 -2.8 C 0 km/h
154 31-01-2010 06:45:05 -2.8 C 3.27 g/m*3 -2.8 C 0 km/h
155 31-01-2010 06:57:05 -2.7 C 3.29 g/m*3 -2.7 C 0 km/h
156 31-01-2010 07:09:05 -2.6 C 3.31 g/m*3 -2.6 C 0 km/h
157 31-01-2010 07:21:05 -2.6 C 3.31 g/m*3 -2.6 C 0 km/h
158 31-01-2010 07:33:06 -2.6 C 3.31 g/m*3 -2.6 C 0 km/h
159 31-01-2010 07:45:06 -2.5 C 3.3 g/m*3 -2.5 C 0 km/h
160 31-01-2010 07:57:06 -2.5 C 3.3 g/m*3 -2.5 C 0 km/h
161 31-01-2010 08:09:06 -2.4 C 3.36 g/m*3 -2.4 C 0 km/h
162 31-01-2010 08:21:06 -2.4 C 3.4 g/m*3 -2.4 C 0 km/h
163 31-01-2010 08:33:03 -2.4 C 3.36 g/m*3 -2.4 C 0 km/h
164 31-01-2010 08:45:02 -2.4 C 3.36 g/m*3 -2.4 C 0 km/h
165 31-01-2010 08:57:02 -2.4 C 3.36 g/m*3 -2.4 C 0 km/h
166 31-01-2010 09:09:02 -2.1 C 3.43 g/m*3 -2.1 C 0 km/h
167 31-01-2010 09:21:02 -2 C 3.41 g/m*3 -2 C 0 km/h
168 31-01-2010 09:33:01 -2.2 C 3.33 g/m*3 -2.2 C 0 km/h
169 31-01-2010 09:45:02 -2 C 3.33 g/m*3 -2 C 0 km/h
170 31-01-2010 09:57:02 -1.8 C 3.33 g/m*3 -1.8 C 0 km/h
171 31-01-2010 10:09:01 -1.6 C 3.38 g/m*3 -1.6 C 0 km/h
172 31-01-2010 10:21:02 -1.7 C 3.31 g/m*3 -1.7 C 0 km/h
173 31-01-2010 10:33:01 -1.7 C 3.27 g/m*3 -1.7 C 0 km/h
174 31-01-2010 10:45:02 -1.7 C 3.27 g/m*3 -1.7 C 0 km/h
175 31-01-2010 10:57:02 -1.6 C 3.29 g/m*3 -1.6 C 0 km/h
Sensor: Nr:Datum:Temp:Abs-Feuchte:Windchill:Wind:
Aussen-T/F 176 31-01-2010 11:09:02 -1.4 C 3.34 g/m*3 -1.4 C 0 km/h
177 31-01-2010 11:21:02 -1.1 C 3.41 g/m*3 -1.1 C 0 km/h
178 31-01-2010 11:33:03 -0.7 C 3.42 g/m*3 -0.7 C 0 km/h
179 31-01-2010 11:45:02 -0.6 C 3.39 g/m*3 -0.6 C 0 km/h
180 31-01-2010 11:57:03 -0.4 C 3.44 g/m*3 -0.4 C 0 km/h
181 31-01-2010 12:09:01 -0.2 C 3.44 g/m*3 -0.2 C 0 km/h
182 31-01-2010 12:21:02 0.2 C 3.54 g/m*3 0.2 C 0 km/h
183 31-01-2010 12:33:02 0.7 C 3.61 g/m*3 0.7 C 0 km/h
184 31-01-2010 12:45:02 1.1 C 3.5 g/m*3 1.1 C 0 km/h
185 31-01-2010 12:57:02 1.3 C 3.5 g/m*3 1.3 C 0 km/h
186 31-01-2010 13:09:03 1.6 C 3.46 g/m*3 1.6 C 0 km/h
187 31-01-2010 13:21:02 1.7 C 3.38 g/m*3 1.7 C 0 km/h
188 31-01-2010 13:33:03 2 C 3.28 g/m*3 2 C 0 km/h
189 31-01-2010 13:45:02 2 C 3.22 g/m*3 2 C 0 km/h
190 31-01-2010 13:57:02 2.2 C 3.15 g/m*3 2.2 C 0 km/h
191 31-01-2010 14:09:02 2.1 C 3.08 g/m*3 2.1 C 0 km/h
192 31-01-2010 14:21:01 2.2 C 3.15 g/m*3 2.2 C 0 km/h
193 31-01-2010 14:33:02 2.4 C 3.14 g/m*3 2.4 C 0 km/h
194 31-01-2010 14:45:02 2.2 C 2.99 g/m*3 2.2 C 0 km/h
195 31-01-2010 14:57:02 2.2 C 2.93 g/m*3 2.2 C 0 km/h
196 31-01-2010 15:09:02 1.7 C 2.94 g/m*3 1.7 C 0 km/h
197 31-01-2010 15:21:02 1.3 C 2.97 g/m*3 1.3 C 0 km/h
198 31-01-2010 15:33:02 1.1 C 2.93 g/m*3 1.1 C 0 km/h
199 31-01-2010 15:45:02 1.1 C 3.03 g/m*3 1.1 C 0 km/h
200 31-01-2010 15:57:02 1.3 C 3.13 g/m*3 1.3 C 0 km/h
Sensor: Nr:Datum:Temp:Abs-Feuchte:Windchill:Wind:
Aussen-T/F 201 31-01-2010 16:09:02 1.2 C 3.1 g/m*3 1.2 C 0 km/h
202 31-01-2010 16:21:02 0.8 C 3.12 g/m*3 0.8 C 0 km/h
203 31-01-2010 16:33:02 0.7 C 3.1 g/m*3 0.7 C 0 km/h
204 31-01-2010 16:45:02 0.7 C 3.15 g/m*3 0.7 C 0 km/h
205 31-01-2010 16:57:02 0.5 C 3.11 g/m*3 0.5 C 0 km/h
206 31-01-2010 17:09:03 0.3 C 3.07 g/m*3 0.3 C 0 km/h
207 31-01-2010 17:21:02 0 C 3.15 g/m*3 0 C 0 km/h
208 31-01-2010 17:33:02 -0.4 C 3.11 g/m*3 -0.4 C 0 km/h
209 31-01-2010 17:45:01 -0.6 C 3.11 g/m*3 -0.6 C 0 km/h
210 31-01-2010 17:57:01 -1 C 3.07 g/m*3 -1 C 0 km/h
211 31-01-2010 18:09:02 -1.1 C 3.14 g/m*3 -1.1 C 0 km/h
212 31-01-2010 18:21:01 -1.3 C 3.1 g/m*3 -1.3 C 0 km/h
213 31-01-2010 18:33:01 -1.5 C 3.1 g/m*3 -1.5 C 0 km/h
214 31-01-2010 18:45:01 -1.7 C 3.1 g/m*3 -1.7 C 0 km/h
215 31-01-2010 18:57:01 -1.8 C 3.16 g/m*3 -1.8 C 0 km/h
216 31-01-2010 19:09:02 -1.8 C 3.16 g/m*3 -1.8 C 0 km/h
217 31-01-2010 19:21:01 -1.8 C 3.12 g/m*3 -1.8 C 0 km/h
218 31-01-2010 19:33:02 -1.9 C 3.1 g/m*3 -1.9 C 0 km/h
219 31-01-2010 19:45:01 -1.8 C 3.12 g/m*3 -1.8 C 0 km/h
220 31-01-2010 19:57:01 -2.1 C 3.06 g/m*3 -2.1 C 0 km/h
221 31-01-2010 20:09:02 -2.1 C 3.14 g/m*3 -2.1 C 0 km/h
222 31-01-2010 20:21:01 -1.9 C 3.18 g/m*3 -1.9 C 0 km/h
223 31-01-2010 20:33:02 -2 C 3.16 g/m*3 -2 C 0 km/h
224 31-01-2010 20:45:01 -2 C 3.2 g/m*3 -2 C 0 km/h
225 31-01-2010 20:57:01 -2 C 3.2 g/m*3 -2 C 0 km/h
Sensor: Nr:Datum:Temp:Abs-Feuchte:Windchill:Wind:
Aussen-T/F 226 31-01-2010 21:09:02 -1.8 C 3.25 g/m*3 -1.8 C 0 km/h
227 31-01-2010 21:21:01 -1.6 C 3.29 g/m*3 -1.6 C 0 km/h
228 31-01-2010 21:33:02 -1.5 C 3.32 g/m*3 -1.5 C 0 km/h
229 31-01-2010 21:45:01 -1.3 C 3.32 g/m*3 -1.3 C 0 km/h
230 31-01-2010 21:57:01 -1.1 C 3.37 g/m*3 -1.1 C 0 km/h
231 31-01-2010 22:09:02 -0.8 C 3.39 g/m*3 -0.8 C 0 km/h
232 31-01-2010 22:21:02 -0.6 C 3.39 g/m*3 -0.6 C 0 km/h
233 31-01-2010 22:33:01 -0.6 C 3.35 g/m*3 -0.6 C 0 km/h
234 31-01-2010 22:46:02 -0.7 C 3.32 g/m*3 -0.7 C 0 km/h
235 31-01-2010 22:58:02 -0.7 C 3.37 g/m*3 -0.7 C 0 km/h
236 31-01-2010 23:10:02 -0.6 C 3.39 g/m*3 -0.6 C 0 km/h
237 31-01-2010 23:22:02 -0.5 C 3.37 g/m*3 -0.5 C 0 km/h
238 31-01-2010 23:34:02 -0.6 C 3.35 g/m*3 -0.6 C 0 km/h
239 31-01-2010 23:46:02 -0.7 C 3.37 g/m*3 -0.7 C 0 km/h
240 31-01-2010 23:58:02 -0.7 C 3.42 g/m*3 -0.7 C 0 km/h
241 01-02-2010 00:10:02 -0.8 C 3.39 g/m*3 -0.8 C 0 km/h
242 01-02-2010 00:22:02 -1 C 3.35 g/m*3 -1 C 0 km/h
243 01-02-2010 00:34:02 -1.1 C 3.32 g/m*3 -1.1 C 0 km/h
244 01-02-2010 00:46:02 -0.7 C 3.42 g/m*3 -0.7 C 0 km/h
245 01-02-2010 00:58:03 -0.7 C 3.37 g/m*3 -0.7 C 0 km/h
246 01-02-2010 01:10:03 -0.6 C 3.35 g/m*3 -0.6 C 0 km/h
247 01-02-2010 01:22:03 -0.5 C 3.37 g/m*3 -0.5 C 0 km/h
248 01-02-2010 01:34:03 -0.5 C 3.37 g/m*3 -0.5 C 0 km/h
249 01-02-2010 01:46:03 -0.4 C 3.35 g/m*3 -0.4 C 0 km/h
250 01-02-2010 01:58:03 -0.4 C 3.35 g/m*3 -0.4 C 0 km/h
Sensor: Nr:Datum:Temp:Abs-Feuchte:Windchill:Wind:
Aussen-T/F 251 01-02-2010 02:10:03 -0.6 C 3.25 g/m*3 -0.6 C 0 km/h
252 01-02-2010 02:22:03 -0.8 C 3.25 g/m*3 -0.8 C 0 km/h
253 01-02-2010 02:34:03 -0.8 C 3.25 g/m*3 -0.8 C 0 km/h
254 01-02-2010 02:46:03 -0.8 C 3.25 g/m*3 -0.8 C 0 km/h
255 01-02-2010 02:58:03 -0.8 C 3.25 g/m*3 -0.8 C 0 km/h
256 01-02-2010 03:10:03 -0.7 C 3.28 g/m*3 -0.7 C 0 km/h
257 01-02-2010 03:22:03 -0.8 C 3.25 g/m*3 -0.8 C 0 km/h
258 01-02-2010 03:34:03 -0.8 C 3.25 g/m*3 -0.8 C 0 km/h
259 01-02-2010 03:46:03 -0.7 C 3.32 g/m*3 -0.7 C 0 km/h
260 01-02-2010 03:58:03 -0.8 C 3.25 g/m*3 -0.8 C 0 km/h
261 01-02-2010 04:10:03 -0.8 C 3.25 g/m*3 -0.8 C 0 km/h
262 01-02-2010 04:22:03 -0.9 C 3.28 g/m*3 -0.9 C 0 km/h
263 01-02-2010 04:34:03 -1 C 3.25 g/m*3 -1 C 0 km/h
264 01-02-2010 04:46:03 -0.8 C 3.3 g/m*3 -0.8 C 0 km/h
265 01-02-2010 04:58:03 -0.7 C 3.28 g/m*3 -0.7 C 0 km/h
266 01-02-2010 05:10:03 -0.7 C 3.28 g/m*3 -0.7 C 0 km/h
267 01-02-2010 05:22:04 -0.6 C 3.3 g/m*3 -0.6 C 0 km/h
268 01-02-2010 05:34:04 -0.5 C 3.32 g/m*3 -0.5 C 0 km/h
269 01-02-2010 05:46:04 -0.4 C 3.35 g/m*3 -0.4 C 0 km/h
270 01-02-2010 05:58:04 -0.4 C 3.35 g/m*3 -0.4 C 0 km/h
271 01-02-2010 06:10:04 -0.4 C 3.35 g/m*3 -0.4 C 0 km/h
272 01-02-2010 06:22:04 -0.4 C 3.35 g/m*3 -0.4 C 0 km/h
273 01-02-2010 06:34:04 -0.3 C 3.37 g/m*3 -0.3 C 0 km/h
274 01-02-2010 06:46:04 -0.3 C 3.37 g/m*3 -0.3 C 0 km/h
275 01-02-2010 06:58:04 -0.4 C 3.35 g/m*3 -0.4 C 0 km/h
Sensor: Nr:Datum:Temp:Abs-Feuchte:Windchill:Wind:
Aussen-T/F 276 01-02-2010 07:10:02 -0.5 C 3.37 g/m*3 -0.5 C 0 km/h
277 01-02-2010 07:22:03 -0.7 C 3.32 g/m*3 -0.7 C 0 km/h
278 01-02-2010 07:34:02 -0.7 C 3.37 g/m*3 -0.7 C 0 km/h
279 01-02-2010 07:46:02 -0.6 C 3.39 g/m*3 -0.6 C 0 km/h
280 01-02-2010 07:58:02 -0.5 C 3.42 g/m*3 -0.5 C 0 km/h
281 01-02-2010 08:10:02 -0.4 C 3.39 g/m*3 -0.4 C 0 km/h
282 01-02-2010 08:22:02 -0.4 C 3.44 g/m*3 -0.4 C 0 km/h
283 01-02-2010 08:34:02 -0.4 C 3.39 g/m*3 -0.4 C 0 km/h
284 01-02-2010 08:46:02 -0.4 C 3.39 g/m*3 -0.4 C 0 km/h
285 01-02-2010 08:58:02 -0.4 C 3.39 g/m*3 -0.4 C 0 km/h
286 01-02-2010 09:10:02 -0.4 C 3.39 g/m*3 -0.4 C 0 km/h
287 01-02-2010 09:22:02 -0.3 C 3.37 g/m*3 -0.3 C 0 km/h
288 01-02-2010 09:34:02 -0.3 C 3.37 g/m*3 -0.3 C 0 km/h
289 01-02-2010 09:46:02 -0.2 C 3.39 g/m*3 -0.2 C 0 km/h
290 01-02-2010 09:58:02 -0.2 C 3.39 g/m*3 -0.2 C 0 km/h
291 01-02-2010 10:10:02 -0.1 C 3.37 g/m*3 -0.1 C 0 km/h
292 01-02-2010 10:22:02 0.2 C 3.44 g/m*3 0.2 C 0 km/h
293 01-02-2010 10:34:01 0.2 C 3.34 g/m*3 0.2 C 0 km/h
294 01-02-2010 10:46:02 0.3 C 3.36 g/m*3 0.3 C 0 km/h
295 01-02-2010 10:58:02 0.3 C 3.31 g/m*3 0.3 C 0 km/h
296 01-02-2010 11:10:01 0.5 C 3.31 g/m*3 0.5 C 0 km/h
297 01-02-2010 11:22:02 0.5 C 3.26 g/m*3 0.5 C 0 km/h
298 01-02-2010 11:34:01 0.7 C 3.3 g/m*3 0.7 C 0 km/h
299 01-02-2010 11:46:02 1 C 3.22 g/m*3 1 C 0 km/h
300 01-02-2010 11:58:02 1 C 3.22 g/m*3 1 C 0 km/h
Sensor: Nr:Datum:Temp:Abs-Feuchte:Windchill:Wind:
Aussen-T/F 301 01-02-2010 12:10:02 1.4 C 3.31 g/m*3 1.4 C 0 km/h
302 01-02-2010 12:22:02 1.3 C 3.23 g/m*3 1.3 C 0 km/h
303 01-02-2010 12:34:02 1.7 C 3.32 g/m*3 1.7 C 0 km/h
304 01-02-2010 12:46:02 1.5 C 3.28 g/m*3 1.5 C 0 km/h
305 01-02-2010 12:58:02 1.5 C 3.28 g/m*3 1.5 C 0 km/h
306 01-02-2010 13:10:01 1.4 C 3.25 g/m*3 1.4 C 0 km/h
307 01-02-2010 13:22:02 1.6 C 3.3 g/m*3 1.6 C 0 km/h
308 01-02-2010 13:34:01 1.7 C 3.32 g/m*3 1.7 C 0 km/h
309 01-02-2010 13:46:02 2.3 C 3.29 g/m*3 2.3 C 0 km/h
310 01-02-2010 13:58:02 2.3 C 3.18 g/m*3 2.3 C 0 km/h
311 01-02-2010 14:10:01 2.4 C 3.25 g/m*3 2.4 C 0 km/h
312 01-02-2010 14:22:01 2.4 C 3.25 g/m*3 2.4 C 0 km/h
313 01-02-2010 14:34:02 2.1 C 3.24 g/m*3 2.1 C 0 km/h
314 01-02-2010 14:46:02 1.5 C 3.44 g/m*3 1.5 C 0 km/h
315 01-02-2010 14:58:03 1.4 C 3.68 g/m*3 1.4 C 0 km/h
316 01-02-2010 15:10:01 1.3 C 3.71 g/m*3 1.3 C 0 km/h
317 01-02-2010 15:22:02 1.8 C 3.73 g/m*3 1.8 C 0 km/h
318 01-02-2010 15:34:02 1.5 C 3.71 g/m*3 1.5 C 0 km/h
319 01-02-2010 15:46:02 1.1 C 3.81 g/m*3 1.1 C 0 km/h
320 01-02-2010 15:58:02 0.9 C 3.92 g/m*3 0.9 C 0 km/h
321 01-02-2010 16:10:01 0.7 C 4.02 g/m*3 0.7 C 0 km/h
322 01-02-2010 16:22:02 0.7 C 4.12 g/m*3 0.7 C 0 km/h
323 01-02-2010 16:34:01 0.7 C 4.12 g/m*3 0.7 C 0 km/h
324 01-02-2010 16:46:03 0.8 C 4.1 g/m*3 0.8 C 0 km/h
325 01-02-2010 16:58:03 1 C 4 g/m*3 1 C 0 km/h
Sensor: Nr:Datum:Temp:Abs-Feuchte:Windchill:Wind:
Aussen-T/F 326 01-02-2010 17:10:03 0.8 C 4.04 g/m*3 0.8 C 0 km/h
327 01-02-2010 17:22:02 0.4 C 4.13 g/m*3 0.4 C 0 km/h
328 01-02-2010 17:34:03 0.4 C 4.28 g/m*3 0.4 C 0 km/h
329 01-02-2010 17:46:01 0.4 C 4.33 g/m*3 0.4 C 0 km/h
330 01-02-2010 17:58:01 0.3 C 4.3 g/m*3 0.3 C 0 km/h
331 01-02-2010 18:10:02 0.2 C 4.32 g/m*3 0.2 C 0 km/h
332 01-02-2010 18:22:02 0.2 C 4.37 g/m*3 0.2 C 0 km/h
333 01-02-2010 18:34:02 0.2 C 4.42 g/m*3 0.2 C 0 km/h
334 01-02-2010 18:46:02 0.2 C 4.47 g/m*3 0.2 C 0 km/h
335 01-02-2010 18:58:02 0.2 C 4.52 g/m*3 0.2 C 0 km/h
336 01-02-2010 19:10:02 0.3 C 4.55 g/m*3 0.3 C 0 km/h
337 01-02-2010 19:22:02 0.3 C 4.55 g/m*3 0.3 C 0 km/h
338 01-02-2010 19:34:01 0.3 C 4.5 g/m*3 0.3 C 0 km/h
339 01-02-2010 19:46:02 0.3 C 4.5 g/m*3 0.3 C 0 km/h
340 01-02-2010 19:58:02 0.5 C 4.56 g/m*3 0.5 C 0 km/h
341 01-02-2010 20:10:01 0.5 C 4.51 g/m*3 0.5 C 0 km/h
342 01-02-2010 20:22:02 0.5 C 4.46 g/m*3 0.5 C 0 km/h
343 01-02-2010 20:34:01 0.5 C 4.41 g/m*3 0.5 C 0 km/h
344 01-02-2010 20:46:02 0.3 C 4.35 g/m*3 0.3 C 0 km/h
345 01-02-2010 20:58:02 0.3 C 4.35 g/m*3 0.3 C 0 km/h
346 01-02-2010 21:10:01 0.2 C 4.32 g/m*3 0.2 C 0 km/h
347 01-02-2010 21:22:02 0.3 C 4.35 g/m*3 0.3 C 0 km/h
348 01-02-2010 21:34:01 0.3 C 4.35 g/m*3 0.3 C 0 km/h
349 01-02-2010 21:46:03 0.2 C 4.32 g/m*3 0.2 C 0 km/h
350 01-02-2010 21:58:03 0.2 C 4.32 g/m*3 0.2 C 0 km/h
Sensor: Nr:Datum:Temp:Abs-Feuchte:Windchill:Wind:
Aussen-T/F 351 01-02-2010 22:10:02 0.2 C 4.37 g/m*3 0.2 C 0 km/h
352 01-02-2010 22:23:02 0.2 C 4.37 g/m*3 0.2 C 0 km/h
353 01-02-2010 22:35:02 0.5 C 4.51 g/m*3 0.5 C 0 km/h
354 01-02-2010 22:47:02 0.5 C 4.46 g/m*3 0.5 C 0 km/h
355 01-02-2010 22:59:02 0.5 C 4.46 g/m*3 0.5 C 0 km/h
356 01-02-2010 23:11:02 0.4 C 4.33 g/m*3 0.4 C 0 km/h
357 01-02-2010 23:23:03 0.4 C 4.28 g/m*3 0.4 C 0 km/h
358 01-02-2010 23:35:03 0.3 C 4.25 g/m*3 0.3 C 0 km/h
359 01-02-2010 23:47:03 0.3 C 4.3 g/m*3 0.3 C 0 km/h
360 01-02-2010 23:59:03 0.3 C 4.3 g/m*3 0.3 C 0 km/h
361 02-02-2010 00:11:03 0.3 C 4.11 g/m*3 0.3 C 0 km/h
362 02-02-2010 00:23:03 0.4 C 3.84 g/m*3 0.4 C 0 km/h
363 02-02-2010 00:35:03 0.2 C 3.68 g/m*3 0.2 C 0 km/h
364 02-02-2010 00:47:03 0.1 C 3.66 g/m*3 0.1 C 0 km/h
365 02-02-2010 00:59:03 -0.1 C 3.56 g/m*3 -0.1 C 0 km/h
366 02-02-2010 01:11:03 -0.3 C 3.51 g/m*3 -0.3 C 0 km/h
367 02-02-2010 01:23:03 -0.5 C 3.51 g/m*3 -0.5 C 0 km/h
368 02-02-2010 01:35:03 -0.8 C 3.48 g/m*3 -0.8 C 0 km/h
369 02-02-2010 01:47:03 -0.7 C 3.6 g/m*3 -0.7 C 0 km/h
370 02-02-2010 01:59:03 -0.6 C 3.63 g/m*3 -0.6 C 0 km/h
371 02-02-2010 02:11:03 -0.6 C 3.53 g/m*3 -0.6 C 0 km/h
372 02-02-2010 02:23:03 -0.7 C 3.46 g/m*3 -0.7 C 0 km/h
373 02-02-2010 02:35:03 -1 C 3.3 g/m*3 -1 C 0 km/h
374 02-02-2010 02:47:03 -1.6 C 3.25 g/m*3 -1.6 C 0 km/h
375 02-02-2010 02:59:03 -2.1 C 3.22 g/m*3 -2.1 C 0 km/h
Sensor: Nr:Datum:Temp:Abs-Feuchte:Windchill:Wind:
Aussen-T/F 376 02-02-2010 03:11:03 -2.5 C 3.17 g/m*3 -2.5 C 0 km/h
377 02-02-2010 03:23:03 -2.8 C 3.15 g/m*3 -2.8 C 0 km/h
378 02-02-2010 03:35:03 -3 C 3.14 g/m*3 -3 C 0 km/h
379 02-02-2010 03:47:04 -3 C 3.18 g/m*3 -3 C 0 km/h
380 02-02-2010 03:59:04 -3 C 3.22 g/m*3 -3 C 0 km/h
381 02-02-2010 04:11:04 -3.1 C 3.24 g/m*3 -3.1 C 0 km/h
382 02-02-2010 04:23:04 -3 C 3.3 g/m*3 -3 C 0 km/h
383 02-02-2010 04:35:04 -2.9 C 3.36 g/m*3 -2.9 C 0 km/h
384 02-02-2010 04:47:04 -2.7 C 3.45 g/m*3 -2.7 C 0 km/h
385 02-02-2010 04:59:04 -2.6 C 3.48 g/m*3 -2.6 C 0 km/h
386 02-02-2010 05:11:04 -2.4 C 3.57 g/m*3 -2.4 C 0 km/h
387 02-02-2010 05:23:04 -2.2 C 3.62 g/m*3 -2.2 C 0 km/h
388 02-02-2010 05:35:04 -2.3 C 3.59 g/m*3 -2.3 C 0 km/h
389 02-02-2010 05:47:04 -2.4 C 3.52 g/m*3 -2.4 C 0 km/h
390 02-02-2010 05:59:04 -2.4 C 3.52 g/m*3 -2.4 C 0 km/h
391 02-02-2010 06:11:04 -2.3 C 3.55 g/m*3 -2.3 C 0 km/h
392 02-02-2010 06:23:04 -1.7 C 3.75 g/m*3 -1.7 C 0 km/h
393 02-02-2010 06:35:04 -1.2 C 3.74 g/m*3 -1.2 C 0 km/h
394 02-02-2010 06:47:04 -1.2 C 3.66 g/m*3 -1.2 C 0 km/h
395 02-02-2010 06:59:04 -1.3 C 3.59 g/m*3 -1.3 C 0 km/h
396 02-02-2010 07:11:02 -1.3 C 3.59 g/m*3 -1.3 C 0 km/h
397 02-02-2010 07:23:02 -1.6 C 3.47 g/m*3 -1.6 C 0 km/h
398 02-02-2010 07:35:02 -1.8 C 3.46 g/m*3 -1.8 C 0 km/h
399 02-02-2010 07:47:02 -1.7 C 3.49 g/m*3 -1.7 C 0 km/h
400 02-02-2010 07:59:02 -1.5 C 3.49 g/m*3 -1.5 C 0 km/h
Sensor: Nr:Datum:Temp:Abs-Feuchte:Windchill:Wind:
Aussen-T/F 401 02-02-2010 08:11:03 -1.4 C 3.52 g/m*3 -1.4 C 0 km/h
402 02-02-2010 08:23:02 -1.3 C 3.5 g/m*3 -1.3 C 0 km/h
403 02-02-2010 08:35:02 -1.2 C 3.48 g/m*3 -1.2 C 0 km/h
404 02-02-2010 08:47:02 -1.1 C 3.5 g/m*3 -1.1 C 0 km/h
405 02-02-2010 08:59:02 -0.8 C 3.53 g/m*3 -0.8 C 0 km/h
406 02-02-2010 09:11:02 -0.7 C 3.55 g/m*3 -0.7 C 0 km/h
407 02-02-2010 09:23:02 -0.6 C 3.63 g/m*3 -0.6 C 0 km/h
408 02-02-2010 09:35:02 -0.3 C 3.7 g/m*3 -0.3 C 0 km/h
409 02-02-2010 09:47:02 -0.1 C 3.75 g/m*3 -0.1 C 0 km/h
410 02-02-2010 09:59:02 0.1 C 3.81 g/m*3 0.1 C 0 km/h
411 02-02-2010 10:11:02 0.4 C 3.88 g/m*3 0.4 C 0 km/h
412 02-02-2010 10:23:02 0.6 C 3.89 g/m*3 0.6 C 0 km/h
413 02-02-2010 10:35:01 0.8 C 3.89 g/m*3 0.8 C 0 km/h
414 02-02-2010 10:47:02 1 C 3.89 g/m*3 1 C 0 km/h
415 02-02-2010 10:59:02 1.1 C 3.92 g/m*3 1.1 C 0 km/h
416 02-02-2010 11:11:01 1.3 C 3.92 g/m*3 1.3 C 0 km/h
417 02-02-2010 11:23:02 1.5 C 3.97 g/m*3 1.5 C 0 km/h
418 02-02-2010 11:35:01 1.5 C 3.97 g/m*3 1.5 C 0 km/h
419 02-02-2010 11:47:03 1.5 C 3.97 g/m*3 1.5 C 0 km/h
420 02-02-2010 11:59:03 1.6 C 4.06 g/m*3 1.6 C 0 km/h
421 02-02-2010 12:11:02 1.8 C 4.11 g/m*3 1.8 C 0 km/h
422 02-02-2010 12:23:03 1.9 C 4.14 g/m*3 1.9 C 0 km/h
423 02-02-2010 12:35:02 2 C 4.11 g/m*3 2 C 0 km/h
424 02-02-2010 12:47:02 2.1 C 4.14 g/m*3 2.1 C 0 km/h
425 02-02-2010 12:59:02 2.2 C 4.22 g/m*3 2.2 C 0 km/h
Sensor: Nr:Datum:Temp:Abs-Feuchte:Windchill:Wind:
Aussen-T/F 426 02-02-2010 13:11:02 2.2 C 4.22 g/m*3 2.2 C 0 km/h
427 02-02-2010 13:23:02 2.4 C 4.23 g/m*3 2.4 C 0 km/h
428 02-02-2010 13:35:02 2.6 C 4.22 g/m*3 2.6 C 0 km/h
429 02-02-2010 13:47:02 2.6 C 4.17 g/m*3 2.6 C 0 km/h
430 02-02-2010 13:59:02 2.8 C 4.22 g/m*3 2.8 C 0 km/h
431 02-02-2010 14:11:02 2.8 C 4.22 g/m*3 2.8 C 0 km/h
432 02-02-2010 14:23:02 2.9 C 4.25 g/m*3 2.9 C 0 km/h
433 02-02-2010 14:35:01 2.9 C 4.25 g/m*3 2.9 C 0 km/h
434 02-02-2010 14:47:02 2.9 C 4.19 g/m*3 2.9 C 0 km/h
435 02-02-2010 14:59:02 2.7 C 4.2 g/m*3 2.7 C 0 km/h
436 02-02-2010 15:11:01 2.7 C 4.31 g/m*3 2.7 C 0 km/h
437 02-02-2010 15:23:02 2.7 C 4.37 g/m*3 2.7 C 0 km/h
438 02-02-2010 15:35:01 2.7 C 4.37 g/m*3 2.7 C 0 km/h
439 02-02-2010 15:47:03 2.6 C 4.4 g/m*3 2.6 C 0 km/h
440 02-02-2010 15:59:03 2.6 C 4.4 g/m*3 2.6 C 0 km/h
441 02-02-2010 16:11:02 2.5 C 4.37 g/m*3 2.5 C 0 km/h
442 02-02-2010 16:23:03 2.4 C 4.4 g/m*3 2.4 C 0 km/h
443 02-02-2010 16:35:02 2.4 C 4.45 g/m*3 2.4 C 0 km/h
444 02-02-2010 16:47:03 2.3 C 4.48 g/m*3 2.3 C 0 km/h
445 02-02-2010 16:59:03 2.2 C 4.45 g/m*3 2.2 C 0 km/h
446 02-02-2010 17:11:02 2.1 C 4.48 g/m*3 2.1 C 0 km/h
447 02-02-2010 17:23:02 2.1 C 4.48 g/m*3 2.1 C 0 km/h
448 02-02-2010 17:35:02 2.1 C 4.48 g/m*3 2.1 C 0 km/h
449 02-02-2010 17:47:02 2.2 C 4.45 g/m*3 2.2 C 0 km/h
450 02-02-2010 17:59:02 2.2 C 4.45 g/m*3 2.2 C 0 km/h
Sensor: Nr:Datum:Temp:Abs-Feuchte:Windchill:Wind:
Aussen-T/F 451 02-02-2010 18:11:02 2.3 C 4.48 g/m*3 2.3 C 0 km/h
452 02-02-2010 18:23:02 2.2 C 4.45 g/m*3 2.2 C 0 km/h
453 02-02-2010 18:35:01 2.2 C 4.45 g/m*3 2.2 C 0 km/h
454 02-02-2010 18:47:02 2.2 C 4.39 g/m*3 2.2 C 0 km/h
455 02-02-2010 18:59:02 2.2 C 4.39 g/m*3 2.2 C 0 km/h
456 02-02-2010 19:11:01 2.3 C 4.42 g/m*3 2.3 C 0 km/h
457 02-02-2010 19:23:02 2.2 C 4.45 g/m*3 2.2 C 0 km/h
458 02-02-2010 19:35:01 2.1 C 4.48 g/m*3 2.1 C 0 km/h
459 02-02-2010 19:47:02 2.1 C 4.53 g/m*3 2.1 C 0 km/h
460 02-02-2010 19:59:02 2.2 C 4.56 g/m*3 2.2 C 0 km/h
461 02-02-2010 20:11:01 2.2 C 4.56 g/m*3 2.2 C 0 km/h
462 02-02-2010 20:23:02 2.4 C 4.62 g/m*3 2.4 C 0 km/h
463 02-02-2010 20:35:01 2.5 C 4.6 g/m*3 2.5 C 0 km/h
464 02-02-2010 20:47:02 2.4 C 4.57 g/m*3 2.4 C 0 km/h
465 02-02-2010 20:59:02 2.5 C 4.6 g/m*3 2.5 C 0 km/h
466 02-02-2010 21:11:02 2.6 C 4.57 g/m*3 2.6 C 0 km/h
467 02-02-2010 21:23:02 2.6 C 4.57 g/m*3 2.6 C 0 km/h
468 02-02-2010 21:35:02 2.6 C 4.57 g/m*3 2.6 C 0 km/h
469 02-02-2010 21:48:03 2.6 C 4.63 g/m*3 2.6 C 0 km/h
470 02-02-2010 22:00:03 2.7 C 4.66 g/m*3 2.7 C 0 km/h
471 02-02-2010 22:12:03 2.6 C 4.69 g/m*3 2.6 C 0 km/h
472 02-02-2010 22:24:03 2.5 C 4.77 g/m*3 2.5 C 0 km/h
473 02-02-2010 22:36:03 2.4 C 4.8 g/m*3 2.4 C 0 km/h
474 02-02-2010 22:48:03 2.4 C 4.8 g/m*3 2.4 C 0 km/h
475 02-02-2010 23:00:03 2.5 C 4.83 g/m*3 2.5 C 0 km/h
Sensor: Nr:Datum:Temp:Abs-Feuchte:Windchill:Wind:
Aussen-T/F 476 02-02-2010 23:12:03 2.7 C 4.84 g/m*3 2.7 C 0 km/h
477 02-02-2010 23:24:03 2.7 C 4.78 g/m*3 2.7 C 0 km/h
478 02-02-2010 23:36:03 2.8 C 4.81 g/m*3 2.8 C 0 km/h
479 02-02-2010 23:48:04 2.9 C 4.84 g/m*3 2.9 C 0 km/h
480 03-02-2010 00:00:04 2.8 C 4.81 g/m*3 2.8 C 0 km/h
481 03-02-2010 00:12:04 3.3 C 4.91 g/m*3 3.3 C 0 km/h
482 03-02-2010 00:24:04 3.6 C 4.89 g/m*3 3.6 C 0 km/h
483 03-02-2010 00:36:04 3.7 C 4.92 g/m*3 3.7 C 0 km/h
484 03-02-2010 00:48:04 4 C 4.96 g/m*3 4 C 0 km/h
485 03-02-2010 01:00:04 4 C 4.9 g/m*3 4 C 0 km/h
486 03-02-2010 01:12:04 4 C 4.9 g/m*3 4 C 0 km/h
487 03-02-2010 01:24:04 4 C 4.96 g/m*3 4 C 0 km/h
488 03-02-2010 01:36:04 4.3 C 5.06 g/m*3 4.3 C 0 km/h
489 03-02-2010 01:48:04 4.4 C 5.09 g/m*3 4.4 C 0 km/h
490 03-02-2010 02:00:04 4.6 C 5.16 g/m*3 4.6 C 0 km/h
491 03-02-2010 02:12:04 4.8 C 5.16 g/m*3 4.8 C 0 km/h
492 03-02-2010 02:24:04 4.7 C 5.13 g/m*3 4.7 C 0 km/h
493 03-02-2010 02:36:04 2.9 C 4.78 g/m*3 2.9 C 0 km/h
494 03-02-2010 02:48:04 2.4 C 4.8 g/m*3 2.4 C 0 km/h
495 03-02-2010 03:00:04 2.1 C 4.81 g/m*3 2.1 C 0 km/h
496 03-02-2010 03:12:04 1.9 C 4.86 g/m*3 1.9 C 0 km/h
497 03-02-2010 03:24:04 1.7 C 4.85 g/m*3 1.7 C 0 km/h
498 03-02-2010 03:36:04 1.6 C 4.87 g/m*3 1.6 C 0 km/h
499 03-02-2010 03:48:04 1.6 C 4.87 g/m*3 1.6 C 0 km/h
500 03-02-2010 04:00:05 1.5 C 4.89 g/m*3 1.5 C 0 km/h
Sensor: Nr:Datum:Temp:Abs-Feuchte:Windchill:Wind:
Aussen-T/F 501 03-02-2010 04:12:05 1.2 C 4.79 g/m*3 1.2 C 0 km/h
502 03-02-2010 04:24:05 0.9 C 4.69 g/m*3 0.9 C 0 km/h
503 03-02-2010 04:36:05 0.8 C 4.66 g/m*3 0.8 C 0 km/h
504 03-02-2010 04:48:05 1 C 4.72 g/m*3 1 C 0 km/h
505 03-02-2010 05:00:05 1.1 C 4.81 g/m*3 1.1 C 0 km/h
506 03-02-2010 05:12:05 1.1 C 4.81 g/m*3 1.1 C 0 km/h
507 03-02-2010 05:24:05 1.1 C 4.86 g/m*3 1.1 C 0 km/h
508 03-02-2010 05:36:05 1.1 C 4.86 g/m*3 1.1 C 0 km/h
509 03-02-2010 05:48:05 1.2 C 4.89 g/m*3 1.2 C 0 km/h
510 03-02-2010 06:00:05 1.1 C 4.91 g/m*3 1.1 C 0 km/h
511 03-02-2010 06:12:05 1.1 C 4.91 g/m*3 1.1 C 0 km/h
512 03-02-2010 06:24:05 1.1 C 4.91 g/m*3 1.1 C 0 km/h
513 03-02-2010 06:36:05 1 C 4.88 g/m*3 1 C 0 km/h
514 03-02-2010 06:48:05 1.1 C 4.91 g/m*3 1.1 C 0 km/h
515 03-02-2010 07:00:05 1 C 4.88 g/m*3 1 C 0 km/h
516 03-02-2010 07:12:03 0.9 C 4.9 g/m*3 0.9 C 0 km/h
517 03-02-2010 07:24:02 1 C 4.88 g/m*3 1 C 0 km/h
518 03-02-2010 07:36:03 1 C 4.93 g/m*3 1 C 0 km/h
519 03-02-2010 07:48:02 1 C 4.93 g/m*3 1 C 0 km/h
520 03-02-2010 08:00:02 1 C 4.93 g/m*3 1 C 0 km/h
521 03-02-2010 08:12:01 1 C 4.93 g/m*3 1 C 0 km/h
522 03-02-2010 08:24:02 1 C 4.93 g/m*3 1 C 0 km/h
523 03-02-2010 08:36:02 1.1 C 4.96 g/m*3 1.1 C 0 km/h
524 03-02-2010 08:48:02 1.2 C 5 g/m*3 1.2 C 0 km/h
525 03-02-2010 09:00:02 1.2 C 5 g/m*3 1.2 C 0 km/h
Sensor: Nr:Datum:Temp:Abs-Feuchte:Windchill:Wind:
Aussen-T/F 526 03-02-2010 09:12:03 1.3 C 5.03 g/m*3 1.3 C 0 km/h
527 03-02-2010 09:24:02 1.5 C 5.1 g/m*3 1.5 C 0 km/h
528 03-02-2010 09:36:02 1.5 C 5.1 g/m*3 1.5 C 0 km/h
529 03-02-2010 09:48:02 1.7 C 5.17 g/m*3 1.7 C 0 km/h
530 03-02-2010 10:00:02 2 C 5.22 g/m*3 2 C 0 km/h
531 03-02-2010 10:12:01 2.2 C 5.29 g/m*3 2.2 C 0 km/h
532 03-02-2010 10:24:02 2.3 C 5.27 g/m*3 2.3 C 0 km/h
533 03-02-2010 10:36:02 2.7 C 5.36 g/m*3 2.7 C 0 km/h
534 03-02-2010 10:48:02 3.1 C 5.45 g/m*3 3.1 C 0 km/h
535 03-02-2010 11:00:02 3.1 C 5.33 g/m*3 3.1 C 0 km/h
536 03-02-2010 11:12:02 3 C 5.11 g/m*3 3 C 0 km/h
537 03-02-2010 11:24:02 3.3 C 5.22 g/m*3 3.3 C 0 km/h
538 03-02-2010 11:36:02 3.3 C 5.1 g/m*3 3.3 C 0 km/h
539 03-02-2010 11:48:02 3.1 C 4.97 g/m*3 3.1 C 0 km/h
540 03-02-2010 12:00:02 3.2 C 5.06 g/m*3 3.2 C 0 km/h
541 03-02-2010 12:12:01 3.1 C 5.03 g/m*3 3.1 C 0 km/h
542 03-02-2010 12:24:02 3 C 5.05 g/m*3 3 C 0 km/h
543 03-02-2010 12:36:02 3 C 5.11 g/m*3 3 C 0 km/h
544 03-02-2010 12:48:02 3.1 C 5.15 g/m*3 3.1 C 0 km/h
545 03-02-2010 13:00:02 3.1 C 5.21 g/m*3 3.1 C 0 km/h
546 03-02-2010 13:12:02 3.1 C 5.21 g/m*3 3.1 C 0 km/h
547 03-02-2010 13:24:02 3.3 C 5.28 g/m*3 3.3 C 0 km/h
548 03-02-2010 13:36:02 3.2 C 5.24 g/m*3 3.2 C 0 km/h
549 03-02-2010 13:48:02 3.3 C 5.28 g/m*3 3.3 C 0 km/h
550 03-02-2010 14:00:02 3.3 C 5.28 g/m*3 3.3 C 0 km/h
Sensor: Nr:Datum:Temp:Abs-Feuchte:Windchill:Wind:
Aussen-T/F 551 03-02-2010 14:12:02 3.3 C 5.28 g/m*3 3.3 C 0 km/h
552 03-02-2010 14:24:02 3.3 C 5.28 g/m*3 3.3 C 0 km/h
553 03-02-2010 14:36:02 3.3 C 5.28 g/m*3 3.3 C 0 km/h
554 03-02-2010 14:48:02 3.2 C 5.24 g/m*3 3.2 C 0 km/h
555 03-02-2010 15:00:02 3.2 C 5.24 g/m*3 3.2 C 0 km/h
556 03-02-2010 15:12:02 3.1 C 5.27 g/m*3 3.1 C 0 km/h
557 03-02-2010 15:24:02 2.9 C 5.2 g/m*3 2.9 C 0 km/h
558 03-02-2010 15:36:02 3 C 5.23 g/m*3 3 C 0 km/h
559 03-02-2010 15:48:02 2.9 C 5.26 g/m*3 2.9 C 0 km/h
560 03-02-2010 16:00:02 2.8 C 5.22 g/m*3 2.8 C 0 km/h
561 03-02-2010 16:12:02 2.6 C 5.15 g/m*3 2.6 C 0 km/h
562 03-02-2010 16:24:02 2.6 C 5.15 g/m*3 2.6 C 0 km/h
563 03-02-2010 16:36:02 2.5 C 5.12 g/m*3 2.5 C 0 km/h
564 03-02-2010 16:48:02 2.4 C 5.08 g/m*3 2.4 C 0 km/h
565 03-02-2010 17:00:02 2.4 C 5.14 g/m*3 2.4 C 0 km/h
566 03-02-2010 17:12:02 2.3 C 5.1 g/m*3 2.3 C 0 km/h
567 03-02-2010 17:24:02 2.2 C 5.07 g/m*3 2.2 C 0 km/h
568 03-02-2010 17:36:02 2.1 C 5.04 g/m*3 2.1 C 0 km/h
569 03-02-2010 17:48:01 1.9 C 5.02 g/m*3 1.9 C 0 km/h
570 03-02-2010 18:00:01 1.9 C 5.02 g/m*3 1.9 C 0 km/h
571 03-02-2010 18:12:02 1.9 C 5.02 g/m*3 1.9 C 0 km/h
572 03-02-2010 18:24:01 1.9 C 5.08 g/m*3 1.9 C 0 km/h
573 03-02-2010 18:36:01 1.9 C 5.08 g/m*3 1.9 C 0 km/h
574 03-02-2010 18:48:01 1.8 C 5.04 g/m*3 1.8 C 0 km/h
575 03-02-2010 19:00:01 1.8 C 5.04 g/m*3 1.8 C 0 km/h
Sensor: Nr:Datum:Temp:Abs-Feuchte:Windchill:Wind:
Aussen-T/F 576 03-02-2010 19:12:02 1.7 C 5.01 g/m*3 1.7 C 0 km/h
577 03-02-2010 19:20:01 1.7 C 5.01 g/m*3 1.7 C 0 km/h
578 03-02-2010 19:45:01 1.8 C 5.04 g/m*3 1.8 C 0 km/h
579 03-02-2010 20:10:02 1.9 C 5.13 g/m*3 1.9 C 0 km/h
580 03-02-2010 20:35:01 1.8 C 5.1 g/m*3 1.8 C 0 km/h
581 03-02-2010 21:00:01 1.7 C 5.06 g/m*3 1.7 C 0 km/h
582 03-02-2010 21:25:01 1.7 C 5.06 g/m*3 1.7 C 0 km/h
583 03-02-2010 21:50:02 1.8 C 5.1 g/m*3 1.8 C 0 km/h
584 03-02-2010 22:15:03 1.8 C 5.1 g/m*3 1.8 C 0 km/h
585 03-02-2010 22:40:02 1.8 C 5.1 g/m*3 1.8 C 0 km/h
586 03-02-2010 23:05:02 1.8 C 5.1 g/m*3 1.8 C 0 km/h
587 03-02-2010 23:30:02 1.8 C 5.1 g/m*3 1.8 C 0 km/h
588 03-02-2010 23:55:02 2 C 5.17 g/m*3 2 C 0 km/h
589 04-02-2010 00:20:02 2 C 5.17 g/m*3 2 C 0 km/h
590 04-02-2010 00:45:02 2 C 5.17 g/m*3 2 C 0 km/h
591 04-02-2010 01:10:02 2 C 5.17 g/m*3 2 C 0 km/h
592 04-02-2010 01:35:02 2 C 5.22 g/m*3 2 C 0 km/h
593 04-02-2010 02:00:02 2.1 C 5.26 g/m*3 2.1 C 0 km/h
594 04-02-2010 02:25:03 2.2 C 5.29 g/m*3 2.2 C 0 km/h
595 04-02-2010 02:51:03 2.1 C 5.26 g/m*3 2.1 C 0 km/h
596 04-02-2010 03:16:04 2.2 C 5.29 g/m*3 2.2 C 0 km/h
597 04-02-2010 03:41:01 2.3 C 5.33 g/m*3 2.3 C 0 km/h
598 04-02-2010 04:06:02 2.3 C 5.33 g/m*3 2.3 C 0 km/h
599 04-02-2010 04:31:02 2.3 C 5.33 g/m*3 2.3 C 0 km/h
600 04-02-2010 04:56:01 2.4 C 5.37 g/m*3 2.4 C 0 km/h
Sensor: Nr:Datum:Temp:Abs-Feuchte:Windchill:Wind:
Aussen-T/F 601 04-02-2010 05:21:02 2.5 C 5.46 g/m*3 2.5 C 0 km/h
602 04-02-2010 05:46:02 2.7 C 5.54 g/m*3 2.7 C 0 km/h
603 04-02-2010 06:11:01 3 C 5.65 g/m*3 3 C 0 km/h
604 04-02-2010 06:51:02 3.6 C 5.88 g/m*3 3.6 C 0 km/h
605 04-02-2010 07:16:02 3.4 C 5.8 g/m*3 3.4 C 0 km/h
606 04-02-2010 07:41:02 3.2 C 5.72 g/m*3 3.2 C 0 km/h
607 04-02-2010 08:06:02 3.3 C 5.76 g/m*3 3.3 C 0 km/h
608 04-02-2010 08:31:02 3.2 C 5.72 g/m*3 3.2 C 0 km/h
609 04-02-2010 08:56:02 3.3 C 5.76 g/m*3 3.3 C 0 km/h
610 04-02-2010 09:21:02 3.7 C 5.92 g/m*3 3.7 C 0 km/h
611 04-02-2010 09:46:02 4.5 C 6.24 g/m*3 4.5 C 0 km/h
612 04-02-2010 10:11:02 4.7 C 6.19 g/m*3 4.7 C 0 km/h
613 04-02-2010 10:36:02 5.2 C 6.13 g/m*3 5.2 C 0 km/h
614 04-02-2010 11:01:02 5.7 C 6.19 g/m*3 5.7 C 0 km/h
615 04-02-2010 11:26:02 6.3 C 6.07 g/m*3 6.3 C 0 km/h
616 04-02-2010 11:51:02 6.9 C 6 g/m*3 6.9 C 0 km/h
617 04-02-2010 12:16:02 7.1 C 5.85 g/m*3 7.1 C 0 km/h
618 04-02-2010 12:41:02 7.5 C 5.92 g/m*3 7.5 C 0 km/h
619 04-02-2010 13:06:02 8 C 5.95 g/m*3 8 C 0 km/h
620 04-02-2010 13:31:02 8.5 C 5.98 g/m*3 8.5 C 0 km/h
621 04-02-2010 13:56:02 8.7 C 5.88 g/m*3 8.7 C 0 km/h
622 04-02-2010 14:21:02 8.5 C 5.81 g/m*3 8.5 C 0 km/h
623 04-02-2010 14:46:03 8.2 C 5.61 g/m*3 8.2 C 0 km/h
624 04-02-2010 15:11:03 8.8 C 5.92 g/m*3 8.8 C 0 km/h
625 04-02-2010 15:36:03 8.8 C 5.74 g/m*3 8.8 C 0 km/h
Sensor: Nr:Datum:Temp:Abs-Feuchte:Windchill:Wind:
Aussen-T/F 626 04-02-2010 16:01:03 7.8 C 5.55 g/m*3 7.8 C 0 km/h
627 04-02-2010 16:26:03 7.5 C 5.52 g/m*3 7.5 C 0 km/h
628 04-02-2010 16:51:03 6.2 C 5.37 g/m*3 6.2 C 0 km/h
629 04-02-2010 17:16:03 5.7 C 5.48 g/m*3 5.7 C 0 km/h
630 04-02-2010 17:41:03 5 C 5.37 g/m*3 5 C 0 km/h
631 04-02-2010 18:06:03 4.4 C 5.29 g/m*3 4.4 C 0 km/h
632 04-02-2010 18:31:03 4 C 5.28 g/m*3 4 C 0 km/h
633 04-02-2010 18:56:03 3.6 C 5.2 g/m*3 3.6 C 0 km/h
634 04-02-2010 19:21:03 3.3 C 5.16 g/m*3 3.3 C 0 km/h
635 04-02-2010 19:46:03 3 C 5.11 g/m*3 3 C 0 km/h
636 04-02-2010 20:11:03 2.7 C 5.13 g/m*3 2.7 C 0 km/h
637 04-02-2010 20:36:03 2.5 C 5.12 g/m*3 2.5 C 0 km/h
638 04-02-2010 21:01:03 2.5 C 5.17 g/m*3 2.5 C 0 km/h
639 04-02-2010 21:26:03 2.6 C 5.27 g/m*3 2.6 C 0 km/h
640 04-02-2010 21:51:03 2.1 C 5.04 g/m*3 2.1 C 0 km/h
641 04-02-2010 22:16:03 2.2 C 5.18 g/m*3 2.2 C 0 km/h
642 04-02-2010 22:41:03 1.8 C 5.04 g/m*3 1.8 C 0 km/h
643 04-02-2010 23:06:03 1.8 C 5.1 g/m*3 1.8 C 0 km/h
644 04-02-2010 23:31:03 1.7 C 5.06 g/m*3 1.7 C 0 km/h
645 04-02-2010 23:56:04 2.1 C 5.2 g/m*3 2.1 C 0 km/h
646 05-02-2010 00:21:04 2.6 C 5.44 g/m*3 2.6 C 0 km/h
647 05-02-2010 00:46:04 2.2 C 5.24 g/m*3 2.2 C 0 km/h
648 05-02-2010 01:11:04 2 C 5.17 g/m*3 2 C 0 km/h
649 05-02-2010 01:36:04 1.7 C 5.12 g/m*3 1.7 C 0 km/h
650 05-02-2010 02:01:04 2.2 C 5.24 g/m*3 2.2 C 0 km/h
Sensor: Nr:Datum:Temp:Abs-Feuchte:Windchill:Wind:
Aussen-T/F 651 05-02-2010 02:26:04 2.6 C 5.38 g/m*3 2.6 C 0 km/h
652 05-02-2010 02:51:04 2.7 C 5.3 g/m*3 2.7 C 0 km/h
653 05-02-2010 03:16:04 2.7 C 5.19 g/m*3 2.7 C 0 km/h
654 05-02-2010 03:41:04 2.8 C 5.04 g/m*3 2.8 C 0 km/h
655 05-02-2010 04:06:04 2.8 C 5.04 g/m*3 2.8 C 0 km/h
656 05-02-2010 04:31:04 2.8 C 4.93 g/m*3 2.8 C 0 km/h
657 05-02-2010 04:56:04 2.8 C 4.93 g/m*3 2.8 C 0 km/h
658 05-02-2010 05:21:04 2.7 C 4.89 g/m*3 2.7 C 0 km/h
659 05-02-2010 05:46:04 2.7 C 4.84 g/m*3 2.7 C 0 km/h
660 05-02-2010 06:11:04 2.8 C 4.87 g/m*3 2.8 C 0 km/h
661 05-02-2010 06:36:04 2.7 C 4.84 g/m*3 2.7 C 0 km/h
662 05-02-2010 07:01:04 2.4 C 4.74 g/m*3 2.4 C 0 km/h
663 05-02-2010 07:26:04 2.5 C 4.89 g/m*3 2.5 C 0 km/h
664 05-02-2010 07:51:04 2.8 C 4.99 g/m*3 2.8 C 0 km/h
665 05-02-2010 08:16:04 3.2 C 4.88 g/m*3 3.2 C 0 km/h
666 05-02-2010 08:41:05 3.4 C 4.89 g/m*3 3.4 C 0 km/h
667 05-02-2010 09:06:05 3.6 C 4.89 g/m*3 3.6 C 0 km/h
668 05-02-2010 09:31:05 3.8 C 4.83 g/m*3 3.8 C 0 km/h
669 05-02-2010 09:56:05 4.1 C 4.67 g/m*3 4.1 C 0 km/h
670 05-02-2010 10:21:05 4.1 C 4.54 g/m*3 4.1 C 0 km/h
671 05-02-2010 10:46:05 4 C 4.51 g/m*3 4 C 0 km/h
672 05-02-2010 11:11:05 4.3 C 4.54 g/m*3 4.3 C 0 km/h
673 05-02-2010 11:36:05 4.3 C 4.41 g/m*3 4.3 C 0 km/h
674 05-02-2010 12:01:05 4.4 C 4.37 g/m*3 4.4 C 0 km/h
675 05-02-2010 12:26:05 4.4 C 4.31 g/m*3 4.4 C 0 km/h
Sensor: Nr:Datum:Temp:Abs-Feuchte:Windchill:Wind:
Aussen-T/F 676 05-02-2010 12:51:05 4.3 C 4.28 g/m*3 4.3 C 0 km/h
677 05-02-2010 13:16:05 4.5 C 4.4 g/m*3 4.5 C 0 km/h
678 05-02-2010 13:41:05 4.9 C 4.52 g/m*3 4.9 C 0 km/h
679 05-02-2010 14:06:05 5.1 C 4.38 g/m*3 5.1 C 0 km/h
680 05-02-2010 14:31:05 4.8 C 4.36 g/m*3 4.8 C 0 km/h
681 05-02-2010 14:56:05 4.6 C 4.37 g/m*3 4.6 C 0 km/h
682 05-02-2010 15:21:05 4.5 C 4.4 g/m*3 4.5 C 0 km/h
683 05-02-2010 15:46:05 4.2 C 4.38 g/m*3 4.2 C 0 km/h
684 05-02-2010 16:11:05 3.8 C 4.64 g/m*3 3.8 C 0 km/h
685 05-02-2010 16:36:05 3.6 C 4.7 g/m*3 3.6 C 0 km/h
686 05-02-2010 17:01:05 3.4 C 4.83 g/m*3 3.4 C 0 km/h
687 05-02-2010 17:26:05 3.4 C 4.95 g/m*3 3.4 C 0 km/h
688 05-02-2010 17:51:06 3.2 C 4.94 g/m*3 3.2 C 0 km/h
689 05-02-2010 18:16:06 3.3 C 5.04 g/m*3 3.3 C 0 km/h
690 05-02-2010 18:41:06 3.1 C 5.03 g/m*3 3.1 C 0 km/h
691 05-02-2010 19:06:06 3.2 C 5.12 g/m*3 3.2 C 0 km/h
692 05-02-2010 19:31:06 3 C 5.05 g/m*3 3 C 0 km/h
693 05-02-2010 19:56:06 3.1 C 5.09 g/m*3 3.1 C 0 km/h
694 05-02-2010 20:21:06 3 C 5.11 g/m*3 3 C 0 km/h
695 05-02-2010 20:46:06 2.8 C 5.1 g/m*3 2.8 C 0 km/h
696 05-02-2010 21:11:06 2.8 C 5.16 g/m*3 2.8 C 0 km/h
697 05-02-2010 21:36:06 2.6 C 5.09 g/m*3 2.6 C 0 km/h
698 05-02-2010 22:01:06 2.7 C 5.19 g/m*3 2.7 C 0 km/h
699 05-02-2010 22:26:06 2.9 C 5.26 g/m*3 2.9 C 0 km/h
700 05-02-2010 22:51:06 3 C 5.23 g/m*3 3 C 0 km/h
Sensor: Nr:Datum:Temp:Abs-Feuchte:Windchill:Wind:
Aussen-T/F 701 05-02-2010 23:16:06 3 C 5.23 g/m*3 3 C 0 km/h
702 05-02-2010 23:41:06 3 C 5.23 g/m*3 3 C 0 km/h
703 06-02-2010 00:06:06 2.8 C 5.22 g/m*3 2.8 C 0 km/h
704 06-02-2010 00:31:06 2.8 C 5.22 g/m*3 2.8 C 0 km/h
705 06-02-2010 00:56:06 2.7 C 5.19 g/m*3 2.7 C 0 km/h
706 06-02-2010 01:21:06 2.4 C 5.08 g/m*3 2.4 C 0 km/h
707 06-02-2010 01:46:06 2.1 C 4.98 g/m*3 2.1 C 0 km/h
708 06-02-2010 02:11:06 2.4 C 5.14 g/m*3 2.4 C 0 km/h
709 06-02-2010 02:36:06 2.7 C 5.24 g/m*3 2.7 C 0 km/h
710 06-02-2010 03:01:07 2.8 C 5.28 g/m*3 2.8 C 0 km/h
711 06-02-2010 03:26:07 2.5 C 5.17 g/m*3 2.5 C 0 km/h
712 06-02-2010 03:51:07 2.4 C 5.14 g/m*3 2.4 C 0 km/h
713 06-02-2010 04:16:07 2.6 C 5.27 g/m*3 2.6 C 0 km/h
714 06-02-2010 04:41:07 2.8 C 5.34 g/m*3 2.8 C 0 km/h
715 06-02-2010 05:06:07 3 C 5.41 g/m*3 3 C 0 km/h
716 06-02-2010 05:31:07 3 C 5.41 g/m*3 3 C 0 km/h
717 06-02-2010 05:56:07 3 C 5.41 g/m*3 3 C 0 km/h
718 06-02-2010 06:21:07 3.2 C 5.48 g/m*3 3.2 C 0 km/h
719 06-02-2010 06:46:07 3 C 5.41 g/m*3 3 C 0 km/h
720 06-02-2010 07:11:07 3 C 5.41 g/m*3 3 C 0 km/h
721 06-02-2010 07:36:07 3.1 C 5.45 g/m*3 3.1 C 0 km/h
722 06-02-2010 08:01:07 3.1 C 5.45 g/m*3 3.1 C 0 km/h
723 06-02-2010 08:26:07 3.2 C 5.48 g/m*3 3.2 C 0 km/h
724 06-02-2010 08:51:07 3.4 C 5.56 g/m*3 3.4 C 0 km/h
725 06-02-2010 09:16:07 3.7 C 5.67 g/m*3 3.7 C 0 km/h
Sensor: Nr:Datum:Temp:Abs-Feuchte:Windchill:Wind:
Aussen-T/F 726 06-02-2010 09:41:07 4 C 5.72 g/m*3 4 C 0 km/h
727 06-02-2010 10:06:07 4.6 C 5.89 g/m*3 4.6 C 0 km/h
728 06-02-2010 10:31:07 5.1 C 5.95 g/m*3 5.1 C 0 km/h
729 06-02-2010 10:56:07 5.6 C 6.01 g/m*3 5.6 C 0 km/h
730 06-02-2010 11:21:07 5.7 C 5.84 g/m*3 5.7 C 0 km/h
731 06-02-2010 11:46:07 6.3 C 5.85 g/m*3 6.3 C 0 km/h
732 06-02-2010 12:11:07 6.7 C 5.93 g/m*3 6.7 C 0 km/h
733 06-02-2010 12:36:08 6.9 C 6 g/m*3 6.9 C 0 km/h
734 06-02-2010 13:01:08 7.3 C 5.69 g/m*3 7.3 C 0 km/h
735 06-02-2010 13:26:08 7.4 C 5.65 g/m*3 7.4 C 0 km/h
736 06-02-2010 13:51:08 7.3 C 5.29 g/m*3 7.3 C 0 km/h
737 06-02-2010 14:16:08 7.1 C 5.23 g/m*3 7.1 C 0 km/h
738 06-02-2010 14:41:08 7 C 5.27 g/m*3 7 C 0 km/h
739 06-02-2010 15:06:08 6.7 C 5.39 g/m*3 6.7 C 0 km/h
740 06-02-2010 15:31:08 6.5 C 5.47 g/m*3 6.5 C 0 km/h
741 06-02-2010 15:56:08 6.4 C 5.36 g/m*3 6.4 C 0 km/h
742 06-02-2010 16:21:08 6.2 C 5.44 g/m*3 6.2 C 0 km/h
743 06-02-2010 16:46:08 6 C 5.37 g/m*3 6 C 0 km/h
744 06-02-2010 17:11:08 5.8 C 5.44 g/m*3 5.8 C 0 km/h
745 06-02-2010 17:36:08 5.7 C 5.48 g/m*3 5.7 C 0 km/h
746 06-02-2010 18:01:08 5.5 C 5.41 g/m*3 5.5 C 0 km/h
747 06-02-2010 18:26:08 5.3 C 5.41 g/m*3 5.3 C 0 km/h
748 06-02-2010 18:51:08 5.2 C 5.37 g/m*3 5.2 C 0 km/h
749 06-02-2010 19:16:08 5.1 C 5.4 g/m*3 5.1 C 0 km/h
750 06-02-2010 19:41:08 5.1 C 5.4 g/m*3 5.1 C 0 km/h
Sensor: Nr:Datum:Temp:Abs-Feuchte:Windchill:Wind:
Aussen-T/F 751 06-02-2010 20:06:08 5 C 5.37 g/m*3 5 C 0 km/h
752 06-02-2010 20:31:08 4.9 C 5.4 g/m*3 4.9 C 0 km/h
753 06-02-2010 20:56:08 4.9 C 5.47 g/m*3 4.9 C 0 km/h
754 06-02-2010 21:21:09 4.8 C 5.43 g/m*3 4.8 C 0 km/h
755 06-02-2010 21:46:09 4.8 C 5.43 g/m*3 4.8 C 0 km/h
756 06-02-2010 22:11:09 4.8 C 5.5 g/m*3 4.8 C 0 km/h
757 06-02-2010 22:36:09 4.7 C 5.46 g/m*3 4.7 C 0 km/h
758 06-02-2010 23:01:09 4.7 C 5.46 g/m*3 4.7 C 0 km/h
759 06-02-2010 23:26:09 4.6 C 5.43 g/m*3 4.6 C 0 km/h
760 06-02-2010 23:51:09 4.6 C 5.43 g/m*3 4.6 C 0 km/h
761 07-02-2010 00:16:09 4.5 C 5.46 g/m*3 4.5 C 0 km/h
762 07-02-2010 00:41:09 4.5 C 5.46 g/m*3 4.5 C 0 km/h
763 07-02-2010 01:06:09 4.5 C 5.46 g/m*3 4.5 C 0 km/h
764 07-02-2010 01:31:09 4.6 C 5.49 g/m*3 4.6 C 0 km/h
765 07-02-2010 01:56:09 4.4 C 5.42 g/m*3 4.4 C 0 km/h
766 07-02-2010 02:21:09 4.2 C 5.41 g/m*3 4.2 C 0 km/h
767 07-02-2010 02:46:09 4.1 C 5.38 g/m*3 4.1 C 0 km/h
768 07-02-2010 03:11:09 4.1 C 5.5 g/m*3 4.1 C 0 km/h
769 07-02-2010 03:36:09 4.1 C 5.5 g/m*3 4.1 C 0 km/h
770 07-02-2010 04:01:09 4.1 C 5.57 g/m*3 4.1 C 0 km/h
771 07-02-2010 04:26:09 4 C 5.59 g/m*3 4 C 0 km/h
772 07-02-2010 04:51:09 4 C 5.59 g/m*3 4 C 0 km/h
773 07-02-2010 05:16:09 4.1 C 5.7 g/m*3 4.1 C 0 km/h
774 07-02-2010 05:41:09 3.8 C 5.58 g/m*3 3.8 C 0 km/h
775 07-02-2010 06:06:10 3.8 C 5.65 g/m*3 3.8 C 0 km/h
Sensor: Nr:Datum:Temp:Abs-Feuchte:Windchill:Wind:
Aussen-T/F 776 07-02-2010 06:31:10 3.8 C 5.65 g/m*3 3.8 C 0 km/h
777 07-02-2010 06:56:10 3.8 C 5.65 g/m*3 3.8 C 0 km/h
778 07-02-2010 07:21:10 3.7 C 5.61 g/m*3 3.7 C 0 km/h
779 07-02-2010 07:46:10 3.7 C 5.67 g/m*3 3.7 C 0 km/h
780 07-02-2010 08:11:10 3.8 C 5.71 g/m*3 3.8 C 0 km/h
781 07-02-2010 08:36:10 3.7 C 5.67 g/m*3 3.7 C 0 km/h
782 07-02-2010 09:01:10 3.8 C 5.71 g/m*3 3.8 C 0 km/h
783 07-02-2010 09:26:10 3.9 C 5.75 g/m*3 3.9 C 0 km/h
784 07-02-2010 09:51:10 4.1 C 5.76 g/m*3 4.1 C 0 km/h
785 07-02-2010 10:16:10 4.1 C 5.7 g/m*3 4.1 C 0 km/h
786 07-02-2010 10:41:10 4.5 C 5.72 g/m*3 4.5 C 0 km/h
787 07-02-2010 11:06:10 4.9 C 5.6 g/m*3 4.9 C 0 km/h
788 07-02-2010 11:31:10 4.7 C 5.13 g/m*3 4.7 C 0 km/h
789 07-02-2010 11:56:10 4.5 C 4.93 g/m*3 4.5 C 0 km/h
790 07-02-2010 12:21:10 5.3 C 5.06 g/m*3 5.3 C 0 km/h
791 07-02-2010 12:46:10 5.7 C 4.84 g/m*3 5.7 C 0 km/h
792 07-02-2010 13:11:10 5.6 C 4.67 g/m*3 5.6 C 0 km/h
793 07-02-2010 13:36:10 5.8 C 4.66 g/m*3 5.8 C 0 km/h
794 07-02-2010 14:01:10 6 C 4.57 g/m*3 6 C 0 km/h
795 07-02-2010 14:26:10 6.1 C 4.53 g/m*3 6.1 C 0 km/h
796 07-02-2010 14:51:10 5.7 C 4.41 g/m*3 5.7 C 0 km/h
797 07-02-2010 15:16:11 5.5 C 4.49 g/m*3 5.5 C 0 km/h
798 07-02-2010 15:41:11 5.4 C 4.47 g/m*3 5.4 C 0 km/h
799 07-02-2010 16:06:11 5 C 4.62 g/m*3 5 C 0 km/h
800 07-02-2010 16:31:11 4.8 C 4.76 g/m*3 4.8 C 0 km/h
Sensor: Nr:Datum:Temp:Abs-Feuchte:Windchill:Wind:
Aussen-T/F 801 07-02-2010 16:56:11 4.6 C 4.83 g/m*3 4.6 C 0 km/h
802 07-02-2010 17:21:11 4.7 C 4.93 g/m*3 4.7 C 0 km/h
803 07-02-2010 17:46:11 4.5 C 4.93 g/m*3 4.5 C 0 km/h
804 07-02-2010 18:11:11 4.4 C 4.96 g/m*3 4.4 C 0 km/h
805 07-02-2010 18:36:11 4.2 C 4.96 g/m*3 4.2 C 0 km/h
806 07-02-2010 19:01:11 4.1 C 4.86 g/m*3 4.1 C 0 km/h
807 07-02-2010 19:26:11 3.7 C 4.49 g/m*3 3.7 C 0 km/h
808 07-02-2010 19:51:11 3.7 C 4.42 g/m*3 3.7 C 0 km/h
809 07-02-2010 20:16:11 3.5 C 4.37 g/m*3 3.5 C 0 km/h
810 07-02-2010 20:41:11 3.3 C 4.37 g/m*3 3.3 C 0 km/h
811 07-02-2010 21:06:11 3 C 4.22 g/m*3 3 C 0 km/h
812 07-02-2010 21:31:11 2.7 C 4.08 g/m*3 2.7 C 0 km/h
813 07-02-2010 21:56:11 2.5 C 3.97 g/m*3 2.5 C 0 km/h
814 07-02-2010 22:21:11 2.4 C 3.83 g/m*3 2.4 C 0 km/h
815 07-02-2010 22:46:11 2 C 3.56 g/m*3 2 C 0 km/h
816 07-02-2010 23:11:11 2 C 3.67 g/m*3 2 C 0 km/h
817 07-02-2010 23:36:12 1.7 C 3.65 g/m*3 1.7 C 0 km/h
818 08-02-2010 00:01:12 1.4 C 3.52 g/m*3 1.4 C 0 km/h
819 08-02-2010 00:26:12 1.6 C 3.68 g/m*3 1.6 C 0 km/h
820 08-02-2010 00:51:12 1.4 C 3.47 g/m*3 1.4 C 0 km/h
821 08-02-2010 01:16:12 1.2 C 3.42 g/m*3 1.2 C 0 km/h
822 08-02-2010 01:41:12 1 C 3.43 g/m*3 1 C 0 km/h
823 08-02-2010 02:06:12 0.8 C 3.48 g/m*3 0.8 C 0 km/h
824 08-02-2010 02:31:12 0.8 C 3.48 g/m*3 0.8 C 0 km/h
825 08-02-2010 02:56:12 0.7 C 3.46 g/m*3 0.7 C 0 km/h
Sensor: Nr:Datum:Temp:Abs-Feuchte:Windchill:Wind:
Aussen-T/F 826 08-02-2010 03:21:12 0.5 C 3.41 g/m*3 0.5 C 0 km/h
827 08-02-2010 03:46:12 0.5 C 3.41 g/m*3 0.5 C 0 km/h
828 08-02-2010 04:11:12 0.3 C 3.31 g/m*3 0.3 C 0 km/h
829 08-02-2010 04:36:12 0.3 C 3.31 g/m*3 0.3 C 0 km/h
830 08-02-2010 05:01:12 0.2 C 3.24 g/m*3 0.2 C 0 km/h
831 08-02-2010 05:26:12 -0.1 C 3.22 g/m*3 -0.1 C 0 km/h
832 08-02-2010 05:51:12 -0.3 C 3.23 g/m*3 -0.3 C 0 km/h
833 08-02-2010 06:16:12 -0.4 C 3.25 g/m*3 -0.4 C 0 km/h
834 08-02-2010 06:41:12 -0.3 C 3.23 g/m*3 -0.3 C 0 km/h
835 08-02-2010 07:06:12 -0.5 C 3.18 g/m*3 -0.5 C 0 km/h
836 08-02-2010 07:31:12 -0.6 C 3.16 g/m*3 -0.6 C 0 km/h
837 08-02-2010 07:56:12 -0.8 C 3.07 g/m*3 -0.8 C 0 km/h
838 08-02-2010 08:21:13 -0.9 C 3.05 g/m*3 -0.9 C 0 km/h
839 08-02-2010 08:46:13 -0.9 C 3 g/m*3 -0.9 C 0 km/h
840 08-02-2010 09:11:13 -0.7 C 3 g/m*3 -0.7 C 0 km/h
841 08-02-2010 09:36:13 -0.8 C 2.93 g/m*3 -0.8 C 0 km/h
842 08-02-2010 10:01:13 -0.6 C 2.93 g/m*3 -0.6 C 0 km/h
843 08-02-2010 10:26:13 -0.6 C 2.88 g/m*3 -0.6 C 0 km/h
844 08-02-2010 10:51:13 -0.5 C 2.9 g/m*3 -0.5 C 0 km/h
845 08-02-2010 11:16:13 -0.5 C 2.86 g/m*3 -0.5 C 0 km/h
846 08-02-2010 11:41:13 -0.2 C 2.72 g/m*3 -0.2 C 0 km/h
847 08-02-2010 12:06:13 -0.3 C 2.66 g/m*3 -0.3 C 0 km/h
848 08-02-2010 12:31:13 -0.4 C 2.5 g/m*3 -0.4 C 0 km/h
849 08-02-2010 12:56:13 0.3 C 2.57 g/m*3 0.3 C 0 km/h
850 08-02-2010 13:21:13 0.5 C 2.56 g/m*3 0.5 C 0 km/h
Sensor: Nr:Datum:Temp:Abs-Feuchte:Windchill:Wind:
Aussen-T/F 851 08-02-2010 13:46:13 0.8 C 2.66 g/m*3 0.8 C 0 km/h
852 08-02-2010 14:11:13 0.6 C 2.63 g/m*3 0.6 C 0 km/h
853 08-02-2010 14:36:13 0.5 C 2.66 g/m*3 0.5 C 0 km/h
854 08-02-2010 15:01:13 -0.2 C 2.63 g/m*3 -0.2 C 0 km/h
855 08-02-2010 15:26:13 -0.6 C 2.6 g/m*3 -0.6 C 0 km/h
856 08-02-2010 15:51:13 -1.1 C 2.51 g/m*3 -1.1 C 0 km/h
857 08-02-2010 16:16:13 -1.1 C 2.6 g/m*3 -1.1 C 0 km/h
858 08-02-2010 16:41:13 -1.4 C 2.55 g/m*3 -1.4 C 0 km/h
859 08-02-2010 17:06:13 -1.9 C 2.55 g/m*3 -1.9 C 0 km/h
860 08-02-2010 17:31:14 -2.1 C 2.51 g/m*3 -2.1 C 0 km/h
861 08-02-2010 17:56:14 -2.3 C 2.48 g/m*3 -2.3 C 0 km/h
862 08-02-2010 18:21:14 -2.3 C 2.52 g/m*3 -2.3 C 0 km/h
863 08-02-2010 18:46:14 -2.4 C 2.5 g/m*3 -2.4 C 0 km/h
864 08-02-2010 19:11:14 -2.4 C 2.5 g/m*3 -2.4 C 0 km/h
865 08-02-2010 19:36:14 -2.5 C 2.48 g/m*3 -2.5 C 0 km/h
866 08-02-2010 20:01:14 -2.6 C 2.46 g/m*3 -2.6 C 0 km/h
867 08-02-2010 20:26:14 -2.6 C 2.46 g/m*3 -2.6 C 0 km/h
868 08-02-2010 20:51:14 -2.6 C 2.51 g/m*3 -2.6 C 0 km/h
869 08-02-2010 21:16:14 -2.6 C 2.51 g/m*3 -2.6 C 0 km/h
870 08-02-2010 21:41:14 -2.6 C 2.51 g/m*3 -2.6 C 0 km/h
871 08-02-2010 22:06:14 -2.5 C 2.52 g/m*3 -2.5 C 0 km/h
872 08-02-2010 22:31:14 -2.7 C 2.45 g/m*3 -2.7 C 0 km/h
873 08-02-2010 22:56:14 -2.8 C 2.39 g/m*3 -2.8 C 0 km/h
874 08-02-2010 23:21:14 -3.1 C 2.34 g/m*3 -3.1 C 0 km/h
875 08-02-2010 23:46:14 -3.1 C 2.34 g/m*3 -3.1 C 0 km/h
Sensor: Nr:Datum:Temp:Abs-Feuchte:Windchill:Wind:
Aussen-T/F 876 09-02-2010 00:11:14 -3.3 C 2.31 g/m*3 -3.3 C 0 km/h
877 09-02-2010 00:36:14 -3.4 C 2.33 g/m*3 -3.4 C 0 km/h
878 09-02-2010 01:01:14 -3.3 C 2.38 g/m*3 -3.3 C 0 km/h
879 09-02-2010 01:26:14 -3.2 C 2.36 g/m*3 -3.2 C 0 km/h
880 09-02-2010 01:51:14 -3.3 C 2.35 g/m*3 -3.3 C 0 km/h
881 09-02-2010 02:16:14 -3.2 C 2.36 g/m*3 -3.2 C 0 km/h
882 09-02-2010 02:41:15 -3.2 C 2.32 g/m*3 -3.2 C 0 km/h
883 09-02-2010 03:06:15 -3.2 C 2.32 g/m*3 -3.2 C 0 km/h
884 09-02-2010 03:31:15 -3.4 C 2.29 g/m*3 -3.4 C 0 km/h
885 09-02-2010 03:56:15 -3.4 C 2.29 g/m*3 -3.4 C 0 km/h
886 09-02-2010 04:21:15 -3.4 C 2.29 g/m*3 -3.4 C 0 km/h
887 09-02-2010 04:46:15 -3.5 C 2.27 g/m*3 -3.5 C 0 km/h
888 09-02-2010 05:11:15 -3.5 C 2.27 g/m*3 -3.5 C 0 km/h
889 09-02-2010 05:36:15 -3.5 C 2.27 g/m*3 -3.5 C 0 km/h
890 09-02-2010 06:01:15 -3.7 C 2.28 g/m*3 -3.7 C 0 km/h
891 09-02-2010 06:26:15 -3.7 C 2.32 g/m*3 -3.7 C 0 km/h
892 09-02-2010 06:51:15 -3.7 C 2.32 g/m*3 -3.7 C 0 km/h
893 09-02-2010 07:16:15 -3.8 C 2.26 g/m*3 -3.8 C 0 km/h
894 09-02-2010 07:41:15 -3.8 C 2.3 g/m*3 -3.8 C 0 km/h
895 09-02-2010 08:06:15 -3.9 C 2.28 g/m*3 -3.9 C 0 km/h
896 09-02-2010 08:31:15 -3.9 C 2.28 g/m*3 -3.9 C 0 km/h
897 09-02-2010 08:56:15 -4.1 C 2.25 g/m*3 -4.1 C 0 km/h
898 09-02-2010 09:21:15 -4 C 2.27 g/m*3 -4 C 0 km/h
899 09-02-2010 09:46:15 -3.9 C 2.32 g/m*3 -3.9 C 0 km/h
900 09-02-2010 10:11:15 -4 C 2.38 g/m*3 -4 C 0 km/h
Sensor: Nr:Datum:Temp:Abs-Feuchte:Windchill:Wind:
Aussen-T/F 901 09-02-2010 10:36:15 -3.6 C 2.52 g/m*3 -3.6 C 0 km/h
902 09-02-2010 11:01:15 -3.2 C 2.56 g/m*3 -3.2 C 0 km/h
903 09-02-2010 11:26:15 -3.4 C 2.37 g/m*3 -3.4 C 0 km/h
904 09-02-2010 11:51:16 -3.5 C 2.35 g/m*3 -3.5 C 0 km/h
905 09-02-2010 12:16:16 -3.4 C 2.25 g/m*3 -3.4 C 0 km/h
906 09-02-2010 12:41:16 -3.1 C 2.18 g/m*3 -3.1 C 0 km/h
907 09-02-2010 13:06:16 -2.8 C 2.23 g/m*3 -2.8 C 0 km/h
908 09-02-2010 13:31:16 -2.8 C 2.11 g/m*3 -2.8 C 0 km/h
909 09-02-2010 13:56:16 -3 C 2.04 g/m*3 -3 C 0 km/h
910 09-02-2010 14:21:16 -3.4 C 2.02 g/m*3 -3.4 C 0 km/h
911 09-02-2010 14:46:16 -3.5 C 2.01 g/m*3 -3.5 C 0 km/h
912 09-02-2010 15:11:16 -3.5 C 1.97 g/m*3 -3.5 C 0 km/h
913 09-02-2010 15:36:16 -3.6 C 2 g/m*3 -3.6 C 0 km/h
914 09-02-2010 16:01:16 -3.8 C 1.97 g/m*3 -3.8 C 0 km/h
915 09-02-2010 16:26:16 -3.6 C 2 g/m*3 -3.6 C 0 km/h
916 09-02-2010 16:51:16 -3.5 C 1.97 g/m*3 -3.5 C 0 km/h
917 09-02-2010 17:16:16 -3.9 C 2.03 g/m*3 -3.9 C 0 km/h
918 09-02-2010 17:41:16 -4 C 2.09 g/m*3 -4 C 0 km/h
919 09-02-2010 18:06:16 -4.1 C 2.14 g/m*3 -4.1 C 0 km/h
920 09-02-2010 18:31:16 -4.1 C 2.14 g/m*3 -4.1 C 0 km/h
921 09-02-2010 18:56:16 -4.2 C 2.09 g/m*3 -4.2 C 0 km/h
922 09-02-2010 19:21:16 -4.1 C 2.18 g/m*3 -4.1 C 0 km/h
923 09-02-2010 19:46:16 -4.1 C 2.18 g/m*3 -4.1 C 0 km/h
924 09-02-2010 20:11:16 -4.5 C 2.08 g/m*3 -4.5 C 0 km/h
925 09-02-2010 20:36:16 -4.6 C 2.1 g/m*3 -4.6 C 0 km/h
Sensor: Nr:Datum:Temp:Abs-Feuchte:Windchill:Wind:
Aussen-T/F 926 09-02-2010 21:01:17 -4.6 C 1.93 g/m*3 -4.6 C 0 km/h
927 09-02-2010 21:26:17 -4.6 C 1.75 g/m*3 -4.6 C 0 km/h
928 09-02-2010 21:51:17 -4.7 C 1.77 g/m*3 -4.7 C 0 km/h
929 09-02-2010 22:16:17 -4.6 C 1.82 g/m*3 -4.6 C 0 km/h
930 09-02-2010 22:41:17 -4.5 C 1.87 g/m*3 -4.5 C 0 km/h
931 09-02-2010 23:06:17 -4.6 C 1.93 g/m*3 -4.6 C 0 km/h
932 09-02-2010 23:31:17 -4.5 C 1.94 g/m*3 -4.5 C 0 km/h
933 09-02-2010 23:56:17 -4.5 C 1.94 g/m*3 -4.5 C 0 km/h
934 10-02-2010 00:21:17 -4.6 C 2.07 g/m*3 -4.6 C 0 km/h
935 10-02-2010 00:46:17 -4.7 C 2.12 g/m*3 -4.7 C 0 km/h
936 10-02-2010 01:11:17 -4.7 C 2.12 g/m*3 -4.7 C 0 km/h
937 10-02-2010 01:36:17 -4.7 C 2.16 g/m*3 -4.7 C 0 km/h
938 10-02-2010 02:01:17 -4.7 C 2.23 g/m*3 -4.7 C 0 km/h
939 10-02-2010 02:26:17 -4.6 C 2.28 g/m*3 -4.6 C 0 km/h
940 10-02-2010 02:51:17 -4.7 C 2.3 g/m*3 -4.7 C 0 km/h
941 10-02-2010 03:16:17 -4.7 C 2.33 g/m*3 -4.7 C 0 km/h
942 10-02-2010 03:41:17 -4.9 C 2.33 g/m*3 -4.9 C 0 km/h
943 10-02-2010 04:06:17 -4.9 C 2.3 g/m*3 -4.9 C 0 km/h
944 10-02-2010 04:31:17 -5 C 2.32 g/m*3 -5 C 0 km/h
945 10-02-2010 04:56:17 -5 C 2.35 g/m*3 -5 C 0 km/h
946 10-02-2010 05:21:17 -5 C 2.38 g/m*3 -5 C 0 km/h
947 10-02-2010 05:46:17 -5 C 2.35 g/m*3 -5 C 0 km/h
948 10-02-2010 06:11:18 -5 C 2.35 g/m*3 -5 C 0 km/h
949 10-02-2010 06:36:18 -5.2 C 2.32 g/m*3 -5.2 C 0 km/h
950 10-02-2010 07:01:18 -5.4 C 2.28 g/m*3 -5.4 C 0 km/h
Sensor: Nr:Datum:Temp:Abs-Feuchte:Windchill:Wind:
Aussen-T/F 951 10-02-2010 07:26:18 -5.6 C 2.31 g/m*3 -5.6 C 0 km/h
952 10-02-2010 07:51:18 -5.4 C 2.38 g/m*3 -5.4 C 0 km/h
953 10-02-2010 08:16:18 -5.5 C 2.36 g/m*3 -5.5 C 0 km/h
954 10-02-2010 08:41:18 -5.3 C 2.33 g/m*3 -5.3 C 0 km/h
955 10-02-2010 09:06:18 -5 C 2.42 g/m*3 -5 C 0 km/h
956 10-02-2010 09:31:18 -4.7 C 2.4 g/m*3 -4.7 C 0 km/h
957 10-02-2010 09:56:18 -4.7 C 2.4 g/m*3 -4.7 C 0 km/h
958 10-02-2010 10:21:18 -4.4 C 2.45 g/m*3 -4.4 C 0 km/h
959 10-02-2010 10:46:18 -4.4 C 2.35 g/m*3 -4.4 C 0 km/h
960 10-02-2010 11:11:18 -4 C 2.41 g/m*3 -4 C 0 km/h
961 10-02-2010 11:36:18 -3.7 C 2.35 g/m*3 -3.7 C 0 km/h
962 10-02-2010 12:01:18 -3.7 C 2.39 g/m*3 -3.7 C 0 km/h
963 10-02-2010 12:26:18 -3.2 C 2.32 g/m*3 -3.2 C 0 km/h
964 10-02-2010 12:51:18 -3.4 C 2.37 g/m*3 -3.4 C 0 km/h
965 10-02-2010 13:16:18 -3.2 C 2.52 g/m*3 -3.2 C 0 km/h
966 10-02-2010 13:41:18 -2.6 C 2.26 g/m*3 -2.6 C 0 km/h
967 10-02-2010 14:06:18 -3.2 C 2.21 g/m*3 -3.2 C 0 km/h
968 10-02-2010 14:31:18 -3.3 C 2.27 g/m*3 -3.3 C 0 km/h
969 10-02-2010 14:56:18 -3.2 C 2.25 g/m*3 -3.2 C 0 km/h
970 10-02-2010 15:21:18 -3.3 C 2.42 g/m*3 -3.3 C 0 km/h
971 10-02-2010 15:46:19 -3 C 2.24 g/m*3 -3 C 0 km/h
972 10-02-2010 16:11:19 -3.4 C 2.29 g/m*3 -3.4 C 0 km/h
973 10-02-2010 16:36:19 -3.5 C 2.27 g/m*3 -3.5 C 0 km/h
974 10-02-2010 17:01:19 -3.4 C 2.29 g/m*3 -3.4 C 0 km/h
975 10-02-2010 17:26:19 -3.8 C 2.3 g/m*3 -3.8 C 0 km/h
Sensor: Nr:Datum:Temp:Abs-Feuchte:Windchill:Wind:
Aussen-T/F 976 10-02-2010 17:51:19 -4.4 C 2.42 g/m*3 -4.4 C 0 km/h
977 10-02-2010 18:16:19 -5.2 C 2.32 g/m*3 -5.2 C 0 km/h
978 10-02-2010 18:41:19 -5.2 C 2.45 g/m*3 -5.2 C 0 km/h
979 10-02-2010 19:06:19 -5.3 C 2.37 g/m*3 -5.3 C 0 km/h
980 10-02-2010 19:31:19 -6 C 2.28 g/m*3 -6 C 0 km/h
981 10-02-2010 19:56:19 -6.2 C 2.31 g/m*3 -6.2 C 0 km/h
982 10-02-2010 20:21:19 -6.5 C 2.29 g/m*3 -6.5 C 0 km/h
983 10-02-2010 20:46:19 -6.3 C 2.35 g/m*3 -6.3 C 0 km/h
984 10-02-2010 21:11:19 -6.1 C 2.39 g/m*3 -6.1 C 0 km/h
985 10-02-2010 21:36:19 -6.6 C 2.27 g/m*3 -6.6 C 0 km/h
986 10-02-2010 22:01:19 -6.3 C 2.35 g/m*3 -6.3 C 0 km/h
987 10-02-2010 22:26:19 -6.5 C 2.26 g/m*3 -6.5 C 0 km/h
988 10-02-2010 22:51:19 -6.9 C 2.16 g/m*3 -6.9 C 0 km/h
989 10-02-2010 23:16:19 -7.4 C 2.09 g/m*3 -7.4 C 0 km/h
990 10-02-2010 23:41:19 -7 C 2.18 g/m*3 -7 C 0 km/h
991 11-02-2010 00:06:20 -6.5 C 2.29 g/m*3 -6.5 C 0 km/h
992 11-02-2010 00:31:20 -6.5 C 2.17 g/m*3 -6.5 C 0 km/h
993 11-02-2010 00:56:20 -6.6 C 2.12 g/m*3 -6.6 C 0 km/h
994 11-02-2010 01:21:20 -7.5 C 1.96 g/m*3 -7.5 C 0 km/h
995 11-02-2010 01:46:20 -8.1 C 1.9 g/m*3 -8.1 C 0 km/h
996 11-02-2010 02:11:20 -7.7 C 2.04 g/m*3 -7.7 C 0 km/h
997 11-02-2010 02:36:20 -7.4 C 2.09 g/m*3 -7.4 C 0 km/h
998 11-02-2010 03:01:20 -7.2 C 2.12 g/m*3 -7.2 C 0 km/h
999 11-02-2010 03:26:20 -6.9 C 2.14 g/m*3 -6.9 C 0 km/h
1000 11-02-2010 03:51:20 -6.8 C 2.12 g/m*3 -6.8 C 0 km/h
Sensor: Nr:Datum:Temp:Abs-Feuchte:Windchill:Wind:
Aussen-T/F 1001 11-02-2010 04:16:20 -6.8 C 2.09 g/m*3 -6.8 C 0 km/h
1002 11-02-2010 04:41:20 -6.4 C 2.18 g/m*3 -6.4 C 0 km/h
1003 11-02-2010 05:06:20 -6.2 C 2.18 g/m*3 -6.2 C 0 km/h
1004 11-02-2010 05:31:20 -6.1 C 2.23 g/m*3 -6.1 C 0 km/h
1005 11-02-2010 05:56:20 -6 C 2.31 g/m*3 -6 C 0 km/h
1006 11-02-2010 06:21:20 -5.9 C 2.36 g/m*3 -5.9 C 0 km/h
1007 11-02-2010 06:46:20 -5.8 C 2.44 g/m*3 -5.8 C 0 km/h
1008 11-02-2010 07:11:20 -5.7 C 2.46 g/m*3 -5.7 C 0 km/h
1009 11-02-2010 07:36:20 -5.6 C 2.51 g/m*3 -5.6 C 0 km/h
1010 11-02-2010 08:01:20 -5.5 C 2.56 g/m*3 -5.5 C 0 km/h
1011 11-02-2010 08:26:20 -5.4 C 2.58 g/m*3 -5.4 C 0 km/h
1012 11-02-2010 08:51:20 -5.2 C 2.62 g/m*3 -5.2 C 0 km/h
1013 11-02-2010 09:16:20 -4.9 C 2.64 g/m*3 -4.9 C 0 km/h
1014 11-02-2010 09:41:21 -4.5 C 2.68 g/m*3 -4.5 C 0 km/h
1015 11-02-2010 10:06:21 -4 C 2.74 g/m*3 -4 C 0 km/h
1016 11-02-2010 10:31:21 -3.7 C 2.77 g/m*3 -3.7 C 0 km/h
1017 11-02-2010 10:56:21 -3.3 C 2.77 g/m*3 -3.3 C 0 km/h
1018 11-02-2010 11:21:21 -2.9 C 2.77 g/m*3 -2.9 C 0 km/h
1019 11-02-2010 11:46:21 -2.7 C 2.81 g/m*3 -2.7 C 0 km/h
1020 11-02-2010 12:11:21 -2.5 C 2.89 g/m*3 -2.5 C 0 km/h
1021 11-02-2010 12:36:21 -2 C 2.99 g/m*3 -2 C 0 km/h
1022 11-02-2010 13:01:21 -1.5 C 3.1 g/m*3 -1.5 C 0 km/h
1023 11-02-2010 13:26:21 -1.1 C 3.05 g/m*3 -1.1 C 0 km/h
1024 11-02-2010 13:51:21 -1.3 C 2.92 g/m*3 -1.3 C 0 km/h
1025 11-02-2010 14:16:21 -1.1 C 3.1 g/m*3 -1.1 C 0 km/h
Sensor: Nr:Datum:Temp:Abs-Feuchte:Windchill:Wind:
Aussen-T/F 1026 11-02-2010 14:41:21 -1.2 C 2.94 g/m*3 -1.2 C 0 km/h
1027 11-02-2010 15:06:21 -1.2 C 2.9 g/m*3 -1.2 C 0 km/h
1028 11-02-2010 15:31:21 -1.6 C 2.86 g/m*3 -1.6 C 0 km/h
1029 11-02-2010 15:56:21 -1.3 C 2.88 g/m*3 -1.3 C 0 km/h
1030 11-02-2010 16:21:21 -1.4 C 2.9 g/m*3 -1.4 C 0 km/h
1031 11-02-2010 16:46:21 -1.6 C 2.9 g/m*3 -1.6 C 0 km/h
1032 11-02-2010 17:11:21 -1.7 C 2.84 g/m*3 -1.7 C 0 km/h
1033 11-02-2010 17:36:21 -1.7 C 2.76 g/m*3 -1.7 C 0 km/h
1034 11-02-2010 18:01:21 -1.8 C 2.74 g/m*3 -1.8 C 0 km/h
1035 11-02-2010 18:26:21 -1.8 C 2.74 g/m*3 -1.8 C 0 km/h
1036 11-02-2010 18:51:22 -1.8 C 2.69 g/m*3 -1.8 C 0 km/h
1037 11-02-2010 19:16:22 -1.8 C 2.65 g/m*3 -1.8 C 0 km/h
1038 11-02-2010 19:41:22 -1.8 C 2.65 g/m*3 -1.8 C 0 km/h
1039 11-02-2010 20:06:22 -1.8 C 2.65 g/m*3 -1.8 C 0 km/h
1040 11-02-2010 20:31:22 -1.8 C 2.69 g/m*3 -1.8 C 0 km/h
1041 11-02-2010 20:56:22 -1.8 C 2.74 g/m*3 -1.8 C 0 km/h
1042 11-02-2010 21:21:22 -2.1 C 2.85 g/m*3 -2.1 C 0 km/h
1043 11-02-2010 21:46:22 -2.2 C 2.95 g/m*3 -2.2 C 0 km/h
1044 11-02-2010 22:11:22 -2.5 C 3.05 g/m*3 -2.5 C 0 km/h
1045 11-02-2010 22:36:22 -2.5 C 3.09 g/m*3 -2.5 C 0 km/h
1046 11-02-2010 23:01:22 -2.5 C 3.13 g/m*3 -2.5 C 0 km/h
1047 11-02-2010 23:26:22 -2.6 C 3.15 g/m*3 -2.6 C 0 km/h
1048 11-02-2010 23:51:22 -2.5 C 3.17 g/m*3 -2.5 C 0 km/h
1049 12-02-2010 00:16:22 -2.6 C 3.19 g/m*3 -2.6 C 0 km/h
1050 12-02-2010 00:41:22 -2.7 C 3.21 g/m*3 -2.7 C 0 km/h
Sensor: Nr:Datum:Temp:Abs-Feuchte:Windchill:Wind:
Aussen-T/F 1051 12-02-2010 01:06:22 -2.7 C 3.21 g/m*3 -2.7 C 0 km/h
1052 12-02-2010 01:31:22 -2.7 C 3.21 g/m*3 -2.7 C 0 km/h
1053 12-02-2010 01:56:22 -2.6 C 3.19 g/m*3 -2.6 C 0 km/h
1054 12-02-2010 02:21:22 -2.6 C 3.19 g/m*3 -2.6 C 0 km/h
1055 12-02-2010 02:46:22 -2.6 C 3.15 g/m*3 -2.6 C 0 km/h
1056 12-02-2010 03:11:22 -2.6 C 3.19 g/m*3 -2.6 C 0 km/h
1057 12-02-2010 03:36:22 -2.7 C 3.17 g/m*3 -2.7 C 0 km/h
1058 12-02-2010 04:01:23 -2.6 C 3.23 g/m*3 -2.6 C 0 km/h
1059 12-02-2010 04:26:23 -2.6 C 3.19 g/m*3 -2.6 C 0 km/h
1060 12-02-2010 04:51:23 -2.6 C 3.19 g/m*3 -2.6 C 0 km/h
1061 12-02-2010 05:16:23 -2.6 C 3.19 g/m*3 -2.6 C 0 km/h
1062 12-02-2010 05:41:23 -2.5 C 3.21 g/m*3 -2.5 C 0 km/h
1063 12-02-2010 06:06:23 -2.6 C 3.15 g/m*3 -2.6 C 0 km/h
1064 12-02-2010 06:31:23 -2.5 C 3.17 g/m*3 -2.5 C 0 km/h
1065 12-02-2010 06:56:23 -2.6 C 3.19 g/m*3 -2.6 C 0 km/h
1066 12-02-2010 07:21:23 -2.7 C 3.17 g/m*3 -2.7 C 0 km/h
1067 12-02-2010 07:46:23 -2.8 C 3.07 g/m*3 -2.8 C 0 km/h
1068 12-02-2010 08:11:23 -2.7 C 3.01 g/m*3 -2.7 C 0 km/h
1069 12-02-2010 08:36:23 -2.6 C 3.03 g/m*3 -2.6 C 0 km/h
1070 12-02-2010 09:01:23 -2.6 C 3.03 g/m*3 -2.6 C 0 km/h
1071 12-02-2010 09:26:23 -2.5 C 3.01 g/m*3 -2.5 C 0 km/h
1072 12-02-2010 09:51:23 -2.3 C 2.97 g/m*3 -2.3 C 0 km/h
1073 12-02-2010 10:16:23 -2.1 C 2.93 g/m*3 -2.1 C 0 km/h
1074 12-02-2010 10:41:23 -1.9 C 2.84 g/m*3 -1.9 C 0 km/h
1075 12-02-2010 11:06:23 -1.2 C 2.9 g/m*3 -1.2 C 0 km/h
Sensor: Nr:Datum:Temp:Abs-Feuchte:Windchill:Wind:
Aussen-T/F 1076 12-02-2010 11:31:23 -1.3 C 2.74 g/m*3 -1.3 C 0 km/h
1077 12-02-2010 11:56:23 -1 C 2.71 g/m*3 -1 C 0 km/h
1078 12-02-2010 12:21:23 -1.1 C 2.69 g/m*3 -1.1 C 0 km/h
1079 12-02-2010 12:46:23 -1.4 C 2.77 g/m*3 -1.4 C 0 km/h
1080 12-02-2010 13:11:24 -1.2 C 2.85 g/m*3 -1.2 C 0 km/h
1081 12-02-2010 13:36:24 -1.2 C 2.9 g/m*3 -1.2 C 0 km/h
1082 12-02-2010 14:01:24 -1.1 C 2.92 g/m*3 -1.1 C 0 km/h
1083 12-02-2010 14:26:24 -0.7 C 2.95 g/m*3 -0.7 C 0 km/h
1084 12-02-2010 14:51:24 -0.5 C 2.95 g/m*3 -0.5 C 0 km/h
1085 12-02-2010 15:16:24 -0.8 C 2.84 g/m*3 -0.8 C 0 km/h
1086 12-02-2010 15:41:24 -0.8 C 2.89 g/m*3 -0.8 C 0 km/h
1087 12-02-2010 16:06:24 -0.9 C 2.91 g/m*3 -0.9 C 0 km/h
1088 12-02-2010 16:31:24 -1.2 C 2.85 g/m*3 -1.2 C 0 km/h
1089 12-02-2010 16:56:24 -1.2 C 2.76 g/m*3 -1.2 C 0 km/h
1090 12-02-2010 17:21:24 -1.4 C 2.73 g/m*3 -1.4 C 0 km/h
1091 12-02-2010 17:46:24 -1.9 C 2.76 g/m*3 -1.9 C 0 km/h
1092 12-02-2010 18:11:24 -2.1 C 2.72 g/m*3 -2.1 C 0 km/h
1093 12-02-2010 18:36:24 -2.2 C 2.78 g/m*3 -2.2 C 0 km/h
1094 12-02-2010 19:01:24 -2.4 C 2.66 g/m*3 -2.4 C 0 km/h
1095 12-02-2010 19:26:24 -2.5 C 2.69 g/m*3 -2.5 C 0 km/h
1096 12-02-2010 19:51:24 -2.5 C 2.73 g/m*3 -2.5 C 0 km/h
1097 12-02-2010 20:16:24 -2.6 C 2.71 g/m*3 -2.6 C 0 km/h
1098 12-02-2010 20:41:24 -2.6 C 2.75 g/m*3 -2.6 C 0 km/h
1099 12-02-2010 21:06:24 -2.6 C 2.71 g/m*3 -2.6 C 0 km/h
1100 12-02-2010 21:31:24 -2.7 C 2.73 g/m*3 -2.7 C 0 km/h
Sensor: Nr:Datum:Temp:Abs-Feuchte:Windchill:Wind:
Aussen-T/F 1101 12-02-2010 21:56:25 -2.8 C 2.71 g/m*3 -2.8 C 0 km/h
1102 12-02-2010 22:21:25 -2.8 C 2.75 g/m*3 -2.8 C 0 km/h
1103 12-02-2010 22:46:25 -2.9 C 2.73 g/m*3 -2.9 C 0 km/h
1104 12-02-2010 23:11:25 -3 C 2.71 g/m*3 -3 C 0 km/h
1105 12-02-2010 23:36:25 -3.2 C 2.67 g/m*3 -3.2 C 0 km/h
1106 13-02-2010 00:01:25 -3.2 C 2.71 g/m*3 -3.2 C 0 km/h
1107 13-02-2010 00:26:25 -3.4 C 2.75 g/m*3 -3.4 C 0 km/h
1108 13-02-2010 00:51:25 -3.7 C 2.73 g/m*3 -3.7 C 0 km/h
1109 13-02-2010 01:16:25 -3.9 C 2.76 g/m*3 -3.9 C 0 km/h
1110 13-02-2010 01:41:25 -4 C 2.78 g/m*3 -4 C 0 km/h
1111 13-02-2010 02:06:25 -3.9 C 2.8 g/m*3 -3.9 C 0 km/h
1112 13-02-2010 02:31:25 -4 C 2.74 g/m*3 -4 C 0 km/h
1113 13-02-2010 02:56:25 -4.1 C 2.69 g/m*3 -4.1 C 0 km/h
1114 13-02-2010 03:21:25 -4.2 C 2.7 g/m*3 -4.2 C 0 km/h
1115 13-02-2010 03:46:25 -4.2 C 2.74 g/m*3 -4.2 C 0 km/h
1116 13-02-2010 04:11:25 -4.2 C 2.74 g/m*3 -4.2 C 0 km/h
1117 13-02-2010 04:36:25 -4.1 C 2.8 g/m*3 -4.1 C 0 km/h
1118 13-02-2010 05:01:25 -4.1 C 2.8 g/m*3 -4.1 C 0 km/h
1119 13-02-2010 05:26:25 -4 C 2.82 g/m*3 -4 C 0 km/h
1120 13-02-2010 05:51:25 -3.8 C 2.86 g/m*3 -3.8 C 0 km/h
1121 13-02-2010 06:16:26 -3.9 C 2.84 g/m*3 -3.9 C 0 km/h
1122 13-02-2010 06:41:26 -3.8 C 2.86 g/m*3 -3.8 C 0 km/h
1123 13-02-2010 07:06:26 -3.7 C 2.84 g/m*3 -3.7 C 0 km/h
1124 13-02-2010 07:31:26 -3.8 C 2.78 g/m*3 -3.8 C 0 km/h
1125 13-02-2010 07:56:26 -3.8 C 2.82 g/m*3 -3.8 C 0 km/h
Sensor: Nr:Datum:Temp:Abs-Feuchte:Windchill:Wind:
Aussen-T/F 1126 13-02-2010 08:21:26 -3.6 C 2.86 g/m*3 -3.6 C 0 km/h
1127 13-02-2010 08:46:26 -3.2 C 2.9 g/m*3 -3.2 C 0 km/h
1128 13-02-2010 09:11:26 -2.9 C 2.89 g/m*3 -2.9 C 0 km/h
1129 13-02-2010 09:36:26 -2.6 C 2.91 g/m*3 -2.6 C 0 km/h
1130 13-02-2010 10:01:26 -2.7 C 2.73 g/m*3 -2.7 C 0 km/h
1131 13-02-2010 10:26:26 -2.4 C 2.7 g/m*3 -2.4 C 0 km/h
1132 13-02-2010 10:51:26 -2.3 C 2.64 g/m*3 -2.3 C 0 km/h
1133 13-02-2010 11:16:26 -1.9 C 2.76 g/m*3 -1.9 C 0 km/h
1134 13-02-2010 11:41:26 -1.5 C 2.66 g/m*3 -1.5 C 0 km/h
1135 13-02-2010 12:06:26 -1.3 C 2.7 g/m*3 -1.3 C 0 km/h
1136 13-02-2010 12:31:26 -0.5 C 2.86 g/m*3 -0.5 C 0 km/h
1137 13-02-2010 12:56:26 -1.2 C 2.67 g/m*3 -1.2 C 0 km/h
1138 13-02-2010 13:21:26 -1.4 C 2.73 g/m*3 -1.4 C 0 km/h
1139 13-02-2010 13:46:26 -1 C 2.76 g/m*3 -1 C 0 km/h
1140 13-02-2010 14:11:26 -1.1 C 2.51 g/m*3 -1.1 C 0 km/h
1141 13-02-2010 14:36:26 0 C 2.76 g/m*3 0 C 0 km/h
1142 13-02-2010 15:01:27 -0.3 C 2.56 g/m*3 -0.3 C 0 km/h
1143 13-02-2010 15:26:27 -0.5 C 2.57 g/m*3 -0.5 C 0 km/h
1144 13-02-2010 15:51:27 -0.7 C 2.54 g/m*3 -0.7 C 0 km/h
1145 13-02-2010 16:16:27 -0.9 C 2.55 g/m*3 -0.9 C 0 km/h
1146 13-02-2010 16:41:27 -1 C 2.58 g/m*3 -1 C 0 km/h
1147 13-02-2010 17:06:27 -1.4 C 2.68 g/m*3 -1.4 C 0 km/h
1148 13-02-2010 17:31:27 -1.9 C 2.8 g/m*3 -1.9 C 0 km/h
1149 13-02-2010 17:56:27 -2 C 2.91 g/m*3 -2 C 0 km/h
1150 13-02-2010 18:21:27 -2 C 2.95 g/m*3 -2 C 0 km/h
Sensor: Nr:Datum:Temp:Abs-Feuchte:Windchill:Wind:
Aussen-T/F 1151 13-02-2010 18:46:27 -2.1 C 2.97 g/m*3 -2.1 C 0 km/h
1152 13-02-2010 19:11:27 -2.2 C 2.99 g/m*3 -2.2 C 0 km/h
1153 13-02-2010 19:36:27 -2.1 C 3.01 g/m*3 -2.1 C 0 km/h
1154 13-02-2010 20:01:27 -2.2 C 2.99 g/m*3 -2.2 C 0 km/h
1155 13-02-2010 20:26:27 -2.3 C 3.01 g/m*3 -2.3 C 0 km/h
1156 13-02-2010 20:51:27 -2.4 C 2.99 g/m*3 -2.4 C 0 km/h
1157 13-02-2010 21:16:27 -2.4 C 2.99 g/m*3 -2.4 C 0 km/h
1158 13-02-2010 21:41:27 -2.4 C 2.99 g/m*3 -2.4 C 0 km/h
1159 13-02-2010 22:06:27 -2.5 C 2.97 g/m*3 -2.5 C 0 km/h
1160 13-02-2010 22:31:27 -2.6 C 2.99 g/m*3 -2.6 C 0 km/h
1161 13-02-2010 22:56:27 -2.5 C 3.05 g/m*3 -2.5 C 0 km/h
1162 13-02-2010 23:21:28 -2.7 C 3.05 g/m*3 -2.7 C 0 km/h
1163 13-02-2010 23:46:28 -2.8 C 3.03 g/m*3 -2.8 C 0 km/h
1164 14-02-2010 00:11:28 -2.9 C 3.01 g/m*3 -2.9 C 0 km/h
1165 14-02-2010 00:36:28 -3.1 C 3 g/m*3 -3.1 C 0 km/h
1166 14-02-2010 01:01:28 -3.2 C 2.98 g/m*3 -3.2 C 0 km/h
1167 14-02-2010 01:26:28 -3.3 C 2.96 g/m*3 -3.3 C 0 km/h
1168 14-02-2010 01:51:28 -3.4 C 2.94 g/m*3 -3.4 C 0 km/h
1169 14-02-2010 02:16:28 -3.4 C 2.98 g/m*3 -3.4 C 0 km/h
1170 14-02-2010 02:41:28 -3.4 C 2.98 g/m*3 -3.4 C 0 km/h
1171 14-02-2010 03:06:28 -3.4 C 3.02 g/m*3 -3.4 C 0 km/h
1172 14-02-2010 03:31:28 -3.4 C 3.02 g/m*3 -3.4 C 0 km/h
1173 14-02-2010 03:56:28 -3.6 C 2.97 g/m*3 -3.6 C 0 km/h
1174 14-02-2010 04:21:28 -3.5 C 2.99 g/m*3 -3.5 C 0 km/h
1175 14-02-2010 04:46:28 -3.6 C 2.97 g/m*3 -3.6 C 0 km/h
Sensor: Nr:Datum:Temp:Abs-Feuchte:Windchill:Wind:
Aussen-T/F 1176 14-02-2010 05:11:28 -3.7 C 2.95 g/m*3 -3.7 C 0 km/h
1177 14-02-2010 05:36:28 -3.6 C 3.01 g/m*3 -3.6 C 0 km/h
1178 14-02-2010 06:01:28 -3.7 C 2.99 g/m*3 -3.7 C 0 km/h
1179 14-02-2010 06:26:28 -3.7 C 2.99 g/m*3 -3.7 C 0 km/h
1180 14-02-2010 06:51:28 -3.7 C 2.99 g/m*3 -3.7 C 0 km/h
1181 14-02-2010 07:16:28 -3.4 C 3.05 g/m*3 -3.4 C 0 km/h
1182 14-02-2010 07:41:28 -3.6 C 3.01 g/m*3 -3.6 C 0 km/h
1183 14-02-2010 08:06:29 -3.5 C 3.03 g/m*3 -3.5 C 0 km/h
1184 14-02-2010 08:31:29 -3.5 C 3.03 g/m*3 -3.5 C 0 km/h
1185 14-02-2010 08:56:29 -3.3 C 3.08 g/m*3 -3.3 C 0 km/h
1186 14-02-2010 09:21:29 -3.2 C 3.1 g/m*3 -3.2 C 0 km/h
1187 14-02-2010 09:46:29 -3.1 C 3.12 g/m*3 -3.1 C 0 km/h
1188 14-02-2010 10:11:29 -2.8 C 3.19 g/m*3 -2.8 C 0 km/h
1189 14-02-2010 10:36:29 -2.4 C 3.24 g/m*3 -2.4 C 0 km/h
1190 14-02-2010 11:01:29 -2.1 C 3.22 g/m*3 -2.1 C 0 km/h
1191 14-02-2010 11:26:29 -1.9 C 3.23 g/m*3 -1.9 C 0 km/h
1192 14-02-2010 11:51:29 -1.5 C 3.23 g/m*3 -1.5 C 0 km/h
1193 14-02-2010 12:16:29 -1.1 C 3.19 g/m*3 -1.1 C 0 km/h
1194 14-02-2010 12:41:29 -0.6 C 3.07 g/m*3 -0.6 C 0 km/h
1195 14-02-2010 13:06:29 0.2 C 3.14 g/m*3 0.2 C 0 km/h
1196 14-02-2010 13:31:29 0.6 C 3.03 g/m*3 0.6 C 0 km/h
1197 14-02-2010 13:56:29 1 C 3.01 g/m*3 1 C 0 km/h
1198 14-02-2010 14:21:29 1.4 C 3.09 g/m*3 1.4 C 0 km/h
1199 14-02-2010 14:46:29 1.4 C 3.04 g/m*3 1.4 C 0 km/h
1200 14-02-2010 15:11:29 0.8 C 2.92 g/m*3 0.8 C 0 km/h
Sensor: Nr:Datum:Temp:Abs-Feuchte:Windchill:Wind:
Aussen-T/F 1201 14-02-2010 15:36:29 0.7 C 3 g/m*3 0.7 C 0 km/h
1202 14-02-2010 16:01:29 0.1 C 2.98 g/m*3 0.1 C 0 km/h
1203 14-02-2010 16:26:30 -0.3 C 2.99 g/m*3 -0.3 C 0 km/h
1204 14-02-2010 16:51:30 -0.5 C 3.09 g/m*3 -0.5 C 0 km/h
1205 14-02-2010 17:16:30 -0.7 C 3.14 g/m*3 -0.7 C 0 km/h
1206 14-02-2010 17:41:30 -0.9 C 3.19 g/m*3 -0.9 C 0 km/h
1207 14-02-2010 18:06:30 -1.1 C 3.23 g/m*3 -1.1 C 0 km/h
1208 14-02-2010 18:31:30 -1.3 C 3.23 g/m*3 -1.3 C 0 km/h
1209 14-02-2010 18:56:30 -1.5 C 3.27 g/m*3 -1.5 C 0 km/h
1210 14-02-2010 19:21:30 -1.7 C 3.27 g/m*3 -1.7 C 0 km/h
1211 14-02-2010 19:46:30 -1.8 C 3.29 g/m*3 -1.8 C 0 km/h
1212 14-02-2010 20:11:30 -1.7 C 3.36 g/m*3 -1.7 C 0 km/h
1213 14-02-2010 20:36:30 -1.9 C 3.31 g/m*3 -1.9 C 0 km/h
1214 14-02-2010 21:01:30 -2.2 C 3.24 g/m*3 -2.2 C 0 km/h
1215 14-02-2010 21:26:30 -2.4 C 3.16 g/m*3 -2.4 C 0 km/h
1216 14-02-2010 21:51:30 -2.6 C 3.11 g/m*3 -2.6 C 0 km/h
1217 14-02-2010 22:16:30 -2.9 C 3.01 g/m*3 -2.9 C 0 km/h
1218 14-02-2010 22:41:30 -3 C 3.02 g/m*3 -3 C 0 km/h
1219 14-02-2010 23:06:30 -3 C 2.99 g/m*3 -3 C 0 km/h
1220 14-02-2010 23:31:30 -3 C 2.99 g/m*3 -3 C 0 km/h
1221 14-02-2010 23:56:30 -3 C 2.99 g/m*3 -3 C 0 km/h
1222 15-02-2010 00:21:30 -3 C 2.99 g/m*3 -3 C 0 km/h
1223 15-02-2010 00:46:30 -3 C 2.99 g/m*3 -3 C 0 km/h
1224 15-02-2010 01:11:31 -3 C 2.99 g/m*3 -3 C 0 km/h
1225 15-02-2010 01:36:31 -2.9 C 2.97 g/m*3 -2.9 C 0 km/h
Sensor: Nr:Datum:Temp:Abs-Feuchte:Windchill:Wind:
Aussen-T/F 1226 15-02-2010 02:01:31 -2.8 C 2.99 g/m*3 -2.8 C 0 km/h
1227 15-02-2010 02:26:31 -2.7 C 3.01 g/m*3 -2.7 C 0 km/h
1228 15-02-2010 02:51:31 -2.6 C 3.03 g/m*3 -2.6 C 0 km/h
1229 15-02-2010 03:16:31 -2.6 C 2.99 g/m*3 -2.6 C 0 km/h
1230 15-02-2010 03:41:31 -2.6 C 2.99 g/m*3 -2.6 C 0 km/h
1231 15-02-2010 04:06:31 -2.6 C 2.99 g/m*3 -2.6 C 0 km/h
1232 15-02-2010 04:31:31 -2.6 C 3.03 g/m*3 -2.6 C 0 km/h
1233 15-02-2010 04:56:31 -2.6 C 3.03 g/m*3 -2.6 C 0 km/h
1234 15-02-2010 05:21:31 -2.6 C 3.07 g/m*3 -2.6 C 0 km/h
1235 15-02-2010 05:46:31 -2.6 C 3.11 g/m*3 -2.6 C 0 km/h
1236 15-02-2010 06:11:31 -2.7 C 3.05 g/m*3 -2.7 C 0 km/h
1237 15-02-2010 06:36:31 -2.8 C 3.03 g/m*3 -2.8 C 0 km/h
1238 15-02-2010 07:01:31 -2.9 C 3.01 g/m*3 -2.9 C 0 km/h
1239 15-02-2010 07:26:31 -3.2 C 2.9 g/m*3 -3.2 C 0 km/h
1240 15-02-2010 07:51:31 -3.1 C 2.96 g/m*3 -3.1 C 0 km/h
1241 15-02-2010 08:16:31 -3.1 C 2.96 g/m*3 -3.1 C 0 km/h
1242 15-02-2010 08:41:31 -3 C 2.91 g/m*3 -3 C 0 km/h
1243 15-02-2010 09:06:31 -2.7 C 2.93 g/m*3 -2.7 C 0 km/h
1244 15-02-2010 09:31:31 -2.3 C 2.97 g/m*3 -2.3 C 0 km/h
1245 15-02-2010 09:56:32 -1.8 C 3.04 g/m*3 -1.8 C 0 km/h
1246 15-02-2010 10:21:32 -1.4 C 3.03 g/m*3 -1.4 C 0 km/h
1247 15-02-2010 10:46:32 -0.2 C 3.11 g/m*3 -0.2 C 0 km/h
1248 15-02-2010 11:11:32 -0.3 C 3.04 g/m*3 -0.3 C 0 km/h
1249 15-02-2010 11:36:32 -0.2 C 3.11 g/m*3 -0.2 C 0 km/h
1250 15-02-2010 12:01:32 0.3 C 3.07 g/m*3 0.3 C 0 km/h
Sensor: Nr:Datum:Temp:Abs-Feuchte:Windchill:Wind:
Aussen-T/F 1251 15-02-2010 12:26:32 0.9 C 3.2 g/m*3 0.9 C 0 km/h
1252 15-02-2010 12:51:32 1.2 C 3.21 g/m*3 1.2 C 0 km/h
1253 15-02-2010 13:16:32 1.6 C 3.24 g/m*3 1.6 C 0 km/h
1254 15-02-2010 13:41:32 1.8 C 3.29 g/m*3 1.8 C 0 km/h
1255 15-02-2010 14:06:32 2.2 C 3.21 g/m*3 2.2 C 0 km/h
1256 15-02-2010 14:31:32 1.4 C 3.2 g/m*3 1.4 C 0 km/h
1257 15-02-2010 14:56:32 1.6 C 3.41 g/m*3 1.6 C 0 km/h
1258 15-02-2010 15:21:32 1.8 C 3.45 g/m*3 1.8 C 0 km/h
1259 15-02-2010 15:46:32 1.8 C 3.4 g/m*3 1.8 C 0 km/h
1260 15-02-2010 16:11:32 1.5 C 3.38 g/m*3 1.5 C 0 km/h
1261 15-02-2010 16:36:32 1.3 C 3.44 g/m*3 1.3 C 0 km/h
1262 15-02-2010 17:01:32 0.7 C 3.46 g/m*3 0.7 C 0 km/h
1263 15-02-2010 17:26:32 0.3 C 3.46 g/m*3 0.3 C 0 km/h
1264 15-02-2010 17:51:32 -0.2 C 3.39 g/m*3 -0.2 C 0 km/h
1265 15-02-2010 18:16:33 -0.4 C 3.44 g/m*3 -0.4 C 0 km/h
1266 15-02-2010 18:41:33 -0.6 C 3.44 g/m*3 -0.6 C 0 km/h
1267 15-02-2010 19:06:33 -0.9 C 3.46 g/m*3 -0.9 C 0 km/h
1268 15-02-2010 19:31:33 -1 C 3.44 g/m*3 -1 C 0 km/h
1269 15-02-2010 19:56:33 -1 C 3.48 g/m*3 -1 C 0 km/h
1270 15-02-2010 20:21:33 -1.2 C 3.43 g/m*3 -1.2 C 0 km/h
1271 15-02-2010 20:46:33 -1.3 C 3.41 g/m*3 -1.3 C 0 km/h
1272 15-02-2010 21:11:33 -1.2 C 3.43 g/m*3 -1.2 C 0 km/h
1273 15-02-2010 21:36:33 -1.2 C 3.48 g/m*3 -1.2 C 0 km/h
1274 15-02-2010 22:01:33 -1 C 3.57 g/m*3 -1 C 0 km/h
1275 15-02-2010 22:26:33 -1 C 3.53 g/m*3 -1 C 0 km/h
Sensor: Nr:Datum:Temp:Abs-Feuchte:Windchill:Wind:
Aussen-T/F 1276 15-02-2010 22:51:33 -1.2 C 3.48 g/m*3 -1.2 C 0 km/h
1277 15-02-2010 23:16:33 -1.2 C 3.48 g/m*3 -1.2 C 0 km/h
1278 15-02-2010 23:41:33 -1.3 C 3.45 g/m*3 -1.3 C 0 km/h
1279 16-02-2010 00:06:33 -1.4 C 3.43 g/m*3 -1.4 C 0 km/h
1280 16-02-2010 00:31:33 -2.1 C 3.22 g/m*3 -2.1 C 0 km/h
1281 16-02-2010 00:56:33 -2.7 C 3.13 g/m*3 -2.7 C 0 km/h
1282 16-02-2010 01:21:33 -2.9 C 3.13 g/m*3 -2.9 C 0 km/h
1283 16-02-2010 01:46:33 -2.9 C 3.16 g/m*3 -2.9 C 0 km/h
1284 16-02-2010 02:11:33 -2.9 C 3.16 g/m*3 -2.9 C 0 km/h
1285 16-02-2010 02:36:33 -3.2 C 3.1 g/m*3 -3.2 C 0 km/h
1286 16-02-2010 03:01:34 -3.3 C 3.08 g/m*3 -3.3 C 0 km/h
1287 16-02-2010 03:26:34 -3.4 C 3.09 g/m*3 -3.4 C 0 km/h
1288 16-02-2010 03:51:34 -3.1 C 3.16 g/m*3 -3.1 C 0 km/h
1289 16-02-2010 04:16:34 -2.9 C 3.2 g/m*3 -2.9 C 0 km/h
1290 16-02-2010 04:41:34 -2.7 C 3.29 g/m*3 -2.7 C 0 km/h
1291 16-02-2010 05:06:34 -2.7 C 3.25 g/m*3 -2.7 C 0 km/h
1292 16-02-2010 05:31:34 -2.7 C 3.25 g/m*3 -2.7 C 0 km/h
1293 16-02-2010 05:56:34 -2.6 C 3.27 g/m*3 -2.6 C 0 km/h
1294 16-02-2010 06:21:34 -2.3 C 3.34 g/m*3 -2.3 C 0 km/h
1295 16-02-2010 06:46:34 -2.3 C 3.3 g/m*3 -2.3 C 0 km/h
1296 16-02-2010 07:11:34 -2.5 C 3.26 g/m*3 -2.5 C 0 km/h
1297 16-02-2010 07:36:34 -2.8 C 3.19 g/m*3 -2.8 C 0 km/h
1298 16-02-2010 08:01:34 -2.8 C 3.19 g/m*3 -2.8 C 0 km/h
1299 16-02-2010 08:26:34 -2.5 C 3.3 g/m*3 -2.5 C 0 km/h
1300 16-02-2010 08:51:34 -1.9 C 3.4 g/m*3 -1.9 C 0 km/h
Sensor: Nr:Datum:Temp:Abs-Feuchte:Windchill:Wind:
Aussen-T/F 1301 16-02-2010 09:16:34 -1.4 C 3.47 g/m*3 -1.4 C 0 km/h
1302 16-02-2010 09:41:34 -0.7 C 3.51 g/m*3 -0.7 C 0 km/h
1303 16-02-2010 10:06:34 -0.6 C 3.35 g/m*3 -0.6 C 0 km/h
1304 16-02-2010 10:31:34 0.1 C 3.42 g/m*3 0.1 C 0 km/h
1305 16-02-2010 10:56:34 -0.1 C 3.27 g/m*3 -0.1 C 0 km/h
1306 16-02-2010 11:21:34 0.3 C 3.31 g/m*3 0.3 C 0 km/h
1307 16-02-2010 11:46:35 0.4 C 3.19 g/m*3 0.4 C 0 km/h
1308 16-02-2010 12:11:35 1.2 C 3.31 g/m*3 1.2 C 0 km/h
1309 16-02-2010 12:36:35 2.4 C 2.91 g/m*3 2.4 C 0 km/h
1310 16-02-2010 13:01:35 2.8 C 2.76 g/m*3 2.8 C 0 km/h
1311 16-02-2010 13:26:35 2.9 C 2.6 g/m*3 2.9 C 0 km/h
1312 16-02-2010 13:51:35 2.8 C 2.7 g/m*3 2.8 C 0 km/h
1313 16-02-2010 14:16:35 3.5 C 2.64 g/m*3 3.5 C 0 km/h
1314 16-02-2010 14:41:35 3.4 C 2.57 g/m*3 3.4 C 0 km/h
1315 16-02-2010 15:06:35 3.2 C 2.53 g/m*3 3.2 C 0 km/h
1316 16-02-2010 15:31:35 3.9 C 2.4 g/m*3 3.9 C 0 km/h
1317 16-02-2010 15:56:35 4.5 C 2.43 g/m*3 4.5 C 0 km/h
1318 16-02-2010 16:21:35 4.4 C 2.42 g/m*3 4.4 C 0 km/h
1319 16-02-2010 16:46:35 4.1 C 2.43 g/m*3 4.1 C 0 km/h
1320 16-02-2010 17:11:35 2.8 C 2.58 g/m*3 2.8 C 0 km/h
1321 16-02-2010 17:36:35 1.1 C 2.61 g/m*3 1.1 C 0 km/h
1322 16-02-2010 18:01:35 -0.2 C 2.63 g/m*3 -0.2 C 0 km/h
1323 16-02-2010 18:26:35 -1.4 C 2.73 g/m*3 -1.4 C 0 km/h
1324 16-02-2010 18:51:35 -2 C 2.74 g/m*3 -2 C 0 km/h
1325 16-02-2010 19:16:35 -2.5 C 2.73 g/m*3 -2.5 C 0 km/h
Sensor: Nr:Datum:Temp:Abs-Feuchte:Windchill:Wind:
Aussen-T/F 1326 16-02-2010 19:41:35 -2.7 C 2.77 g/m*3 -2.7 C 0 km/h
1327 16-02-2010 20:06:36 -3 C 2.75 g/m*3 -3 C 0 km/h
1328 16-02-2010 20:31:36 -3.2 C 2.75 g/m*3 -3.2 C 0 km/h
1329 16-02-2010 20:56:36 -3.6 C 2.67 g/m*3 -3.6 C 0 km/h
1330 16-02-2010 21:21:36 -3.8 C 2.67 g/m*3 -3.8 C 0 km/h
1331 16-02-2010 21:46:36 -4.1 C 2.62 g/m*3 -4.1 C 0 km/h
1332 16-02-2010 22:11:36 -4.2 C 2.63 g/m*3 -4.2 C 0 km/h
1333 16-02-2010 22:36:36 -4.5 C 2.58 g/m*3 -4.5 C 0 km/h
1334 16-02-2010 23:01:36 -4.7 C 2.54 g/m*3 -4.7 C 0 km/h
1335 16-02-2010 23:26:36 -4.9 C 2.5 g/m*3 -4.9 C 0 km/h
1336 16-02-2010 23:51:36 -5.1 C 2.47 g/m*3 -5.1 C 0 km/h
1337 17-02-2010 00:16:36 -5.4 C 2.41 g/m*3 -5.4 C 0 km/h
1338 17-02-2010 00:41:36 -5.7 C 2.36 g/m*3 -5.7 C 0 km/h
1339 17-02-2010 01:06:36 -6 C 2.34 g/m*3 -6 C 0 km/h
1340 17-02-2010 01:31:36 -6.2 C 2.31 g/m*3 -6.2 C 0 km/h
1341 17-02-2010 01:56:36 -6.5 C 2.26 g/m*3 -6.5 C 0 km/h
1342 17-02-2010 02:21:36 -6.6 C 2.27 g/m*3 -6.6 C 0 km/h
1343 17-02-2010 02:46:36 -6.8 C 2.24 g/m*3 -6.8 C 0 km/h
1344 17-02-2010 03:11:36 -6.9 C 2.22 g/m*3 -6.9 C 0 km/h
1345 17-02-2010 03:36:36 -6.2 C 2.37 g/m*3 -6.2 C 0 km/h
1346 17-02-2010 04:01:36 -5.8 C 2.44 g/m*3 -5.8 C 0 km/h
1347 17-02-2010 04:26:36 -5.5 C 2.5 g/m*3 -5.5 C 0 km/h
1348 17-02-2010 04:51:37 -5.3 C 2.5 g/m*3 -5.3 C 0 km/h
1349 17-02-2010 05:16:37 -5.2 C 2.48 g/m*3 -5.2 C 0 km/h
1350 17-02-2010 05:41:37 -4.9 C 2.54 g/m*3 -4.9 C 0 km/h
Sensor: Nr:Datum:Temp:Abs-Feuchte:Windchill:Wind:
Aussen-T/F 1351 17-02-2010 06:06:37 -4.9 C 2.54 g/m*3 -4.9 C 0 km/h
1352 17-02-2010 06:31:37 -4.7 C 2.57 g/m*3 -4.7 C 0 km/h
1353 17-02-2010 06:56:37 -4.5 C 2.61 g/m*3 -4.5 C 0 km/h
1354 17-02-2010 07:21:37 -4.4 C 2.6 g/m*3 -4.4 C 0 km/h
1355 17-02-2010 07:46:37 -4.1 C 2.62 g/m*3 -4.1 C 0 km/h
1356 17-02-2010 08:11:37 -3.8 C 2.67 g/m*3 -3.8 C 0 km/h
1357 17-02-2010 08:36:37 -3.4 C 2.71 g/m*3 -3.4 C 0 km/h
1358 17-02-2010 09:01:37 -3.1 C 2.65 g/m*3 -3.1 C 0 km/h
1359 17-02-2010 09:26:37 -2.9 C 2.49 g/m*3 -2.9 C 0 km/h
1360 17-02-2010 09:51:37 -2.7 C 2.53 g/m*3 -2.7 C 0 km/h
1361 17-02-2010 10:16:37 -2.7 C 2.53 g/m*3 -2.7 C 0 km/h
1362 17-02-2010 10:41:37 -2.2 C 2.54 g/m*3 -2.2 C 0 km/h
1363 17-02-2010 11:06:37 -1.4 C 2.73 g/m*3 -1.4 C 0 km/h
1364 17-02-2010 11:31:37 -0.6 C 2.79 g/m*3 -0.6 C 0 km/h
1365 17-02-2010 11:56:37 1 C 2.91 g/m*3 1 C 0 km/h
1366 17-02-2010 12:21:37 2.7 C 2.8 g/m*3 2.7 C 0 km/h
1367 17-02-2010 12:46:37 3.5 C 2.71 g/m*3 3.5 C 0 km/h
1368 17-02-2010 13:11:38 2.9 C 2.72 g/m*3 2.9 C 0 km/h
1369 17-02-2010 13:36:38 2.8 C 2.7 g/m*3 2.8 C 0 km/h
1370 17-02-2010 14:01:38 2.7 C 2.97 g/m*3 2.7 C 0 km/h
1371 17-02-2010 14:26:38 2.1 C 3.3 g/m*3 2.1 C 0 km/h
1372 17-02-2010 14:51:38 2.1 C 3.58 g/m*3 2.1 C 0 km/h
1373 17-02-2010 15:16:38 1.3 C 3.81 g/m*3 1.3 C 0 km/h
1374 17-02-2010 15:41:38 1.2 C 4 g/m*3 1.2 C 0 km/h
1375 17-02-2010 16:06:38 1.3 C 4.13 g/m*3 1.3 C 0 km/h
Sensor: Nr:Datum:Temp:Abs-Feuchte:Windchill:Wind:
Aussen-T/F 1376 17-02-2010 16:31:38 1 C 4.15 g/m*3 1 C 0 km/h
1377 17-02-2010 16:56:38 0.9 C 4.23 g/m*3 0.9 C 0 km/h
1378 17-02-2010 17:21:38 0.7 C 4.17 g/m*3 0.7 C 0 km/h
1379 17-02-2010 17:46:38 0.6 C 4.19 g/m*3 0.6 C 0 km/h
1380 17-02-2010 18:11:38 0.5 C 4.21 g/m*3 0.5 C 0 km/h
1381 17-02-2010 18:36:38 0.5 C 4.31 g/m*3 0.5 C 0 km/h
1382 17-02-2010 19:01:38 0.5 C 4.36 g/m*3 0.5 C 0 km/h
1383 17-02-2010 19:26:38 0.5 C 4.36 g/m*3 0.5 C 0 km/h
1384 17-02-2010 19:51:38 0.5 C 4.41 g/m*3 0.5 C 0 km/h
1385 17-02-2010 20:16:38 0.7 C 4.53 g/m*3 0.7 C 0 km/h
1386 17-02-2010 20:41:38 0.7 C 4.53 g/m*3 0.7 C 0 km/h
1387 17-02-2010 21:06:38 0.7 C 4.53 g/m*3 0.7 C 0 km/h
1388 17-02-2010 21:31:38 0.8 C 4.51 g/m*3 0.8 C 0 km/h
1389 17-02-2010 21:56:39 0.8 C 4.56 g/m*3 0.8 C 0 km/h
1390 17-02-2010 22:21:39 0.8 C 4.51 g/m*3 0.8 C 0 km/h
1391 17-02-2010 22:46:39 0.8 C 4.51 g/m*3 0.8 C 0 km/h
1392 17-02-2010 23:11:39 0.8 C 4.51 g/m*3 0.8 C 0 km/h
1393 17-02-2010 23:36:39 0.8 C 4.51 g/m*3 0.8 C 0 km/h
1394 18-02-2010 00:01:39 0.8 C 4.51 g/m*3 0.8 C 0 km/h
1395 18-02-2010 00:26:39 0.9 C 4.54 g/m*3 0.9 C 0 km/h
1396 18-02-2010 00:51:39 0.9 C 4.54 g/m*3 0.9 C 0 km/h
1397 18-02-2010 01:16:39 1 C 4.57 g/m*3 1 C 0 km/h
1398 18-02-2010 01:41:39 1 C 4.57 g/m*3 1 C 0 km/h
1399 18-02-2010 02:06:39 1 C 4.57 g/m*3 1 C 0 km/h
1400 18-02-2010 02:31:39 1.2 C 4.63 g/m*3 1.2 C 0 km/h
Sensor: Nr:Datum:Temp:Abs-Feuchte:Windchill:Wind:
Aussen-T/F 1401 18-02-2010 02:56:39 1 C 4.57 g/m*3 1 C 0 km/h
1402 18-02-2010 03:21:39 1.2 C 4.63 g/m*3 1.2 C 0 km/h
1403 18-02-2010 03:46:39 1 C 4.57 g/m*3 1 C 0 km/h
1404 18-02-2010 04:11:39 1 C 4.62 g/m*3 1 C 0 km/h
1405 18-02-2010 04:36:39 1 C 4.62 g/m*3 1 C 0 km/h
1406 18-02-2010 05:01:39 1.2 C 4.68 g/m*3 1.2 C 0 km/h
1407 18-02-2010 05:26:39 1 C 4.62 g/m*3 1 C 0 km/h
1408 18-02-2010 05:51:39 1.1 C 4.65 g/m*3 1.1 C 0 km/h
1409 18-02-2010 06:16:40 1.1 C 4.65 g/m*3 1.1 C 0 km/h
1410 18-02-2010 06:41:40 1.2 C 4.74 g/m*3 1.2 C 0 km/h
1411 18-02-2010 07:06:40 1.1 C 4.7 g/m*3 1.1 C 0 km/h
1412 18-02-2010 07:31:40 1.1 C 4.7 g/m*3 1.1 C 0 km/h
1413 18-02-2010 07:56:40 1.1 C 4.7 g/m*3 1.1 C 0 km/h
1414 18-02-2010 08:21:40 1.1 C 4.76 g/m*3 1.1 C 0 km/h
1415 18-02-2010 08:46:40 1.4 C 4.85 g/m*3 1.4 C 0 km/h
1416 18-02-2010 09:11:40 1.7 C 5.01 g/m*3 1.7 C 0 km/h
1417 18-02-2010 09:36:40 2 C 5.06 g/m*3 2 C 0 km/h
1418 18-02-2010 10:01:40 2.6 C 5.32 g/m*3 2.6 C 0 km/h
1419 18-02-2010 10:26:40 3.6 C 5.63 g/m*3 3.6 C 0 km/h
1420 18-02-2010 10:51:40 3.8 C 5.58 g/m*3 3.8 C 0 km/h
1421 18-02-2010 11:16:40 4.1 C 5.25 g/m*3 4.1 C 0 km/h
1422 18-02-2010 11:41:40 4.4 C 5.03 g/m*3 4.4 C 0 km/h
1423 18-02-2010 12:06:40 4.7 C 4.86 g/m*3 4.7 C 0 km/h
1424 18-02-2010 12:31:40 5.1 C 4.65 g/m*3 5.1 C 0 km/h
1425 18-02-2010 12:56:40 5.8 C 4.58 g/m*3 5.8 C 0 km/h
Sensor: Nr:Datum:Temp:Abs-Feuchte:Windchill:Wind:
Aussen-T/F 1426 18-02-2010 13:21:40 6.8 C 4.36 g/m*3 6.8 C 0 km/h
1427 18-02-2010 13:46:40 7.4 C 4.14 g/m*3 7.4 C 0 km/h
1428 18-02-2010 14:11:40 8 C 4.13 g/m*3 8 C 0 km/h
1429 18-02-2010 14:36:41 8.5 C 4.1 g/m*3 8.5 C 0 km/h
1430 18-02-2010 15:01:41 9.1 C 3.73 g/m*3 9.1 C 0 km/h
1431 18-02-2010 15:26:41 9.5 C 3.64 g/m*3 9.5 C 0 km/h
1432 18-02-2010 15:51:41 10.1 C 3.59 g/m*3 10.1 C 0 km/h
1433 18-02-2010 16:16:41 9.6 C 3.57 g/m*3 9.6 C 0 km/h
1434 18-02-2010 16:41:41 9.3 C 3.59 g/m*3 9.3 C 0 km/h
1435 18-02-2010 17:06:41 7.5 C 3.36 g/m*3 7.5 C 0 km/h
1436 18-02-2010 17:31:41 6.3 C 3.55 g/m*3 6.3 C 0 km/h
1437 18-02-2010 17:56:41 5.6 C 3.68 g/m*3 5.6 C 0 km/h
1438 18-02-2010 18:21:41 4 C 3.88 g/m*3 4 C 0 km/h
1439 18-02-2010 18:46:41 3.2 C 3.98 g/m*3 3.2 C 0 km/h
1440 18-02-2010 19:11:41 2.6 C 4.11 g/m*3 2.6 C 0 km/h
1441 18-02-2010 19:36:41 2.5 C 4.2 g/m*3 2.5 C 0 km/h
1442 18-02-2010 20:01:41 2.1 C 4.08 g/m*3 2.1 C 0 km/h
1443 18-02-2010 20:26:41 2 C 4.17 g/m*3 2 C 0 km/h
1444 18-02-2010 20:51:41 1.6 C 4.16 g/m*3 1.6 C 0 km/h
1445 18-02-2010 21:16:41 1.4 C 4.21 g/m*3 1.4 C 0 km/h
1446 18-02-2010 21:41:41 1.4 C 4.21 g/m*3 1.4 C 0 km/h
1447 18-02-2010 22:06:41 1.7 C 4.3 g/m*3 1.7 C 0 km/h
1448 18-02-2010 22:31:41 2 C 4.33 g/m*3 2 C 0 km/h
1449 18-02-2010 22:56:42 1.9 C 4.36 g/m*3 1.9 C 0 km/h
1450 18-02-2010 23:21:42 1.7 C 4.3 g/m*3 1.7 C 0 km/h
Sensor: Nr:Datum:Temp:Abs-Feuchte:Windchill:Wind:
Aussen-T/F 1451 18-02-2010 23:46:42 1.9 C 4.53 g/m*3 1.9 C 0 km/h
1452 19-02-2010 00:11:42 2.1 C 4.59 g/m*3 2.1 C 0 km/h
1453 19-02-2010 00:36:42 1.8 C 4.55 g/m*3 1.8 C 0 km/h
1454 19-02-2010 01:01:42 2 C 4.67 g/m*3 2 C 0 km/h
1455 19-02-2010 01:26:42 2 C 4.67 g/m*3 2 C 0 km/h
1456 19-02-2010 01:51:42 2.1 C 4.76 g/m*3 2.1 C 0 km/h
1457 19-02-2010 02:16:42 2.1 C 4.7 g/m*3 2.1 C 0 km/h
1458 19-02-2010 02:41:42 2 C 4.67 g/m*3 2 C 0 km/h
1459 19-02-2010 03:06:42 1.8 C 4.66 g/m*3 1.8 C 0 km/h
1460 19-02-2010 03:31:42 1.8 C 4.71 g/m*3 1.8 C 0 km/h
1461 19-02-2010 03:56:42 1.6 C 4.7 g/m*3 1.6 C 0 km/h
1462 19-02-2010 04:21:42 1.6 C 4.7 g/m*3 1.6 C 0 km/h
1463 19-02-2010 04:46:42 1.6 C 4.7 g/m*3 1.6 C 0 km/h
1464 19-02-2010 05:11:42 1.7 C 4.79 g/m*3 1.7 C 0 km/h
1465 19-02-2010 05:36:42 1.8 C 4.77 g/m*3 1.8 C 0 km/h
1466 19-02-2010 06:01:42 1.9 C 4.8 g/m*3 1.9 C 0 km/h
1467 19-02-2010 06:26:42 2.1 C 4.76 g/m*3 2.1 C 0 km/h
1468 19-02-2010 06:51:42 2 C 4.67 g/m*3 2 C 0 km/h
1469 19-02-2010 07:16:42 1.7 C 4.63 g/m*3 1.7 C 0 km/h
1470 19-02-2010 07:41:43 1.5 C 4.57 g/m*3 1.5 C 0 km/h
1471 19-02-2010 08:06:43 1.5 C 4.62 g/m*3 1.5 C 0 km/h
1472 19-02-2010 08:31:43 1.6 C 4.65 g/m*3 1.6 C 0 km/h
1473 19-02-2010 08:56:43 2.1 C 4.81 g/m*3 2.1 C 0 km/h
1474 19-02-2010 09:21:43 2.5 C 4.83 g/m*3 2.5 C 0 km/h
1475 19-02-2010 09:46:43 3.1 C 4.91 g/m*3 3.1 C 0 km/h
Sensor: Nr:Datum:Temp:Abs-Feuchte:Windchill:Wind:
Aussen-T/F 1476 19-02-2010 10:11:43 3.7 C 5.05 g/m*3 3.7 C 0 km/h
1477 19-02-2010 10:36:02 4.6 C 5.1 g/m*3 4.6 C 0 km/h
1478 19-02-2010 11:01:02 5.3 C 5.06 g/m*3 5.3 C 0 km/h
1479 19-02-2010 11:26:01 6 C 4.79 g/m*3 6 C 0 km/h
1480 19-02-2010 11:51:02 6.5 C 4.72 g/m*3 6.5 C 0 km/h
1481 19-02-2010 12:16:02 7 C 4.49 g/m*3 7 C 0 km/h
1482 19-02-2010 12:41:02 7.6 C 4.27 g/m*3 7.6 C 0 km/h
1483 19-02-2010 13:06:02 7.6 C 4.11 g/m*3 7.6 C 0 km/h
1484 19-02-2010 13:31:02 7.7 C 4.05 g/m*3 7.7 C 0 km/h
1485 19-02-2010 13:56:02 7.6 C 3.95 g/m*3 7.6 C 0 km/h
1486 19-02-2010 14:21:01 7.5 C 4 g/m*3 7.5 C 0 km/h
1487 19-02-2010 14:46:02 7.5 C 3.92 g/m*3 7.5 C 0 km/h
1488 19-02-2010 15:11:03 7.8 C 3.67 g/m*3 7.8 C 0 km/h
1489 19-02-2010 15:36:02 7.2 C 3.53 g/m*3 7.2 C 0 km/h
1490 19-02-2010 16:01:02 6.3 C 3.33 g/m*3 6.3 C 0 km/h
1491 19-02-2010 16:26:01 6.1 C 3.29 g/m*3 6.1 C 0 km/h
1492 19-02-2010 16:51:01 5.5 C 3.23 g/m*3 5.5 C 0 km/h
1493 19-02-2010 17:16:02 5 C 3.06 g/m*3 5 C 0 km/h
1494 19-02-2010 17:41:02 5.1 C 3.01 g/m*3 5.1 C 0 km/h
1495 19-02-2010 18:06:02 4.5 C 3.02 g/m*3 4.5 C 0 km/h
1496 19-02-2010 18:31:02 4.1 C 3.07 g/m*3 4.1 C 0 km/h
1497 19-02-2010 18:56:01 3.7 C 3.18 g/m*3 3.7 C 0 km/h
1498 19-02-2010 19:21:01 3.6 C 3.22 g/m*3 3.6 C 0 km/h
1499 19-02-2010 19:46:02 3.6 C 3.28 g/m*3 3.6 C 0 km/h
1500 19-02-2010 20:11:02 3.3 C 3.34 g/m*3 3.3 C 0 km/h
Sensor: Nr:Datum:Temp:Abs-Feuchte:Windchill:Wind:
Aussen-T/F 1501 19-02-2010 20:36:02 3.3 C 3.46 g/m*3 3.3 C 0 km/h
1502 19-02-2010 21:14:02 3.3 C 3.52 g/m*3 3.3 C 0 km/h
1503 19-02-2010 21:26:02 3.2 C 3.56 g/m*3 3.2 C 0 km/h
1504 19-02-2010 21:38:01 3.2 C 3.5 g/m*3 3.2 C 0 km/h
1505 19-02-2010 21:50:01 3.1 C 3.53 g/m*3 3.1 C 0 km/h
1506 19-02-2010 22:02:02 2.8 C 3.52 g/m*3 2.8 C 0 km/h
1507 19-02-2010 22:14:02 2.6 C 3.53 g/m*3 2.6 C 0 km/h
1508 19-02-2010 22:26:01 2.6 C 3.47 g/m*3 2.6 C 0 km/h
1509 19-02-2010 22:38:02 2.4 C 3.43 g/m*3 2.4 C 0 km/h
1510 19-02-2010 22:50:01 2.2 C 3.38 g/m*3 2.2 C 0 km/h
1511 19-02-2010 23:02:02 2.1 C 3.36 g/m*3 2.1 C 0 km/h
1512 19-02-2010 23:14:02 2.5 C 3.22 g/m*3 2.5 C 0 km/h
1513 19-02-2010 23:26:01 2.5 C 3.16 g/m*3 2.5 C 0 km/h
1514 19-02-2010 23:38:02 2.2 C 3.21 g/m*3 2.2 C 0 km/h
1515 19-02-2010 23:50:01 1.6 C 3.24 g/m*3 1.6 C 0 km/h
1516 20-02-2010 00:02:02 1.5 C 3.33 g/m*3 1.5 C 0 km/h
1517 20-02-2010 00:14:02 1.4 C 3.31 g/m*3 1.4 C 0 km/h
1518 20-02-2010 00:26:02 1.2 C 3.37 g/m*3 1.2 C 0 km/h
1519 20-02-2010 00:38:01 1.1 C 3.4 g/m*3 1.1 C 0 km/h
1520 20-02-2010 00:50:02 0.7 C 3.41 g/m*3 0.7 C 0 km/h
1521 20-02-2010 01:02:01 0.4 C 3.39 g/m*3 0.4 C 0 km/h
1522 20-02-2010 01:14:01 0.1 C 3.42 g/m*3 0.1 C 0 km/h
1523 20-02-2010 01:26:01 -0.1 C 3.46 g/m*3 -0.1 C 0 km/h
1524 20-02-2010 01:38:02 -0.1 C 3.51 g/m*3 -0.1 C 0 km/h
1525 20-02-2010 01:50:02 -0.1 C 3.56 g/m*3 -0.1 C 0 km/h
Sensor: Nr:Datum:Temp:Abs-Feuchte:Windchill:Wind:
Aussen-T/F 1526 20-02-2010 02:02:02 -0.2 C 3.58 g/m*3 -0.2 C 0 km/h
1527 20-02-2010 02:14:02 -0.3 C 3.56 g/m*3 -0.3 C 0 km/h
1528 20-02-2010 02:26:02 -0.3 C 3.61 g/m*3 -0.3 C 0 km/h
1529 20-02-2010 02:38:02 -0.4 C 3.58 g/m*3 -0.4 C 0 km/h
1530 20-02-2010 02:50:01 -0.4 C 3.58 g/m*3 -0.4 C 0 km/h
1531 20-02-2010 03:02:01 -0.4 C 3.58 g/m*3 -0.4 C 0 km/h
1532 20-02-2010 03:14:01 -0.7 C 3.46 g/m*3 -0.7 C 0 km/h
1533 20-02-2010 03:26:01 -0.7 C 3.51 g/m*3 -0.7 C 0 km/h
1534 20-02-2010 03:38:02 -0.8 C 3.48 g/m*3 -0.8 C 0 km/h
1535 20-02-2010 03:50:02 -1 C 3.44 g/m*3 -1 C 0 km/h
1536 20-02-2010 04:02:01 -0.9 C 3.51 g/m*3 -0.9 C 0 km/h
1537 20-02-2010 04:14:01 -0.7 C 3.55 g/m*3 -0.7 C 0 km/h
1538 20-02-2010 04:26:01 -0.7 C 3.51 g/m*3 -0.7 C 0 km/h
1539 20-02-2010 04:38:02 -0.4 C 3.58 g/m*3 -0.4 C 0 km/h
1540 20-02-2010 04:50:01 -0.2 C 3.58 g/m*3 -0.2 C 0 km/h
1541 20-02-2010 05:02:01 -0.1 C 3.61 g/m*3 -0.1 C 0 km/h
1542 20-02-2010 05:14:01 -0.2 C 3.54 g/m*3 -0.2 C 0 km/h
1543 20-02-2010 05:26:01 -0.2 C 3.58 g/m*3 -0.2 C 0 km/h
1544 20-02-2010 05:38:02 -0.2 C 3.58 g/m*3 -0.2 C 0 km/h
1545 20-02-2010 05:50:01 0 C 3.63 g/m*3 0 C 0 km/h
1546 20-02-2010 06:02:02 -0.2 C 3.58 g/m*3 -0.2 C 0 km/h
1547 20-02-2010 06:14:02 0.1 C 3.71 g/m*3 0.1 C 0 km/h
1548 20-02-2010 06:26:01 0.4 C 3.79 g/m*3 0.4 C 0 km/h
1549 20-02-2010 06:38:01 0.3 C 3.76 g/m*3 0.3 C 0 km/h
1550 20-02-2010 06:50:01 0 C 3.68 g/m*3 0 C 0 km/h
Sensor: Nr:Datum:Temp:Abs-Feuchte:Windchill:Wind:
Aussen-T/F 1551 20-02-2010 07:02:01 -0.2 C 3.68 g/m*3 -0.2 C 0 km/h
1552 20-02-2010 07:14:02 -0.5 C 3.65 g/m*3 -0.5 C 0 km/h
1553 20-02-2010 07:26:01 -0.6 C 3.67 g/m*3 -0.6 C 0 km/h
1554 20-02-2010 07:38:01 -0.6 C 3.72 g/m*3 -0.6 C 0 km/h
1555 20-02-2010 07:50:01 -0.6 C 3.76 g/m*3 -0.6 C 0 km/h
1556 20-02-2010 08:02:02 -0.2 C 3.92 g/m*3 -0.2 C 0 km/h
1557 20-02-2010 08:14:02 0.1 C 3.95 g/m*3 0.1 C 0 km/h
1558 20-02-2010 08:26:01 0.4 C 3.98 g/m*3 0.4 C 0 km/h
1559 20-02-2010 08:38:01 0.7 C 3.97 g/m*3 0.7 C 0 km/h
1560 20-02-2010 08:50:01 1 C 3.94 g/m*3 1 C 0 km/h
1561 20-02-2010 09:02:02 1.2 C 3.95 g/m*3 1.2 C 0 km/h
1562 20-02-2010 09:14:02 1.4 C 3.89 g/m*3 1.4 C 0 km/h
1563 20-02-2010 09:26:01 1.5 C 3.87 g/m*3 1.5 C 0 km/h
1564 20-02-2010 09:38:01 1.2 C 3.79 g/m*3 1.2 C 0 km/h
1565 20-02-2010 09:50:01 1.2 C 3.74 g/m*3 1.2 C 0 km/h
1566 20-02-2010 10:02:01 1.3 C 3.76 g/m*3 1.3 C 0 km/h
1567 20-02-2010 10:14:01 1.4 C 3.73 g/m*3 1.4 C 0 km/h
1568 20-02-2010 10:26:01 1.5 C 3.71 g/m*3 1.5 C 0 km/h
1569 20-02-2010 10:38:01 1.7 C 3.76 g/m*3 1.7 C 0 km/h
1570 20-02-2010 10:50:01 1.8 C 3.73 g/m*3 1.8 C 0 km/h
1571 20-02-2010 11:02:01 2.1 C 3.75 g/m*3 2.1 C 0 km/h
1572 20-02-2010 11:14:01 3 C 3.63 g/m*3 3 C 0 km/h
1573 20-02-2010 11:26:01 3.3 C 3.58 g/m*3 3.3 C 0 km/h
1574 20-02-2010 11:38:01 3.7 C 3.61 g/m*3 3.7 C 0 km/h
1575 20-02-2010 11:50:01 4.1 C 3.46 g/m*3 4.1 C 0 km/h
Sensor: Nr:Datum:Temp:Abs-Feuchte:Windchill:Wind:
Aussen-T/F 1576 20-02-2010 12:02:01 4.1 C 3.33 g/m*3 4.1 C 0 km/h
1577 20-02-2010 12:14:01 3.9 C 3.47 g/m*3 3.9 C 0 km/h
1578 20-02-2010 12:26:02 4.1 C 3.39 g/m*3 4.1 C 0 km/h
1579 20-02-2010 12:38:01 3.8 C 3.45 g/m*3 3.8 C 0 km/h
1580 20-02-2010 12:50:01 4.2 C 3.41 g/m*3 4.2 C 0 km/h
1581 20-02-2010 13:02:01 4.2 C 3.22 g/m*3 4.2 C 0 km/h
1582 20-02-2010 13:14:01 4.3 C 3.18 g/m*3 4.3 C 0 km/h
1583 20-02-2010 13:26:02 4.5 C 3.22 g/m*3 4.5 C 0 km/h
1584 20-02-2010 13:38:01 4.5 C 3.16 g/m*3 4.5 C 0 km/h
1585 20-02-2010 13:50:02 4.3 C 3.11 g/m*3 4.3 C 0 km/h
1586 20-02-2010 14:02:01 4.2 C 3.22 g/m*3 4.2 C 0 km/h
1587 20-02-2010 14:14:01 4.5 C 3.22 g/m*3 4.5 C 0 km/h
1588 20-02-2010 14:26:02 4.9 C 3.24 g/m*3 4.9 C 0 km/h
1589 20-02-2010 14:38:01 4.7 C 3.2 g/m*3 4.7 C 0 km/h
1590 20-02-2010 14:50:01 4.5 C 3.22 g/m*3 4.5 C 0 km/h
1591 20-02-2010 15:02:01 4.4 C 3.2 g/m*3 4.4 C 0 km/h
1592 20-02-2010 15:14:01 4.8 C 3.22 g/m*3 4.8 C 0 km/h
1593 20-02-2010 15:26:02 4.9 C 3.17 g/m*3 4.9 C 0 km/h
1594 20-02-2010 15:38:01 5.1 C 3.15 g/m*3 5.1 C 0 km/h
1595 20-02-2010 15:50:02 5.1 C 3.08 g/m*3 5.1 C 0 km/h
1596 20-02-2010 16:02:01 5 C 3.06 g/m*3 5 C 0 km/h
1597 20-02-2010 16:14:01 4.9 C 3.11 g/m*3 4.9 C 0 km/h
1598 20-02-2010 16:26:02 5 C 3.06 g/m*3 5 C 0 km/h
1599 20-02-2010 16:38:01 5.2 C 3.1 g/m*3 5.2 C 0 km/h
1600 20-02-2010 16:50:02 4.9 C 3.04 g/m*3 4.9 C 0 km/h
Sensor: Nr:Datum:Temp:Abs-Feuchte:Windchill:Wind:
Aussen-T/F 1601 20-02-2010 17:02:01 4.5 C 3.09 g/m*3 4.5 C 0 km/h
1602 20-02-2010 17:14:01 4.9 C 3.11 g/m*3 4.9 C 0 km/h
1603 20-02-2010 17:26:01 4.8 C 3.08 g/m*3 4.8 C 0 km/h
1604 20-02-2010 17:38:01 4.2 C 3.16 g/m*3 4.2 C 0 km/h
1605 20-02-2010 17:50:02 3.6 C 3.47 g/m*3 3.6 C 0 km/h
1606 20-02-2010 18:02:01 2.9 C 3.54 g/m*3 2.9 C 0 km/h
1607 20-02-2010 18:14:01 2.5 C 3.56 g/m*3 2.5 C 0 km/h
1608 20-02-2010 18:26:02 2.5 C 3.56 g/m*3 2.5 C 0 km/h
1609 20-02-2010 18:38:01 2.7 C 3.55 g/m*3 2.7 C 0 km/h
1610 20-02-2010 18:50:02 2.6 C 3.47 g/m*3 2.6 C 0 km/h
1611 20-02-2010 19:02:01 2.2 C 3.44 g/m*3 2.2 C 0 km/h
1612 20-02-2010 19:14:01 2 C 3.45 g/m*3 2 C 0 km/h
1613 20-02-2010 19:26:01 1.8 C 3.45 g/m*3 1.8 C 0 km/h
1614 20-02-2010 19:38:02 2 C 3.45 g/m*3 2 C 0 km/h
1615 20-02-2010 19:50:01 1.5 C 3.44 g/m*3 1.5 C 0 km/h
1616 20-02-2010 20:02:01 1.3 C 3.44 g/m*3 1.3 C 0 km/h
1617 20-02-2010 20:14:01 0.9 C 3.45 g/m*3 0.9 C 0 km/h
1618 20-02-2010 20:26:01 0.8 C 3.48 g/m*3 0.8 C 0 km/h
1619 20-02-2010 20:38:02 0.6 C 3.43 g/m*3 0.6 C 0 km/h
1620 20-02-2010 20:50:01 0.7 C 3.41 g/m*3 0.7 C 0 km/h
1621 20-02-2010 21:02:02 0.7 C 3.41 g/m*3 0.7 C 0 km/h
1622 20-02-2010 21:14:02 0.8 C 3.33 g/m*3 0.8 C 0 km/h
1623 20-02-2010 21:26:01 0.8 C 3.28 g/m*3 0.8 C 0 km/h
1624 20-02-2010 21:38:02 0.7 C 3.3 g/m*3 0.7 C 0 km/h
1625 20-02-2010 21:50:01 1 C 3.32 g/m*3 1 C 0 km/h
Sensor: Nr:Datum:Temp:Abs-Feuchte:Windchill:Wind:
Aussen-T/F 1626 20-02-2010 22:02:02 1.1 C 3.34 g/m*3 1.1 C 0 km/h
1627 20-02-2010 22:14:02 0.9 C 3.35 g/m*3 0.9 C 0 km/h
1628 20-02-2010 22:26:01 0.7 C 3.36 g/m*3 0.7 C 0 km/h
1629 20-02-2010 22:38:02 0.4 C 3.34 g/m*3 0.4 C 0 km/h
1630 20-02-2010 22:50:01 0.4 C 3.39 g/m*3 0.4 C 0 km/h
1631 20-02-2010 23:02:02 0.5 C 3.41 g/m*3 0.5 C 0 km/h
1632 20-02-2010 23:14:02 0.6 C 3.48 g/m*3 0.6 C 0 km/h
1633 20-02-2010 23:26:01 0.9 C 3.56 g/m*3 0.9 C 0 km/h
1634 20-02-2010 23:38:01 1.4 C 3.63 g/m*3 1.4 C 0 km/h
1635 20-02-2010 23:50:01 1.5 C 3.6 g/m*3 1.5 C 0 km/h
1636 21-02-2010 00:02:01 1.6 C 3.62 g/m*3 1.6 C 0 km/h
1637 21-02-2010 00:14:01 1.8 C 3.67 g/m*3 1.8 C 0 km/h
1638 21-02-2010 00:26:01 2.1 C 3.64 g/m*3 2.1 C 0 km/h
1639 21-02-2010 00:38:02 2.2 C 3.66 g/m*3 2.2 C 0 km/h
1640 21-02-2010 00:50:01 2.1 C 3.64 g/m*3 2.1 C 0 km/h
1641 21-02-2010 01:02:02 2.1 C 3.64 g/m*3 2.1 C 0 km/h
1642 21-02-2010 01:14:02 2 C 3.61 g/m*3 2 C 0 km/h
1643 21-02-2010 01:26:01 1.7 C 3.59 g/m*3 1.7 C 0 km/h
1644 21-02-2010 01:38:02 1.7 C 3.59 g/m*3 1.7 C 0 km/h
1645 21-02-2010 01:50:01 1.7 C 3.54 g/m*3 1.7 C 0 km/h
1646 21-02-2010 02:02:02 1.6 C 3.57 g/m*3 1.6 C 0 km/h
1647 21-02-2010 02:14:02 1.6 C 3.57 g/m*3 1.6 C 0 km/h
1648 21-02-2010 02:26:01 1.7 C 3.59 g/m*3 1.7 C 0 km/h
1649 21-02-2010 02:38:01 1.8 C 3.62 g/m*3 1.8 C 0 km/h
1650 21-02-2010 02:50:01 1.7 C 3.7 g/m*3 1.7 C 0 km/h
Sensor: Nr:Datum:Temp:Abs-Feuchte:Windchill:Wind:
Aussen-T/F 1651 21-02-2010 03:02:01 1.5 C 3.81 g/m*3 1.5 C 0 km/h
1652 21-02-2010 03:14:02 1.3 C 3.87 g/m*3 1.3 C 0 km/h
1653 21-02-2010 03:26:02 1 C 3.89 g/m*3 1 C 0 km/h
1654 21-02-2010 03:38:01 0.6 C 3.89 g/m*3 0.6 C 0 km/h
1655 21-02-2010 03:50:01 0.4 C 3.93 g/m*3 0.4 C 0 km/h
1656 21-02-2010 04:02:02 0.4 C 3.98 g/m*3 0.4 C 0 km/h
1657 21-02-2010 04:14:02 0.4 C 4.08 g/m*3 0.4 C 0 km/h
1658 21-02-2010 04:26:01 0.3 C 4.11 g/m*3 0.3 C 0 km/h
1659 21-02-2010 04:38:01 0.4 C 4.18 g/m*3 0.4 C 0 km/h
1660 21-02-2010 04:50:01 0.4 C 4.23 g/m*3 0.4 C 0 km/h
1661 21-02-2010 05:02:01 0.5 C 4.31 g/m*3 0.5 C 0 km/h
1662 21-02-2010 05:14:01 0.4 C 4.33 g/m*3 0.4 C 0 km/h
1663 21-02-2010 05:26:01 0.5 C 4.36 g/m*3 0.5 C 0 km/h
1664 21-02-2010 05:38:01 0.5 C 4.41 g/m*3 0.5 C 0 km/h
1665 21-02-2010 05:50:01 0.6 C 4.44 g/m*3 0.6 C 0 km/h
1666 21-02-2010 06:02:01 0.6 C 4.49 g/m*3 0.6 C 0 km/h
1667 21-02-2010 06:14:01 0.7 C 4.53 g/m*3 0.7 C 0 km/h
1668 21-02-2010 06:26:02 0.7 C 4.53 g/m*3 0.7 C 0 km/h
1669 21-02-2010 06:38:01 0.8 C 4.56 g/m*3 0.8 C 0 km/h
1670 21-02-2010 06:50:02 0.8 C 4.56 g/m*3 0.8 C 0 km/h
1671 21-02-2010 07:02:01 0.9 C 4.54 g/m*3 0.9 C 0 km/h
1672 21-02-2010 07:14:01 0.9 C 4.48 g/m*3 0.9 C 0 km/h
1673 21-02-2010 07:26:02 0.8 C 4.45 g/m*3 0.8 C 0 km/h
1674 21-02-2010 07:38:01 0.8 C 4.4 g/m*3 0.8 C 0 km/h
1675 21-02-2010 07:50:01 0.8 C 4.35 g/m*3 0.8 C 0 km/h
Sensor: Nr:Datum:Temp:Abs-Feuchte:Windchill:Wind:
Aussen-T/F 1676 21-02-2010 08:02:02 1.3 C 4.45 g/m*3 1.3 C 0 km/h
1677 21-02-2010 08:14:02 1.2 C 4.42 g/m*3 1.2 C 0 km/h
1678 21-02-2010 08:26:01 1.4 C 4.37 g/m*3 1.4 C 0 km/h
1679 21-02-2010 08:38:01 1.6 C 4.38 g/m*3 1.6 C 0 km/h
1680 21-02-2010 08:50:01 1.5 C 4.4 g/m*3 1.5 C 0 km/h
1681 21-02-2010 09:02:01 1.6 C 4.43 g/m*3 1.6 C 0 km/h
1682 21-02-2010 09:14:02 1.7 C 4.46 g/m*3 1.7 C 0 km/h
1683 21-02-2010 09:26:01 2 C 4.5 g/m*3 2 C 0 km/h
1684 21-02-2010 09:38:01 2.1 C 4.48 g/m*3 2.1 C 0 km/h
1685 21-02-2010 09:50:01 2.3 C 4.48 g/m*3 2.3 C 0 km/h
1686 21-02-2010 10:02:02 2.5 C 4.48 g/m*3 2.5 C 0 km/h
1687 21-02-2010 10:14:02 2.8 C 4.52 g/m*3 2.8 C 0 km/h
1688 21-02-2010 10:26:01 2.9 C 4.49 g/m*3 2.9 C 0 km/h
1689 21-02-2010 10:38:02 3 C 4.34 g/m*3 3 C 0 km/h
1690 21-02-2010 10:50:02 3.1 C 4.37 g/m*3 3.1 C 0 km/h
1691 21-02-2010 11:02:01 3.2 C 4.4 g/m*3 3.2 C 0 km/h
1692 21-02-2010 11:14:01 3.7 C 4.42 g/m*3 3.7 C 0 km/h
1693 21-02-2010 11:26:01 3.8 C 4.33 g/m*3 3.8 C 0 km/h
1694 21-02-2010 11:38:02 4 C 4.26 g/m*3 4 C 0 km/h
1695 21-02-2010 11:50:01 4.2 C 4.25 g/m*3 4.2 C 0 km/h
1696 21-02-2010 12:02:01 4.4 C 4.05 g/m*3 4.4 C 0 km/h
1697 21-02-2010 12:14:01 4.5 C 3.81 g/m*3 4.5 C 0 km/h
1698 21-02-2010 12:26:02 4.8 C 3.82 g/m*3 4.8 C 0 km/h
1699 21-02-2010 12:38:01 5 C 3.94 g/m*3 5 C 0 km/h
1700 21-02-2010 12:50:01 5.1 C 3.9 g/m*3 5.1 C 0 km/h
Sensor: Nr:Datum:Temp:Abs-Feuchte:Windchill:Wind:
Aussen-T/F 1701 21-02-2010 13:02:01 4.9 C 3.78 g/m*3 4.9 C 0 km/h
1702 21-02-2010 13:14:01 4.7 C 3.86 g/m*3 4.7 C 0 km/h
1703 21-02-2010 13:26:01 4.7 C 3.93 g/m*3 4.7 C 0 km/h
1704 21-02-2010 13:38:01 4.7 C 4.06 g/m*3 4.7 C 0 km/h
1705 21-02-2010 13:50:01 5.2 C 4.06 g/m*3 5.2 C 0 km/h
1706 21-02-2010 14:02:02 5.7 C 4.06 g/m*3 5.7 C 0 km/h
1707 21-02-2010 14:14:02 5.3 C 3.95 g/m*3 5.3 C 0 km/h
1708 21-02-2010 14:26:01 5.3 C 3.95 g/m*3 5.3 C 0 km/h
1709 21-02-2010 14:38:01 5.2 C 4.06 g/m*3 5.2 C 0 km/h
1710 21-02-2010 14:50:01 5.2 C 4.06 g/m*3 5.2 C 0 km/h
1711 21-02-2010 15:02:01 5.4 C 4.12 g/m*3 5.4 C 0 km/h
1712 21-02-2010 15:14:01 6.1 C 4.09 g/m*3 6.1 C 0 km/h
1713 21-02-2010 15:26:01 6.3 C 4.07 g/m*3 6.3 C 0 km/h
1714 21-02-2010 15:38:01 6.4 C 4.1 g/m*3 6.4 C 0 km/h
1715 21-02-2010 15:50:02 6.3 C 4.15 g/m*3 6.3 C 0 km/h
1716 21-02-2010 16:02:01 6.4 C 4.17 g/m*3 6.4 C 0 km/h
1717 21-02-2010 16:14:01 6.5 C 4.12 g/m*3 6.5 C 0 km/h
1718 21-02-2010 16:26:02 6.5 C 4.2 g/m*3 6.5 C 0 km/h
1719 21-02-2010 16:38:01 6.2 C 4.04 g/m*3 6.2 C 0 km/h
1720 21-02-2010 16:50:01 7.2 C 4.24 g/m*3 7.2 C 0 km/h
1721 21-02-2010 17:02:02 6.5 C 3.97 g/m*3 6.5 C 0 km/h
1722 21-02-2010 17:14:02 5.9 C 4.11 g/m*3 5.9 C 0 km/h
1723 21-02-2010 17:26:01 5.6 C 4.1 g/m*3 5.6 C 0 km/h
1724 21-02-2010 17:38:02 5.3 C 4.16 g/m*3 5.3 C 0 km/h
1725 21-02-2010 17:50:01 5.1 C 4.17 g/m*3 5.1 C 0 km/h
Sensor: Nr:Datum:Temp:Abs-Feuchte:Windchill:Wind:
Aussen-T/F 1726 21-02-2010 18:02:02 4.8 C 4.29 g/m*3 4.8 C 0 km/h
1727 21-02-2010 18:14:02 4.6 C 4.3 g/m*3 4.6 C 0 km/h
1728 21-02-2010 18:26:01 4.4 C 4.31 g/m*3 4.4 C 0 km/h
1729 21-02-2010 18:38:01 3.8 C 4.27 g/m*3 3.8 C 0 km/h
1730 21-02-2010 18:50:01 3.4 C 4.28 g/m*3 3.4 C 0 km/h
1731 21-02-2010 19:02:02 3 C 4.22 g/m*3 3 C 0 km/h
1732 21-02-2010 19:14:02 2.9 C 4.37 g/m*3 2.9 C 0 km/h
1733 21-02-2010 19:26:01 2.8 C 4.4 g/m*3 2.8 C 0 km/h
1734 21-02-2010 19:38:01 2.8 C 4.46 g/m*3 2.8 C 0 km/h
1735 21-02-2010 19:50:01 2.7 C 4.49 g/m*3 2.7 C 0 km/h
1736 21-02-2010 20:02:01 2.5 C 4.43 g/m*3 2.5 C 0 km/h
1737 21-02-2010 20:14:01 2.4 C 4.4 g/m*3 2.4 C 0 km/h
1738 21-02-2010 20:26:01 2.7 C 4.6 g/m*3 2.7 C 0 km/h
1739 21-02-2010 20:38:01 2.8 C 4.63 g/m*3 2.8 C 0 km/h
1740 21-02-2010 20:50:01 3 C 4.58 g/m*3 3 C 0 km/h
1741 21-02-2010 21:02:01 3 C 4.58 g/m*3 3 C 0 km/h
1742 21-02-2010 21:14:01 3 C 4.58 g/m*3 3 C 0 km/h
1743 21-02-2010 21:26:02 2.9 C 4.61 g/m*3 2.9 C 0 km/h
1744 21-02-2010 21:38:01 2.8 C 4.58 g/m*3 2.8 C 0 km/h
1745 21-02-2010 21:50:02 2.7 C 4.6 g/m*3 2.7 C 0 km/h
1746 21-02-2010 22:02:01 2.6 C 4.57 g/m*3 2.6 C 0 km/h
1747 21-02-2010 22:14:01 2.4 C 4.51 g/m*3 2.4 C 0 km/h
1748 21-02-2010 22:26:02 2.3 C 4.54 g/m*3 2.3 C 0 km/h
1749 21-02-2010 22:38:01 2.1 C 4.53 g/m*3 2.1 C 0 km/h
1750 21-02-2010 22:50:02 2.1 C 4.53 g/m*3 2.1 C 0 km/h
Sensor: Nr:Datum:Temp:Abs-Feuchte:Windchill:Wind:
Aussen-T/F 1751 21-02-2010 23:02:01 2.2 C 4.62 g/m*3 2.2 C 0 km/h
1752 21-02-2010 23:14:01 2.1 C 4.59 g/m*3 2.1 C 0 km/h
1753 21-02-2010 23:26:02 2 C 4.56 g/m*3 2 C 0 km/h
1754 21-02-2010 23:38:01 2 C 4.56 g/m*3 2 C 0 km/h
1755 21-02-2010 23:50:02 1.9 C 4.58 g/m*3 1.9 C 0 km/h
1756 22-02-2010 00:02:01 1.9 C 4.58 g/m*3 1.9 C 0 km/h
1757 22-02-2010 00:14:01 1.8 C 4.55 g/m*3 1.8 C 0 km/h
1758 22-02-2010 00:26:01 1.7 C 4.57 g/m*3 1.7 C 0 km/h
1759 22-02-2010 00:38:02 1.7 C 4.57 g/m*3 1.7 C 0 km/h
1760 22-02-2010 00:50:01 1.6 C 4.54 g/m*3 1.6 C 0 km/h
1761 22-02-2010 01:02:02 1.6 C 4.54 g/m*3 1.6 C 0 km/h
1762 22-02-2010 01:14:02 1.5 C 4.51 g/m*3 1.5 C 0 km/h
1763 22-02-2010 01:26:01 1.3 C 4.45 g/m*3 1.3 C 0 km/h
1764 22-02-2010 01:38:02 1.3 C 4.45 g/m*3 1.3 C 0 km/h
1765 22-02-2010 01:50:01 1.3 C 4.45 g/m*3 1.3 C 0 km/h
1766 22-02-2010 02:02:02 1.3 C 4.45 g/m*3 1.3 C 0 km/h
1767 22-02-2010 02:14:02 1.3 C 4.45 g/m*3 1.3 C 0 km/h
1768 22-02-2010 02:26:01 1 C 4.36 g/m*3 1 C 0 km/h
1769 22-02-2010 02:38:01 1 C 4.36 g/m*3 1 C 0 km/h
1770 22-02-2010 02:50:01 1 C 4.41 g/m*3 1 C 0 km/h
1771 22-02-2010 03:02:01 1.1 C 4.44 g/m*3 1.1 C 0 km/h
1772 22-02-2010 03:14:02 1.1 C 4.44 g/m*3 1.1 C 0 km/h
1773 22-02-2010 03:26:02 1 C 4.41 g/m*3 1 C 0 km/h
1774 22-02-2010 03:38:01 1.1 C 4.44 g/m*3 1.1 C 0 km/h
1775 22-02-2010 03:50:01 1.1 C 4.49 g/m*3 1.1 C 0 km/h
Sensor: Nr:Datum:Temp:Abs-Feuchte:Windchill:Wind:
Aussen-T/F 1776 22-02-2010 04:02:02 1.4 C 4.59 g/m*3 1.4 C 0 km/h
1777 22-02-2010 04:14:02 1.1 C 4.44 g/m*3 1.1 C 0 km/h
1778 22-02-2010 04:26:01 1 C 4.41 g/m*3 1 C 0 km/h
1779 22-02-2010 04:38:02 1.1 C 4.49 g/m*3 1.1 C 0 km/h
1780 22-02-2010 04:50:01 1.1 C 4.49 g/m*3 1.1 C 0 km/h
1781 22-02-2010 05:02:02 1.1 C 4.49 g/m*3 1.1 C 0 km/h
1782 22-02-2010 05:14:02 1.2 C 4.53 g/m*3 1.2 C 0 km/h
1783 22-02-2010 05:26:01 1.4 C 4.59 g/m*3 1.4 C 0 km/h
1784 22-02-2010 05:38:01 1.4 C 4.59 g/m*3 1.4 C 0 km/h
1785 22-02-2010 05:50:01 1.5 C 4.62 g/m*3 1.5 C 0 km/h
1786 22-02-2010 06:02:01 1.5 C 4.62 g/m*3 1.5 C 0 km/h
1787 22-02-2010 06:14:02 1.5 C 4.62 g/m*3 1.5 C 0 km/h
1788 22-02-2010 06:26:01 1.5 C 4.62 g/m*3 1.5 C 0 km/h
1789 22-02-2010 06:38:01 1.6 C 4.65 g/m*3 1.6 C 0 km/h
1790 22-02-2010 06:50:01 1.6 C 4.65 g/m*3 1.6 C 0 km/h
1791 22-02-2010 07:02:01 1.6 C 4.65 g/m*3 1.6 C 0 km/h
1792 22-02-2010 07:14:01 1.8 C 4.77 g/m*3 1.8 C 0 km/h
1793 22-02-2010 07:26:02 2.2 C 4.9 g/m*3 2.2 C 0 km/h
1794 22-02-2010 07:38:01 2.3 C 4.93 g/m*3 2.3 C 0 km/h
1795 22-02-2010 07:50:02 2.5 C 5 g/m*3 2.5 C 0 km/h
1796 22-02-2010 08:02:01 2.7 C 5.07 g/m*3 2.7 C 0 km/h
1797 22-02-2010 08:14:01 3 C 5.11 g/m*3 3 C 0 km/h
1798 22-02-2010 08:26:02 3.2 C 5.12 g/m*3 3.2 C 0 km/h
1799 22-02-2010 08:38:01 3.5 C 5.16 g/m*3 3.5 C 0 km/h
1800 22-02-2010 08:50:02 3.8 C 5.21 g/m*3 3.8 C 0 km/h
Sensor: Nr:Datum:Temp:Abs-Feuchte:Windchill:Wind:
Aussen-T/F 1801 22-02-2010 09:02:01 4.2 C 5.22 g/m*3 4.2 C 0 km/h
1802 22-02-2010 09:14:01 4.5 C 5.32 g/m*3 4.5 C 0 km/h
1803 22-02-2010 09:26:01 4.8 C 5.3 g/m*3 4.8 C 0 km/h
1804 22-02-2010 09:38:01 5.1 C 5.27 g/m*3 5.1 C 0 km/h
1805 22-02-2010 09:50:02 5.3 C 5.2 g/m*3 5.3 C 0 km/h
1806 22-02-2010 10:02:01 5.7 C 5.19 g/m*3 5.7 C 0 km/h
1807 22-02-2010 10:14:01 6.3 C 5.18 g/m*3 6.3 C 0 km/h
1808 22-02-2010 10:26:01 6.9 C 5.08 g/m*3 6.9 C 0 km/h
1809 22-02-2010 10:38:02 7.2 C 5.02 g/m*3 7.2 C 0 km/h
1810 22-02-2010 10:50:01 7.6 C 5.08 g/m*3 7.6 C 0 km/h
1811 22-02-2010 11:02:01 7.7 C 5.19 g/m*3 7.7 C 0 km/h
1812 22-02-2010 11:14:01 8 C 5.21 g/m*3 8 C 0 km/h
1813 22-02-2010 11:26:02 8.5 C 5.21 g/m*3 8.5 C 0 km/h
1814 22-02-2010 11:38:01 8.9 C 5.26 g/m*3 8.9 C 0 km/h
1815 22-02-2010 11:50:02 8.7 C 5.19 g/m*3 8.7 C 0 km/h
1816 22-02-2010 12:02:01 8.6 C 5.33 g/m*3 8.6 C 0 km/h
1817 22-02-2010 12:14:01 8.4 C 5.51 g/m*3 8.4 C 0 km/h
1818 22-02-2010 12:26:02 8.8 C 5.74 g/m*3 8.8 C 0 km/h
1819 22-02-2010 12:38:01 9.7 C 5.81 g/m*3 9.7 C 0 km/h
1820 22-02-2010 12:50:02 10.3 C 5.55 g/m*3 10.3 C 0 km/h
1821 22-02-2010 13:02:01 10.6 C 5.37 g/m*3 10.6 C 0 km/h
1822 22-02-2010 13:14:01 11.2 C 5.27 g/m*3 11.2 C 0 km/h
1823 22-02-2010 13:26:01 11.7 C 5.12 g/m*3 11.7 C 0 km/h
1824 22-02-2010 13:38:02 11.4 C 5.13 g/m*3 11.4 C 0 km/h
1825 22-02-2010 13:50:01 11.8 C 5.26 g/m*3 11.8 C 0 km/h
Sensor: Nr:Datum:Temp:Abs-Feuchte:Windchill:Wind:
Aussen-T/F 1826 22-02-2010 14:02:02 11.9 C 5.08 g/m*3 11.9 C 0 km/h
1827 22-02-2010 14:14:02 12.7 C 5.01 g/m*3 12.7 C 0 km/h
1828 22-02-2010 14:26:01 12.2 C 5.07 g/m*3 12.2 C 0 km/h
1829 22-02-2010 14:38:02 12.5 C 5.06 g/m*3 12.5 C 0 km/h
1830 22-02-2010 14:50:01 12.2 C 5.07 g/m*3 12.2 C 0 km/h
1831 22-02-2010 15:02:02 12.3 C 5.1 g/m*3 12.3 C 0 km/h
1832 22-02-2010 15:14:02 12.7 C 5.12 g/m*3 12.7 C 0 km/h
1833 22-02-2010 15:26:01 13.3 C 5.2 g/m*3 13.3 C 0 km/h
1834 22-02-2010 15:38:02 13.4 C 5 g/m*3 13.4 C 0 km/h
1835 22-02-2010 15:50:01 12.7 C 5.23 g/m*3 12.7 C 0 km/h
1836 22-02-2010 16:02:02 12.4 C 5.14 g/m*3 12.4 C 0 km/h
1837 22-02-2010 16:14:02 11.9 C 5.3 g/m*3 11.9 C 0 km/h
1838 22-02-2010 16:26:01 11.5 C 5.37 g/m*3 11.5 C 0 km/h
1839 22-02-2010 16:38:01 11.4 C 5.44 g/m*3 11.4 C 0 km/h
1840 22-02-2010 16:50:01 11.8 C 5.58 g/m*3 11.8 C 0 km/h
1841 22-02-2010 17:02:01 12.1 C 5.47 g/m*3 12.1 C 0 km/h
1842 22-02-2010 17:14:01 11.8 C 5.47 g/m*3 11.8 C 0 km/h
1843 22-02-2010 17:26:01 11.3 C 5.51 g/m*3 11.3 C 0 km/h
1844 22-02-2010 17:38:01 10.7 C 5.6 g/m*3 10.7 C 0 km/h
1845 22-02-2010 17:50:01 10.4 C 5.69 g/m*3 10.4 C 0 km/h
1846 22-02-2010 18:02:01 10.1 C 5.67 g/m*3 10.1 C 0 km/h
1847 22-02-2010 18:14:01 9.9 C 5.79 g/m*3 9.9 C 0 km/h
1848 22-02-2010 18:26:02 9.7 C 5.72 g/m*3 9.7 C 0 km/h
1849 22-02-2010 18:38:01 9.4 C 5.7 g/m*3 9.4 C 0 km/h
1850 22-02-2010 18:50:02 9.2 C 5.8 g/m*3 9.2 C 0 km/h
Sensor: Nr:Datum:Temp:Abs-Feuchte:Windchill:Wind:
Aussen-T/F 1851 22-02-2010 19:02:01 9 C 5.73 g/m*3 9 C 0 km/h
1852 22-02-2010 19:14:01 8.9 C 5.87 g/m*3 8.9 C 0 km/h
1853 22-02-2010 19:26:02 8.9 C 5.87 g/m*3 8.9 C 0 km/h
1854 22-02-2010 19:38:01 9 C 5.82 g/m*3 9 C 0 km/h
1855 22-02-2010 19:50:02 9.1 C 5.77 g/m*3 9.1 C 0 km/h
1856 22-02-2010 20:02:02 9.1 C 5.68 g/m*3 9.1 C 0 km/h
1857 22-02-2010 20:14:02 9.2 C 5.63 g/m*3 9.2 C 0 km/h
1858 22-02-2010 20:26:01 9.5 C 5.64 g/m*3 9.5 C 0 km/h
1859 22-02-2010 20:38:02 9.4 C 5.52 g/m*3 9.4 C 0 km/h
1860 22-02-2010 20:50:02 9 C 5.47 g/m*3 9 C 0 km/h
1861 22-02-2010 21:02:01 8.7 C 5.53 g/m*3 8.7 C 0 km/h
1862 22-02-2010 21:14:01 8.9 C 5.52 g/m*3 8.9 C 0 km/h
1863 22-02-2010 21:26:01 8.8 C 5.48 g/m*3 8.8 C 0 km/h
1864 22-02-2010 21:38:02 8.9 C 5.52 g/m*3 8.9 C 0 km/h
1865 22-02-2010 21:50:01 8.9 C 5.52 g/m*3 8.9 C 0 km/h
1866 22-02-2010 22:02:02 9.1 C 5.5 g/m*3 9.1 C 0 km/h
1867 22-02-2010 22:14:02 9.5 C 5.55 g/m*3 9.5 C 0 km/h
1868 22-02-2010 22:28:08 10.1 C 5.67 g/m*3 10.1 C 0 km/h
1869 22-02-2010 22:40:08 11.1 C 5.54 g/m*3 11.1 C 0 km/h
1870 22-02-2010 22:52:08 11.5 C 5.47 g/m*3 11.5 C 0 km/h
1871 22-02-2010 23:04:08 12 C 5.33 g/m*3 12 C 0 km/h
1872 22-02-2010 23:16:08 12.1 C 5.36 g/m*3 12.1 C 0 km/h
1873 22-02-2010 23:28:08 12.1 C 5.47 g/m*3 12.1 C 0 km/h
1874 22-02-2010 23:40:08 12 C 5.44 g/m*3 12 C 0 km/h
1875 22-02-2010 23:52:08 12.2 C 5.5 g/m*3 12.2 C 0 km/h
Sensor: Nr:Datum:Temp:Abs-Feuchte:Windchill:Wind:
Aussen-T/F 1876 23-02-2010 00:04:08 12.1 C 5.47 g/m*3 12.1 C 0 km/h
1877 23-02-2010 00:16:08 12.1 C 5.47 g/m*3 12.1 C 0 km/h
1878 23-02-2010 00:28:08 12.2 C 5.5 g/m*3 12.2 C 0 km/h
1879 23-02-2010 00:40:08 12.2 C 5.4 g/m*3 12.2 C 0 km/h
1880 23-02-2010 00:52:08 12.1 C 5.36 g/m*3 12.1 C 0 km/h
1881 23-02-2010 01:04:08 11.8 C 5.47 g/m*3 11.8 C 0 km/h
1882 23-02-2010 01:16:08 11.5 C 5.58 g/m*3 11.5 C 0 km/h
1883 23-02-2010 01:28:08 11.4 C 5.75 g/m*3 11.4 C 0 km/h
1884 23-02-2010 01:40:08 11.4 C 5.75 g/m*3 11.4 C 0 km/h
1885 23-02-2010 01:52:08 11.4 C 5.85 g/m*3 11.4 C 0 km/h
1886 23-02-2010 02:04:08 11.2 C 5.78 g/m*3 11.2 C 0 km/h
1887 23-02-2010 02:16:08 11.2 C 5.88 g/m*3 11.2 C 0 km/h
1888 23-02-2010 02:28:08 10.6 C 6.25 g/m*3 10.6 C 0 km/h
1889 23-02-2010 02:40:08 10.4 C 6.46 g/m*3 10.4 C 0 km/h
1890 23-02-2010 02:52:08 9.6 C 6.78 g/m*3 9.6 C 0 km/h
1891 23-02-2010 03:04:09 9.3 C 6.83 g/m*3 9.3 C 0 km/h
1892 23-02-2010 03:16:09 9.2 C 6.97 g/m*3 9.2 C 0 km/h
1893 23-02-2010 03:28:09 9.1 C 6.92 g/m*3 9.1 C 0 km/h
1894 23-02-2010 03:40:09 9.1 C 7.01 g/m*3 9.1 C 0 km/h
1895 23-02-2010 03:52:09 8.9 C 7.1 g/m*3 8.9 C 0 km/h
1896 23-02-2010 04:04:09 8.6 C 7.13 g/m*3 8.6 C 0 km/h
1897 23-02-2010 04:16:09 8.6 C 7.22 g/m*3 8.6 C 0 km/h
1898 23-02-2010 04:28:09 8.5 C 7.17 g/m*3 8.5 C 0 km/h
1899 23-02-2010 04:40:09 8.6 C 7.22 g/m*3 8.6 C 0 km/h
1900 23-02-2010 04:52:09 8.5 C 7.17 g/m*3 8.5 C 0 km/h
Sensor: Nr:Datum:Temp:Abs-Feuchte:Windchill:Wind:
Aussen-T/F 1901 23-02-2010 05:04:09 8.4 C 7.04 g/m*3 8.4 C 0 km/h
1902 23-02-2010 05:16:09 8.5 C 7.17 g/m*3 8.5 C 0 km/h
1903 23-02-2010 05:28:09 8.3 C 7.08 g/m*3 8.3 C 0 km/h
1904 23-02-2010 05:40:09 8.5 C 7.17 g/m*3 8.5 C 0 km/h
1905 23-02-2010 05:52:09 8.5 C 7.09 g/m*3 8.5 C 0 km/h
1906 23-02-2010 06:04:09 8.5 C 7.09 g/m*3 8.5 C 0 km/h
1907 23-02-2010 06:16:09 8.5 C 7.09 g/m*3 8.5 C 0 km/h
1908 23-02-2010 06:28:09 8.5 C 7.09 g/m*3 8.5 C 0 km/h
1909 23-02-2010 06:40:09 8.5 C 7.09 g/m*3 8.5 C 0 km/h
1910 23-02-2010 06:52:09 8.5 C 7.09 g/m*3 8.5 C 0 km/h
1911 23-02-2010 07:04:09 8.4 C 7.04 g/m*3 8.4 C 0 km/h
1912 23-02-2010 07:16:08 8.2 C 6.95 g/m*3 8.2 C 0 km/h
1913 23-02-2010 07:28:08 8.1 C 6.99 g/m*3 8.1 C 0 km/h
1914 23-02-2010 07:40:08 8.2 C 7.03 g/m*3 8.2 C 0 km/h
1915 23-02-2010 07:52:01 8.2 C 7.03 g/m*3 8.2 C 0 km/h
1916 23-02-2010 08:04:02 8.3 C 7.16 g/m*3 8.3 C 0 km/h
1917 23-02-2010 08:16:01 8.5 C 7.26 g/m*3 8.5 C 0 km/h
1918 23-02-2010 08:28:01 8.6 C 7.22 g/m*3 8.6 C 0 km/h
1919 23-02-2010 08:40:02 8.8 C 7.31 g/m*3 8.8 C 0 km/h
1920 23-02-2010 08:52:02 8.9 C 7.27 g/m*3 8.9 C 0 km/h
1921 23-02-2010 09:04:02 9 C 7.23 g/m*3 9 C 0 km/h
1922 23-02-2010 09:16:01 9.1 C 7.28 g/m*3 9.1 C 0 km/h
1923 23-02-2010 09:28:01 9.1 C 7.1 g/m*3 9.1 C 0 km/h
1924 23-02-2010 09:40:02 9.1 C 7.01 g/m*3 9.1 C 0 km/h
1925 23-02-2010 09:52:02 9.3 C 7.19 g/m*3 9.3 C 0 km/h
Sensor: Nr:Datum:Temp:Abs-Feuchte:Windchill:Wind:
Aussen-T/F 1926 23-02-2010 10:04:02 9.7 C 7.19 g/m*3 9.7 C 0 km/h
1927 23-02-2010 10:16:01 10.4 C 7.04 g/m*3 10.4 C 0 km/h
1928 23-02-2010 10:28:01 10.7 C 6.88 g/m*3 10.7 C 0 km/h
1929 23-02-2010 10:40:02 10.6 C 6.83 g/m*3 10.6 C 0 km/h
1930 23-02-2010 10:52:01 10.6 C 6.73 g/m*3 10.6 C 0 km/h
1931 23-02-2010 11:04:02 10.8 C 6.92 g/m*3 10.8 C 0 km/h
1932 23-02-2010 11:16:02 11 C 6.81 g/m*3 11 C 0 km/h
1933 23-02-2010 11:28:02 11.2 C 6.69 g/m*3 11.2 C 0 km/h
1934 23-02-2010 11:40:02 11.4 C 6.57 g/m*3 11.4 C 0 km/h
1935 23-02-2010 11:52:01 11.6 C 6.55 g/m*3 11.6 C 0 km/h
1936 23-02-2010 12:04:02 11.2 C 6.49 g/m*3 11.2 C 0 km/h
1937 23-02-2010 12:16:02 10.9 C 6.66 g/m*3 10.9 C 0 km/h
1938 23-02-2010 12:28:02 10.3 C 6.9 g/m*3 10.3 C 0 km/h
1939 23-02-2010 12:40:01 10.5 C 7.27 g/m*3 10.5 C 0 km/h
1940 23-02-2010 12:52:02 10.4 C 7.13 g/m*3 10.4 C 0 km/h
1941 23-02-2010 13:04:01 10.3 C 7.18 g/m*3 10.3 C 0 km/h
1942 23-02-2010 13:16:02 10.4 C 7.32 g/m*3 10.4 C 0 km/h
1943 23-02-2010 13:28:02 10.5 C 7.37 g/m*3 10.5 C 0 km/h
1944 23-02-2010 13:40:01 10.3 C 7.47 g/m*3 10.3 C 0 km/h
1945 23-02-2010 13:52:02 10.6 C 7.71 g/m*3 10.6 C 0 km/h
1946 23-02-2010 14:04:02 10.9 C 7.76 g/m*3 10.9 C 0 km/h
1947 23-02-2010 14:16:02 11 C 7.81 g/m*3 11 C 0 km/h
1948 23-02-2010 14:28:02 10.8 C 7.71 g/m*3 10.8 C 0 km/h
1949 23-02-2010 14:40:03 10.9 C 7.76 g/m*3 10.9 C 0 km/h
1950 23-02-2010 14:52:02 11 C 7.61 g/m*3 11 C 0 km/h
Sensor: Nr:Datum:Temp:Abs-Feuchte:Windchill:Wind:
Aussen-T/F 1951 23-02-2010 15:04:01 11 C 7.71 g/m*3 11 C 0 km/h
1952 23-02-2010 15:16:02 11 C 7.71 g/m*3 11 C 0 km/h
1953 23-02-2010 15:28:02 11 C 7.81 g/m*3 11 C 0 km/h
1954 23-02-2010 15:40:02 11.1 C 7.66 g/m*3 11.1 C 0 km/h
1955 23-02-2010 15:52:02 11 C 7.51 g/m*3 11 C 0 km/h
1956 23-02-2010 16:04:03 10.7 C 7.46 g/m*3 10.7 C 0 km/h
1957 23-02-2010 16:16:02 10.5 C 7.47 g/m*3 10.5 C 0 km/h
1958 23-02-2010 16:28:02 10.6 C 7.52 g/m*3 10.6 C 0 km/h
1959 23-02-2010 16:40:02 10.6 C 7.52 g/m*3 10.6 C 0 km/h
1960 23-02-2010 16:52:01 10.4 C 7.32 g/m*3 10.4 C 0 km/h
1961 23-02-2010 17:04:02 10.4 C 7.32 g/m*3 10.4 C 0 km/h
1962 23-02-2010 17:16:01 10.2 C 7.23 g/m*3 10.2 C 0 km/h
1963 23-02-2010 17:28:01 10.1 C 7.09 g/m*3 10.1 C 0 km/h
1964 23-02-2010 17:40:02 10.1 C 7.19 g/m*3 10.1 C 0 km/h
1965 23-02-2010 17:52:01 10 C 7.14 g/m*3 10 C 0 km/h
1966 23-02-2010 18:04:02 9.8 C 7.24 g/m*3 9.8 C 0 km/h
1967 23-02-2010 18:16:01 9.6 C 7.33 g/m*3 9.6 C 0 km/h
1968 23-02-2010 18:28:01 9.6 C 7.33 g/m*3 9.6 C 0 km/h
1969 23-02-2010 18:40:02 9.5 C 7.37 g/m*3 9.5 C 0 km/h
1970 23-02-2010 18:52:01 9.5 C 7.46 g/m*3 9.5 C 0 km/h
1971 23-02-2010 19:04:02 9.2 C 7.41 g/m*3 9.2 C 0 km/h
1972 23-02-2010 19:16:02 9.1 C 7.45 g/m*3 9.1 C 0 km/h
1973 23-02-2010 19:28:02 9.2 C 7.59 g/m*3 9.2 C 0 km/h
1974 23-02-2010 19:40:02 9.2 C 7.68 g/m*3 9.2 C 0 km/h
1975 23-02-2010 19:52:02 9.2 C 7.68 g/m*3 9.2 C 0 km/h
Sensor: Nr:Datum:Temp:Abs-Feuchte:Windchill:Wind:
Aussen-T/F 1976 23-02-2010 20:04:02 9 C 7.67 g/m*3 9 C 0 km/h
1977 23-02-2010 20:16:02 9.1 C 7.81 g/m*3 9.1 C 0 km/h
1978 23-02-2010 20:28:02 9 C 7.76 g/m*3 9 C 0 km/h
1979 23-02-2010 20:40:02 9 C 7.76 g/m*3 9 C 0 km/h
1980 23-02-2010 20:52:01 9.2 C 7.86 g/m*3 9.2 C 0 km/h
1981 23-02-2010 21:04:02 9.3 C 7.91 g/m*3 9.3 C 0 km/h
1982 23-02-2010 21:16:01 9.4 C 7.78 g/m*3 9.4 C 0 km/h
1983 23-02-2010 21:28:01 9.6 C 7.6 g/m*3 9.6 C 0 km/h
1984 23-02-2010 21:40:02 9.6 C 7.33 g/m*3 9.6 C 0 km/h
1985 23-02-2010 21:52:02 9.5 C 7.1 g/m*3 9.5 C 0 km/h
1986 23-02-2010 22:04:02 9.3 C 6.92 g/m*3 9.3 C 0 km/h
1987 23-02-2010 22:16:02 9.3 C 6.92 g/m*3 9.3 C 0 km/h
1988 23-02-2010 22:28:02 9.3 C 6.74 g/m*3 9.3 C 0 km/h
1989 23-02-2010 22:40:02 8.9 C 6.75 g/m*3 8.9 C 0 km/h
1990 23-02-2010 22:52:01 8.7 C 6.75 g/m*3 8.7 C 0 km/h
1991 23-02-2010 23:04:02 8.5 C 6.66 g/m*3 8.5 C 0 km/h
1992 23-02-2010 23:16:02 8.5 C 6.66 g/m*3 8.5 C 0 km/h
1993 23-02-2010 23:28:02 8.2 C 6.62 g/m*3 8.2 C 0 km/h
1994 23-02-2010 23:40:01 8.2 C 6.7 g/m*3 8.2 C 0 km/h
1995 23-02-2010 23:52:02 8.2 C 6.7 g/m*3 8.2 C 0 km/h
1996 24-02-2010 00:04:01 8.1 C 6.66 g/m*3 8.1 C 0 km/h
1997 24-02-2010 00:16:02 7.9 C 6.74 g/m*3 7.9 C 0 km/h
1998 24-02-2010 00:28:02 7.9 C 6.82 g/m*3 7.9 C 0 km/h
1999 24-02-2010 00:40:01 7.8 C 6.77 g/m*3 7.8 C 0 km/h
2000 24-02-2010 00:52:02 7.5 C 6.64 g/m*3 7.5 C 0 km/h
Sensor: Nr:Datum:Temp:Abs-Feuchte:Windchill:Wind:
Aussen-T/F 2001 24-02-2010 01:04:01 7.3 C 6.64 g/m*3 7.3 C 0 km/h
2002 24-02-2010 01:16:02 7.5 C 6.8 g/m*3 7.5 C 0 km/h
2003 24-02-2010 01:28:02 8.1 C 6.99 g/m*3 8.1 C 0 km/h
2004 24-02-2010 01:40:01 8.7 C 6.92 g/m*3 8.7 C 0 km/h
2005 24-02-2010 01:52:02 8.6 C 6.7 g/m*3 8.6 C 0 km/h
2006 24-02-2010 02:04:02 8.3 C 6.57 g/m*3 8.3 C 0 km/h
2007 24-02-2010 02:16:02 8.1 C 6.57 g/m*3 8.1 C 0 km/h
2008 24-02-2010 02:28:02 7.9 C 6.74 g/m*3 7.9 C 0 km/h
2009 24-02-2010 02:40:02 7.9 C 6.82 g/m*3 7.9 C 0 km/h
2010 24-02-2010 02:52:01 7.8 C 6.77 g/m*3 7.8 C 0 km/h
2011 24-02-2010 03:04:01 7.7 C 6.73 g/m*3 7.7 C 0 km/h
2012 24-02-2010 03:16:01 7.9 C 6.9 g/m*3 7.9 C 0 km/h
2013 24-02-2010 03:28:01 8 C 6.86 g/m*3 8 C 0 km/h
2014 24-02-2010 03:40:02 8 C 6.78 g/m*3 8 C 0 km/h
2015 24-02-2010 03:52:02 8 C 6.78 g/m*3 8 C 0 km/h
2016 24-02-2010 04:04:01 8 C 6.78 g/m*3 8 C 0 km/h
2017 24-02-2010 04:16:02 8 C 6.86 g/m*3 8 C 0 km/h
2018 24-02-2010 04:28:02 8 C 6.86 g/m*3 8 C 0 km/h
2019 24-02-2010 04:40:01 8 C 6.86 g/m*3 8 C 0 km/h
2020 24-02-2010 04:52:02 8.1 C 6.91 g/m*3 8.1 C 0 km/h
2021 24-02-2010 05:04:01 8.3 C 7 g/m*3 8.3 C 0 km/h
2022 24-02-2010 05:16:01 8.4 C 6.96 g/m*3 8.4 C 0 km/h
2023 24-02-2010 05:28:01 8.2 C 6.78 g/m*3 8.2 C 0 km/h
2024 24-02-2010 05:40:01 8.3 C 6.83 g/m*3 8.3 C 0 km/h
2025 24-02-2010 05:52:02 8.4 C 6.79 g/m*3 8.4 C 0 km/h
Sensor: Nr:Datum:Temp:Abs-Feuchte:Windchill:Wind:
Aussen-T/F 2026 24-02-2010 06:04:01 8.2 C 6.62 g/m*3 8.2 C 0 km/h
2027 24-02-2010 06:16:01 7.9 C 6.65 g/m*3 7.9 C 0 km/h
2028 24-02-2010 06:28:01 7.8 C 6.61 g/m*3 7.8 C 0 km/h
2029 24-02-2010 06:40:02 7.6 C 6.53 g/m*3 7.6 C 0 km/h
2030 24-02-2010 06:52:01 7.3 C 6.4 g/m*3 7.3 C 0 km/h
2031 24-02-2010 07:04:01 7.3 C 6.56 g/m*3 7.3 C 0 km/h
2032 24-02-2010 07:16:01 7.4 C 6.6 g/m*3 7.4 C 0 km/h
2033 24-02-2010 07:28:01 7.5 C 6.64 g/m*3 7.5 C 0 km/h
2034 24-02-2010 07:40:02 7.5 C 6.56 g/m*3 7.5 C 0 km/h
2035 24-02-2010 07:52:01 7.4 C 6.6 g/m*3 7.4 C 0 km/h
2036 24-02-2010 08:04:02 7.5 C 6.64 g/m*3 7.5 C 0 km/h
2037 24-02-2010 08:16:01 7.5 C 6.56 g/m*3 7.5 C 0 km/h
2038 24-02-2010 08:28:01 7.9 C 6.82 g/m*3 7.9 C 0 km/h
2039 24-02-2010 08:40:02 8.1 C 6.74 g/m*3 8.1 C 0 km/h
2040 24-02-2010 08:52:01 8.5 C 6.92 g/m*3 8.5 C 0 km/h
2041 24-02-2010 09:04:02 8.6 C 6.79 g/m*3 8.6 C 0 km/h
2042 24-02-2010 09:16:01 8.9 C 6.83 g/m*3 8.9 C 0 km/h
2043 24-02-2010 09:28:01 9.1 C 6.65 g/m*3 9.1 C 0 km/h
2044 24-02-2010 09:40:01 9.2 C 6.52 g/m*3 9.2 C 0 km/h
2045 24-02-2010 09:52:01 9.4 C 6.51 g/m*3 9.4 C 0 km/h
2046 24-02-2010 10:04:02 9.7 C 6.55 g/m*3 9.7 C 0 km/h
2047 24-02-2010 10:16:01 10 C 6.39 g/m*3 10 C 0 km/h
2048 24-02-2010 10:28:01 10.2 C 6.28 g/m*3 10.2 C 0 km/h
2049 24-02-2010 10:40:01 10.4 C 6.26 g/m*3 10.4 C 0 km/h
2050 24-02-2010 10:52:01 10.9 C 6.17 g/m*3 10.9 C 0 km/h
Sensor: Nr:Datum:Temp:Abs-Feuchte:Windchill:Wind:
Aussen-T/F 2051 24-02-2010 11:04:01 10.9 C 5.97 g/m*3 10.9 C 0 km/h
2052 24-02-2010 11:16:02 11.1 C 5.74 g/m*3 11.1 C 0 km/h
2053 24-02-2010 11:28:02 11.2 C 5.68 g/m*3 11.2 C 0 km/h
2054 24-02-2010 11:40:01 11.2 C 5.57 g/m*3 11.2 C 0 km/h
2055 24-02-2010 11:52:01 11.3 C 5.61 g/m*3 11.3 C 0 km/h
2056 24-02-2010 12:04:01 11.1 C 5.64 g/m*3 11.1 C 0 km/h
2057 24-02-2010 12:16:02 11.2 C 5.57 g/m*3 11.2 C 0 km/h
2058 24-02-2010 12:28:02 11.6 C 5.72 g/m*3 11.6 C 0 km/h
2059 24-02-2010 12:40:01 11.8 C 5.58 g/m*3 11.8 C 0 km/h
2060 24-02-2010 12:52:02 12 C 5.54 g/m*3 12 C 0 km/h
2061 24-02-2010 13:04:01 12 C 5.54 g/m*3 12 C 0 km/h
2062 24-02-2010 13:16:02 11.8 C 5.58 g/m*3 11.8 C 0 km/h
2063 24-02-2010 13:28:02 12 C 5.44 g/m*3 12 C 0 km/h
2064 24-02-2010 13:40:01 12.2 C 5.61 g/m*3 12.2 C 0 km/h
2065 24-02-2010 13:52:02 12.4 C 5.35 g/m*3 12.4 C 0 km/h
2066 24-02-2010 14:04:01 12.3 C 5.32 g/m*3 12.3 C 0 km/h
2067 24-02-2010 14:16:01 12.6 C 5.53 g/m*3 12.6 C 0 km/h
2068 24-02-2010 14:28:01 12.7 C 5.45 g/m*3 12.7 C 0 km/h
2069 24-02-2010 14:40:01 12.8 C 5.38 g/m*3 12.8 C 0 km/h
2070 24-02-2010 14:52:02 13.1 C 5.36 g/m*3 13.1 C 0 km/h
2071 24-02-2010 15:04:01 13.2 C 5.4 g/m*3 13.2 C 0 km/h
2072 24-02-2010 15:16:01 13.1 C 5.36 g/m*3 13.1 C 0 km/h
2073 24-02-2010 15:28:01 13.2 C 5.4 g/m*3 13.2 C 0 km/h
2074 24-02-2010 15:40:02 13.7 C 5.45 g/m*3 13.7 C 0 km/h
2075 24-02-2010 15:52:01 14.1 C 5.46 g/m*3 14.1 C 0 km/h
Sensor: Nr:Datum:Temp:Abs-Feuchte:Windchill:Wind:
Aussen-T/F 2076 24-02-2010 16:04:01 15.2 C 5.58 g/m*3 15.2 C 0 km/h
2077 24-02-2010 16:16:01 14.4 C 5.19 g/m*3 14.4 C 0 km/h
2078 24-02-2010 16:28:01 14 C 5.43 g/m*3 14 C 0 km/h
2079 24-02-2010 16:40:02 14.4 C 5.32 g/m*3 14.4 C 0 km/h
2080 24-02-2010 16:52:01 14.2 C 5.13 g/m*3 14.2 C 0 km/h
2081 24-02-2010 17:04:02 13.6 C 5.3 g/m*3 13.6 C 0 km/h
2082 24-02-2010 17:16:01 12.8 C 5.38 g/m*3 12.8 C 0 km/h
2083 24-02-2010 17:28:01 11.8 C 5.68 g/m*3 11.8 C 0 km/h
2084 24-02-2010 17:40:02 11.2 C 5.68 g/m*3 11.2 C 0 km/h
2085 24-02-2010 17:52:01 10.7 C 5.8 g/m*3 10.7 C 0 km/h
2086 24-02-2010 18:04:02 10.2 C 5.8 g/m*3 10.2 C 0 km/h
2087 24-02-2010 18:16:01 9.8 C 5.85 g/m*3 9.8 C 0 km/h
2088 24-02-2010 18:28:02 9.7 C 5.9 g/m*3 9.7 C 0 km/h
2089 24-02-2010 18:40:01 9.6 C 5.95 g/m*3 9.6 C 0 km/h
2090 24-02-2010 18:52:01 9.6 C 6.05 g/m*3 9.6 C 0 km/h
2091 24-02-2010 19:04:01 9.7 C 6.18 g/m*3 9.7 C 0 km/h
2092 24-02-2010 19:16:01 9.5 C 6.55 g/m*3 9.5 C 0 km/h
2093 24-02-2010 19:28:01 8.8 C 6.7 g/m*3 8.8 C 0 km/h
2094 24-02-2010 19:40:01 8.5 C 6.92 g/m*3 8.5 C 0 km/h
2095 24-02-2010 19:52:01 8.5 C 7.09 g/m*3 8.5 C 0 km/h
2096 24-02-2010 20:04:01 8.4 C 7.13 g/m*3 8.4 C 0 km/h
2097 24-02-2010 20:16:02 8.3 C 7.16 g/m*3 8.3 C 0 km/h
2098 24-02-2010 20:28:02 8.4 C 7.3 g/m*3 8.4 C 0 km/h
2099 24-02-2010 20:40:01 8.3 C 7.33 g/m*3 8.3 C 0 km/h
2100 24-02-2010 20:52:01 8.5 C 7.43 g/m*3 8.5 C 0 km/h
Sensor: Nr:Datum:Temp:Abs-Feuchte:Windchill:Wind:
Aussen-T/F 2101 24-02-2010 21:04:01 8.5 C 7.51 g/m*3 8.5 C 0 km/h
2102 24-02-2010 21:16:02 8.4 C 7.38 g/m*3 8.4 C 0 km/h
2103 24-02-2010 21:28:02 7.9 C 7.23 g/m*3 7.9 C 0 km/h
2104 24-02-2010 21:40:01 7.8 C 7.18 g/m*3 7.8 C 0 km/h
2105 24-02-2010 21:52:02 7.6 C 7.09 g/m*3 7.6 C 0 km/h
2106 24-02-2010 22:04:01 7.5 C 6.96 g/m*3 7.5 C 0 km/h
2107 24-02-2010 22:16:02 7.6 C 7.01 g/m*3 7.6 C 0 km/h
2108 24-02-2010 22:28:02 7.7 C 7.05 g/m*3 7.7 C 0 km/h
2109 24-02-2010 22:40:01 8 C 7.03 g/m*3 8 C 0 km/h
2110 24-02-2010 22:52:02 8.1 C 6.82 g/m*3 8.1 C 0 km/h
2111 24-02-2010 23:04:01 8.2 C 6.7 g/m*3 8.2 C 0 km/h
2112 24-02-2010 23:16:01 8.3 C 6.74 g/m*3 8.3 C 0 km/h
2113 24-02-2010 23:28:01 8.4 C 6.62 g/m*3 8.4 C 0 km/h
2114 24-02-2010 23:40:01 8.4 C 6.53 g/m*3 8.4 C 0 km/h
2115 24-02-2010 23:52:02 8.4 C 6.45 g/m*3 8.4 C 0 km/h
2116 25-02-2010 00:04:01 8.7 C 6.49 g/m*3 8.7 C 0 km/h
2117 25-02-2010 00:16:02 8.7 C 6.4 g/m*3 8.7 C 0 km/h
2118 25-02-2010 00:28:02 8.6 C 6.36 g/m*3 8.6 C 0 km/h
2119 25-02-2010 00:40:01 8.4 C 6.28 g/m*3 8.4 C 0 km/h
2120 25-02-2010 00:52:02 8.1 C 6.24 g/m*3 8.1 C 0 km/h
2121 25-02-2010 01:04:01 8.1 C 6.41 g/m*3 8.1 C 0 km/h
2122 25-02-2010 01:16:01 8.4 C 6.36 g/m*3 8.4 C 0 km/h
2123 25-02-2010 01:28:01 8.5 C 6.23 g/m*3 8.5 C 0 km/h
2124 25-02-2010 01:40:02 8.6 C 6.19 g/m*3 8.6 C 0 km/h
2125 25-02-2010 01:52:01 8.6 C 6.19 g/m*3 8.6 C 0 km/h
Sensor: Nr:Datum:Temp:Abs-Feuchte:Windchill:Wind:
Aussen-T/F 2126 25-02-2010 02:04:01 8.4 C 6.11 g/m*3 8.4 C 0 km/h
2127 25-02-2010 02:16:01 8 C 6.12 g/m*3 8 C 0 km/h
2128 25-02-2010 02:28:01 7.9 C 6.32 g/m*3 7.9 C 0 km/h
2129 25-02-2010 02:40:02 7.9 C 6.41 g/m*3 7.9 C 0 km/h
2130 25-02-2010 02:52:01 7.8 C 6.28 g/m*3 7.8 C 0 km/h
2131 25-02-2010 03:04:01 7.7 C 6.32 g/m*3 7.7 C 0 km/h
2132 25-02-2010 03:16:02 7.5 C 6.48 g/m*3 7.5 C 0 km/h
2133 25-02-2010 03:28:02 7.4 C 6.6 g/m*3 7.4 C 0 km/h
2134 25-02-2010 03:40:02 7.3 C 6.56 g/m*3 7.3 C 0 km/h
2135 25-02-2010 03:52:02 7.3 C 6.56 g/m*3 7.3 C 0 km/h
2136 25-02-2010 04:04:01 7.2 C 6.52 g/m*3 7.2 C 0 km/h
2137 25-02-2010 04:16:01 7.2 C 6.52 g/m*3 7.2 C 0 km/h
2138 25-02-2010 04:28:01 7.2 C 6.52 g/m*3 7.2 C 0 km/h
2139 25-02-2010 04:40:02 7.1 C 6.47 g/m*3 7.1 C 0 km/h
2140 25-02-2010 04:52:01 7.1 C 6.55 g/m*3 7.1 C 0 km/h
2141 25-02-2010 05:04:02 7.3 C 6.56 g/m*3 7.3 C 0 km/h
2142 25-02-2010 05:16:01 7.2 C 6.52 g/m*3 7.2 C 0 km/h
2143 25-02-2010 05:28:01 7.4 C 6.6 g/m*3 7.4 C 0 km/h
2144 25-02-2010 05:40:02 7.6 C 6.53 g/m*3 7.6 C 0 km/h
2145 25-02-2010 05:52:01 7.9 C 6.32 g/m*3 7.9 C 0 km/h
2146 25-02-2010 06:04:02 8.1 C 6.07 g/m*3 8.1 C 0 km/h
2147 25-02-2010 06:16:01 8.3 C 5.98 g/m*3 8.3 C 0 km/h
2148 25-02-2010 06:28:01 8.5 C 5.89 g/m*3 8.5 C 0 km/h
2149 25-02-2010 06:40:02 8.6 C 5.84 g/m*3 8.6 C 0 km/h
2150 25-02-2010 06:52:02 8.7 C 5.79 g/m*3 8.7 C 0 km/h
Sensor: Nr:Datum:Temp:Abs-Feuchte:Windchill:Wind:
Aussen-T/F 2151 25-02-2010 07:04:01 8.7 C 5.79 g/m*3 8.7 C 0 km/h
2152 25-02-2010 07:16:01 8.8 C 5.74 g/m*3 8.8 C 0 km/h
2153 25-02-2010 07:28:01 8.8 C 5.83 g/m*3 8.8 C 0 km/h
2154 25-02-2010 07:40:01 8.7 C 5.88 g/m*3 8.7 C 0 km/h
2155 25-02-2010 07:52:02 8.6 C 5.93 g/m*3 8.6 C 0 km/h
2156 25-02-2010 08:04:01 8.4 C 6.02 g/m*3 8.4 C 0 km/h
2157 25-02-2010 08:16:01 8.6 C 5.93 g/m*3 8.6 C 0 km/h
2158 25-02-2010 08:28:01 8.9 C 5.78 g/m*3 8.9 C 0 km/h
2159 25-02-2010 08:40:02 9 C 5.64 g/m*3 9 C 0 km/h
2160 25-02-2010 08:52:01 9.1 C 5.68 g/m*3 9.1 C 0 km/h
2161 25-02-2010 09:04:02 9.3 C 5.66 g/m*3 9.3 C 0 km/h
2162 25-02-2010 09:16:01 9.5 C 5.64 g/m*3 9.5 C 0 km/h
2163 25-02-2010 09:28:01 9.6 C 5.5 g/m*3 9.6 C 0 km/h
2164 25-02-2010 09:40:02 9.6 C 5.59 g/m*3 9.6 C 0 km/h
2165 25-02-2010 09:52:01 9.9 C 5.6 g/m*3 9.9 C 0 km/h
2166 25-02-2010 10:04:02 9.9 C 5.51 g/m*3 9.9 C 0 km/h
2167 25-02-2010 10:16:01 9.9 C 5.6 g/m*3 9.9 C 0 km/h
2168 25-02-2010 10:28:01 10.2 C 5.42 g/m*3 10.2 C 0 km/h
2169 25-02-2010 10:40:02 10.6 C 5.37 g/m*3 10.6 C 0 km/h
2170 25-02-2010 10:52:01 10.7 C 5.21 g/m*3 10.7 C 0 km/h
2171 25-02-2010 11:04:01 10.6 C 5.17 g/m*3 10.6 C 0 km/h
2172 25-02-2010 11:16:01 11.2 C 5.17 g/m*3 11.2 C 0 km/h
2173 25-02-2010 11:28:01 10.9 C 5.17 g/m*3 10.9 C 0 km/h
2174 25-02-2010 11:40:02 11.2 C 5.07 g/m*3 11.2 C 0 km/h
2175 25-02-2010 11:52:01 11.3 C 5.1 g/m*3 11.3 C 0 km/h
Sensor: Nr:Datum:Temp:Abs-Feuchte:Windchill:Wind:
Aussen-T/F 2176 25-02-2010 12:04:02 11.4 C 4.82 g/m*3 11.4 C 0 km/h
2177 25-02-2010 12:16:01 11.4 C 4.82 g/m*3 11.4 C 0 km/h
2178 25-02-2010 12:28:01 11.4 C 4.82 g/m*3 11.4 C 0 km/h
2179 25-02-2010 12:40:02 11.1 C 4.73 g/m*3 11.1 C 0 km/h
2180 25-02-2010 12:52:01 11.4 C 4.82 g/m*3 11.4 C 0 km/h
2181 25-02-2010 13:04:02 11.7 C 4.81 g/m*3 11.7 C 0 km/h
2182 25-02-2010 13:16:01 12.9 C 4.85 g/m*3 12.9 C 0 km/h
2183 25-02-2010 13:28:01 13 C 4.54 g/m*3 13 C 0 km/h
2184 25-02-2010 13:40:02 12.7 C 4.68 g/m*3 12.7 C 0 km/h
2185 25-02-2010 13:52:01 11.9 C 4.77 g/m*3 11.9 C 0 km/h
2186 25-02-2010 14:04:02 12.2 C 4.96 g/m*3 12.2 C 0 km/h
2187 25-02-2010 14:16:01 13 C 4.88 g/m*3 13 C 0 km/h
2188 25-02-2010 14:28:01 12.8 C 4.82 g/m*3 12.8 C 0 km/h
2189 25-02-2010 14:40:01 12.4 C 4.7 g/m*3 12.4 C 0 km/h
2190 25-02-2010 14:52:01 12.6 C 4.87 g/m*3 12.6 C 0 km/h
2191 25-02-2010 15:04:02 12.7 C 4.68 g/m*3 12.7 C 0 km/h
2192 25-02-2010 15:16:01 12.8 C 4.59 g/m*3 12.8 C 0 km/h
2193 25-02-2010 15:28:01 12.5 C 4.4 g/m*3 12.5 C 0 km/h
2194 25-02-2010 15:40:01 12.5 C 4.4 g/m*3 12.5 C 0 km/h
2195 25-02-2010 15:52:01 12.3 C 4.34 g/m*3 12.3 C 0 km/h
2196 25-02-2010 16:04:01 12.2 C 4.32 g/m*3 12.2 C 0 km/h
2197 25-02-2010 16:16:02 12 C 4.26 g/m*3 12 C 0 km/h
2198 25-02-2010 16:28:02 11.8 C 4.53 g/m*3 11.8 C 0 km/h
2199 25-02-2010 16:40:01 11.6 C 4.68 g/m*3 11.6 C 0 km/h
2200 25-02-2010 16:52:01 11.5 C 4.75 g/m*3 11.5 C 0 km/h
Sensor: Nr:Datum:Temp:Abs-Feuchte:Windchill:Wind:
Aussen-T/F 2201 25-02-2010 17:04:01 11.2 C 5.07 g/m*3 11.2 C 0 km/h
2202 25-02-2010 17:16:01 11.2 C 4.97 g/m*3 11.2 C 0 km/h
2203 25-02-2010 17:28:01 11 C 4.8 g/m*3 11 C 0 km/h
2204 25-02-2010 17:40:01 11 C 4.8 g/m*3 11 C 0 km/h
2205 25-02-2010 17:52:01 10.9 C 4.87 g/m*3 10.9 C 0 km/h
2206 25-02-2010 18:04:02 10.5 C 5.14 g/m*3 10.5 C 0 km/h
2207 25-02-2010 18:16:01 9.7 C 5.35 g/m*3 9.7 C 0 km/h
2208 25-02-2010 18:28:01 9.3 C 5.93 g/m*3 9.3 C 0 km/h
2209 25-02-2010 18:40:02 8.9 C 6.22 g/m*3 8.9 C 0 km/h
2210 25-02-2010 18:52:02 8.8 C 6.53 g/m*3 8.8 C 0 km/h
2211 25-02-2010 19:04:01 8.5 C 6.57 g/m*3 8.5 C 0 km/h
2212 25-02-2010 19:16:01 8.6 C 6.79 g/m*3 8.6 C 0 km/h
2213 25-02-2010 19:28:01 8.5 C 6.83 g/m*3 8.5 C 0 km/h
2214 25-02-2010 19:40:02 8.4 C 6.87 g/m*3 8.4 C 0 km/h
2215 25-02-2010 19:52:01 8.5 C 6.83 g/m*3 8.5 C 0 km/h
2216 25-02-2010 20:04:02 8.6 C 6.79 g/m*3 8.6 C 0 km/h
2217 25-02-2010 20:16:01 8.6 C 6.7 g/m*3 8.6 C 0 km/h
2218 25-02-2010 20:28:01 8.6 C 6.7 g/m*3 8.6 C 0 km/h
2219 25-02-2010 20:40:02 8.7 C 6.66 g/m*3 8.7 C 0 km/h
2220 25-02-2010 20:52:01 8.8 C 6.61 g/m*3 8.8 C 0 km/h
2221 25-02-2010 21:04:02 8.9 C 6.66 g/m*3 8.9 C 0 km/h
2222 25-02-2010 21:16:01 9 C 6.52 g/m*3 9 C 0 km/h
2223 25-02-2010 21:28:01 9.2 C 6.61 g/m*3 9.2 C 0 km/h
2224 25-02-2010 21:40:02 9.2 C 6.52 g/m*3 9.2 C 0 km/h
2225 25-02-2010 21:52:01 9.2 C 6.52 g/m*3 9.2 C 0 km/h
Sensor: Nr:Datum:Temp:Abs-Feuchte:Windchill:Wind:
Aussen-T/F 2226 25-02-2010 22:04:01 9.1 C 6.57 g/m*3 9.1 C 0 km/h
2227 25-02-2010 22:16:01 9.1 C 6.65 g/m*3 9.1 C 0 km/h
2228 25-02-2010 22:28:01 9.2 C 6.61 g/m*3 9.2 C 0 km/h
2229 25-02-2010 22:40:01 9.3 C 6.65 g/m*3 9.3 C 0 km/h
2230 25-02-2010 22:52:02 9.2 C 6.61 g/m*3 9.2 C 0 km/h
2231 25-02-2010 23:04:01 9.2 C 6.7 g/m*3 9.2 C 0 km/h
2232 25-02-2010 23:16:01 9.5 C 6.83 g/m*3 9.5 C 0 km/h
2233 25-02-2010 23:28:01 9.4 C 6.78 g/m*3 9.4 C 0 km/h
2234 25-02-2010 23:40:02 9.3 C 6.74 g/m*3 9.3 C 0 km/h
2235 25-02-2010 23:52:01 9.4 C 6.78 g/m*3 9.4 C 0 km/h
2236 26-02-2010 00:04:02 9.3 C 6.83 g/m*3 9.3 C 0 km/h
2237 26-02-2010 00:16:01 9.4 C 6.87 g/m*3 9.4 C 0 km/h
2238 26-02-2010 00:28:01 9.4 C 6.87 g/m*3 9.4 C 0 km/h
2239 26-02-2010 00:40:02 9.3 C 6.83 g/m*3 9.3 C 0 km/h
2240 26-02-2010 00:52:01 9.3 C 6.92 g/m*3 9.3 C 0 km/h
2241 26-02-2010 01:04:02 9.4 C 6.96 g/m*3 9.4 C 0 km/h
2242 26-02-2010 01:16:01 9.5 C 7.01 g/m*3 9.5 C 0 km/h
2243 26-02-2010 01:28:01 9.4 C 6.96 g/m*3 9.4 C 0 km/h
2244 26-02-2010 01:40:01 9.6 C 7.05 g/m*3 9.6 C 0 km/h
2245 26-02-2010 01:52:01 9.6 C 6.96 g/m*3 9.6 C 0 km/h
2246 26-02-2010 02:04:01 9.8 C 7.05 g/m*3 9.8 C 0 km/h
2247 26-02-2010 02:16:01 9.8 C 7.05 g/m*3 9.8 C 0 km/h
2248 26-02-2010 02:28:01 9.7 C 7.01 g/m*3 9.7 C 0 km/h
2249 26-02-2010 02:40:01 9.8 C 7.05 g/m*3 9.8 C 0 km/h
2250 26-02-2010 02:53:06 9.8 C 7.05 g/m*3 9.8 C 0 km/h
Sensor: Nr:Datum:Temp:Abs-Feuchte:Windchill:Wind:
Aussen-T/F 2251 26-02-2010 03:05:06 9.8 C 7.05 g/m*3 9.8 C 0 km/h
2252 26-02-2010 03:17:06 10 C 6.95 g/m*3 10 C 0 km/h
2253 26-02-2010 03:29:06 9.9 C 7 g/m*3 9.9 C 0 km/h
2254 26-02-2010 03:41:02 9.9 C 6.91 g/m*3 9.9 C 0 km/h
2255 26-02-2010 03:53:02 9.7 C 6.82 g/m*3 9.7 C 0 km/h
2256 26-02-2010 04:05:03 9.5 C 6.83 g/m*3 9.5 C 0 km/h
2257 26-02-2010 04:17:02 9.5 C 6.83 g/m*3 9.5 C 0 km/h
2258 26-02-2010 04:29:02 9.5 C 6.83 g/m*3 9.5 C 0 km/h
2259 26-02-2010 04:41:02 9.7 C 6.73 g/m*3 9.7 C 0 km/h
2260 26-02-2010 04:53:01 9.5 C 6.64 g/m*3 9.5 C 0 km/h
2261 26-02-2010 05:05:02 9.4 C 6.51 g/m*3 9.4 C 0 km/h
2262 26-02-2010 05:17:01 9.4 C 6.42 g/m*3 9.4 C 0 km/h
2263 26-02-2010 05:29:01 9.6 C 6.32 g/m*3 9.6 C 0 km/h
2264 26-02-2010 05:41:02 9.2 C 6.34 g/m*3 9.2 C 0 km/h
2265 26-02-2010 05:53:01 9.1 C 6.3 g/m*3 9.1 C 0 km/h
2266 26-02-2010 06:05:02 8.8 C 6.27 g/m*3 8.8 C 0 km/h
2267 26-02-2010 06:17:01 9 C 6.26 g/m*3 9 C 0 km/h
2268 26-02-2010 06:29:01 9.1 C 6.21 g/m*3 9.1 C 0 km/h
2269 26-02-2010 06:41:02 9.2 C 6.07 g/m*3 9.2 C 0 km/h
2270 26-02-2010 06:53:01 9.4 C 6.15 g/m*3 9.4 C 0 km/h
2271 26-02-2010 07:05:02 9.1 C 6.03 g/m*3 9.1 C 0 km/h
2272 26-02-2010 07:17:02 8.9 C 6.31 g/m*3 8.9 C 0 km/h
2273 26-02-2010 07:29:02 9 C 6.26 g/m*3 9 C 0 km/h
2274 26-02-2010 07:41:02 9.2 C 6.07 g/m*3 9.2 C 0 km/h
2275 26-02-2010 07:53:02 9.5 C 5.92 g/m*3 9.5 C 0 km/h
Sensor: Nr:Datum:Temp:Abs-Feuchte:Windchill:Wind:
Aussen-T/F 2276 26-02-2010 08:05:02 9.6 C 5.77 g/m*3 9.6 C 0 km/h
2277 26-02-2010 08:17:02 9.6 C 5.68 g/m*3 9.6 C 0 km/h
2278 26-02-2010 08:29:02 9.8 C 5.57 g/m*3 9.8 C 0 km/h
2279 26-02-2010 08:41:02 9.7 C 5.72 g/m*3 9.7 C 0 km/h
2280 26-02-2010 08:53:02 9.8 C 5.66 g/m*3 9.8 C 0 km/h
2281 26-02-2010 09:05:02 10.2 C 5.52 g/m*3 10.2 C 0 km/h
2282 26-02-2010 09:17:02 10.2 C 5.42 g/m*3 10.2 C 0 km/h
2283 26-02-2010 09:29:02 10.1 C 5.58 g/m*3 10.1 C 0 km/h
2284 26-02-2010 09:41:02 10.1 C 5.39 g/m*3 10.1 C 0 km/h
2285 26-02-2010 09:53:02 10.5 C 5.33 g/m*3 10.5 C 0 km/h
2286 26-02-2010 10:05:02 9.8 C 5.66 g/m*3 9.8 C 0 km/h
2287 26-02-2010 10:17:02 9.5 C 5.92 g/m*3 9.5 C 0 km/h
2288 26-02-2010 10:29:02 9.9 C 5.88 g/m*3 9.9 C 0 km/h
2289 26-02-2010 10:41:02 10.1 C 5.48 g/m*3 10.1 C 0 km/h
2290 26-02-2010 10:53:02 10.3 C 5.36 g/m*3 10.3 C 0 km/h
2291 26-02-2010 11:05:02 10.6 C 5.47 g/m*3 10.6 C 0 km/h
2292 26-02-2010 11:17:03 10.8 C 5.34 g/m*3 10.8 C 0 km/h
2293 26-02-2010 11:29:03 11 C 5.2 g/m*3 11 C 0 km/h
2294 26-02-2010 11:41:02 11.2 C 5.17 g/m*3 11.2 C 0 km/h
2295 26-02-2010 11:53:02 10.2 C 5.52 g/m*3 10.2 C 0 km/h
2296 26-02-2010 12:05:02 9.7 C 5.72 g/m*3 9.7 C 0 km/h
2297 26-02-2010 12:17:02 10 C 5.64 g/m*3 10 C 0 km/h
2298 26-02-2010 12:29:02 10.8 C 5.73 g/m*3 10.8 C 0 km/h
2299 26-02-2010 12:41:02 10.8 C 5.44 g/m*3 10.8 C 0 km/h
2300 26-02-2010 12:53:02 10.3 C 5.84 g/m*3 10.3 C 0 km/h
Sensor: Nr:Datum:Temp:Abs-Feuchte:Windchill:Wind:
Aussen-T/F 2301 26-02-2010 13:05:02 10.4 C 5.78 g/m*3 10.4 C 0 km/h
2302 26-02-2010 13:17:03 10.7 C 5.6 g/m*3 10.7 C 0 km/h
2303 26-02-2010 13:29:03 11.4 C 5.44 g/m*3 11.4 C 0 km/h
2304 26-02-2010 13:41:02 11.1 C 5.24 g/m*3 11.1 C 0 km/h
2305 26-02-2010 13:53:01 10.9 C 5.07 g/m*3 10.9 C 0 km/h
2306 26-02-2010 14:05:01 11.1 C 5.34 g/m*3 11.1 C 0 km/h
2307 26-02-2010 14:17:02 10.8 C 5.14 g/m*3 10.8 C 0 km/h
2308 26-02-2010 14:29:02 10.6 C 5.17 g/m*3 10.6 C 0 km/h
2309 26-02-2010 14:41:02 10.1 C 5.01 g/m*3 10.1 C 0 km/h
2310 26-02-2010 14:53:03 9.4 C 5.25 g/m*3 9.4 C 0 km/h
2311 26-02-2010 15:05:03 9.2 C 5.36 g/m*3 9.2 C 0 km/h
2312 26-02-2010 15:17:02 8.9 C 5.26 g/m*3 8.9 C 0 km/h
2313 26-02-2010 15:29:03 8.7 C 5.28 g/m*3 8.7 C 0 km/h
2314 26-02-2010 15:41:02 8.4 C 5.34 g/m*3 8.4 C 0 km/h
2315 26-02-2010 15:53:02 8.3 C 4.89 g/m*3 8.3 C 0 km/h
2316 26-02-2010 16:05:02 8.2 C 4.69 g/m*3 8.2 C 0 km/h
2317 26-02-2010 16:17:02 8 C 4.3 g/m*3 8 C 0 km/h
2318 26-02-2010 16:29:02 7.9 C 4.19 g/m*3 7.9 C 0 km/h
2319 26-02-2010 16:41:04 7.9 C 4.02 g/m*3 7.9 C 0 km/h
2320 26-02-2010 16:53:02 7.9 C 4.11 g/m*3 7.9 C 0 km/h
2321 26-02-2010 17:05:01 8.1 C 4.08 g/m*3 8.1 C 0 km/h
2322 26-02-2010 17:17:02 8 C 4.05 g/m*3 8 C 0 km/h
2323 26-02-2010 17:29:02 7.9 C 4.11 g/m*3 7.9 C 0 km/h
2324 26-02-2010 17:41:02 7.8 C 4.16 g/m*3 7.8 C 0 km/h
2325 26-02-2010 17:53:02 7.7 C 4.22 g/m*3 7.7 C 0 km/h
Sensor: Nr:Datum:Temp:Abs-Feuchte:Windchill:Wind:
Aussen-T/F 2326 26-02-2010 18:05:02 7.6 C 4.27 g/m*3 7.6 C 0 km/h
2327 26-02-2010 18:17:01 7.3 C 4.42 g/m*3 7.3 C 0 km/h
2328 26-02-2010 18:29:01 6.6 C 4.76 g/m*3 6.6 C 0 km/h
2329 26-02-2010 18:41:02 6.3 C 4.44 g/m*3 6.3 C 0 km/h
2330 26-02-2010 18:53:02 6.3 C 4.22 g/m*3 6.3 C 0 km/h
2331 26-02-2010 19:05:02 6.5 C 4.2 g/m*3 6.5 C 0 km/h
2332 26-02-2010 19:17:02 6.3 C 4.29 g/m*3 6.3 C 0 km/h
2333 26-02-2010 19:29:02 5.8 C 4.3 g/m*3 5.8 C 0 km/h
2334 26-02-2010 19:41:04 5.8 C 4.01 g/m*3 5.8 C 0 km/h
2335 26-02-2010 19:53:04 5.8 C 3.94 g/m*3 5.8 C 0 km/h
2336 26-02-2010 20:05:02 5.9 C 4.04 g/m*3 5.9 C 0 km/h
2337 26-02-2010 20:17:02 6 C 4.14 g/m*3 6 C 0 km/h
2338 26-02-2010 20:29:02 5.9 C 4.18 g/m*3 5.9 C 0 km/h
2339 26-02-2010 20:41:03 6 C 3.92 g/m*3 6 C 0 km/h
2340 26-02-2010 20:53:02 5.9 C 3.89 g/m*3 5.9 C 0 km/h
2341 26-02-2010 21:05:02 5.8 C 3.94 g/m*3 5.8 C 0 km/h
2342 26-02-2010 21:17:03 5.6 C 4.03 g/m*3 5.6 C 0 km/h
2343 26-02-2010 21:29:03 5.5 C 4 g/m*3 5.5 C 0 km/h
2344 26-02-2010 21:41:02 5.6 C 3.89 g/m*3 5.6 C 0 km/h
2345 26-02-2010 21:53:03 5.7 C 3.91 g/m*3 5.7 C 0 km/h
2346 26-02-2010 22:05:02 5.5 C 3.86 g/m*3 5.5 C 0 km/h
2347 26-02-2010 22:17:03 5.4 C 3.84 g/m*3 5.4 C 0 km/h
2348 26-02-2010 22:29:03 5.3 C 3.81 g/m*3 5.3 C 0 km/h
2349 26-02-2010 22:42:04 5.2 C 3.65 g/m*3 5.2 C 0 km/h
2350 26-02-2010 22:54:04 5.1 C 3.69 g/m*3 5.1 C 0 km/h
Sensor: Nr:Datum:Temp:Abs-Feuchte:Windchill:Wind:
Aussen-T/F 2351 26-02-2010 23:06:04 5.1 C 3.63 g/m*3 5.1 C 0 km/h
2352 26-02-2010 23:18:04 5.1 C 3.63 g/m*3 5.1 C 0 km/h
2353 26-02-2010 23:30:04 4.9 C 3.71 g/m*3 4.9 C 0 km/h
2354 26-02-2010 23:42:04 4.7 C 3.66 g/m*3 4.7 C 0 km/h
2355 26-02-2010 23:54:05 4.7 C 3.6 g/m*3 4.7 C 0 km/h
2356 27-02-2010 00:06:05 4.5 C 3.62 g/m*3 4.5 C 0 km/h
2357 27-02-2010 00:18:05 4.4 C 3.59 g/m*3 4.4 C 0 km/h
2358 27-02-2010 00:30:05 4.4 C 3.59 g/m*3 4.4 C 0 km/h
2359 27-02-2010 00:42:05 4.3 C 3.57 g/m*3 4.3 C 0 km/h
2360 27-02-2010 00:54:05 4.1 C 3.58 g/m*3 4.1 C 0 km/h
2361 27-02-2010 01:06:05 3.8 C 3.64 g/m*3 3.8 C 0 km/h
2362 27-02-2010 01:18:05 3.9 C 3.73 g/m*3 3.9 C 0 km/h
2363 27-02-2010 01:30:05 4 C 3.62 g/m*3 4 C 0 km/h
2364 27-02-2010 01:42:05 4.1 C 3.58 g/m*3 4.1 C 0 km/h
2365 27-02-2010 01:54:05 3.7 C 3.68 g/m*3 3.7 C 0 km/h
2366 27-02-2010 02:06:05 3.2 C 3.74 g/m*3 3.2 C 0 km/h
2367 27-02-2010 02:18:05 2.8 C 3.75 g/m*3 2.8 C 0 km/h
2368 27-02-2010 02:30:05 3.1 C 3.77 g/m*3 3.1 C 0 km/h
2369 27-02-2010 02:42:05 3.1 C 3.77 g/m*3 3.1 C 0 km/h
2370 27-02-2010 02:54:05 3.2 C 3.74 g/m*3 3.2 C 0 km/h
2371 27-02-2010 03:06:05 3.3 C 3.76 g/m*3 3.3 C 0 km/h
2372 27-02-2010 03:18:05 3.5 C 3.69 g/m*3 3.5 C 0 km/h
2373 27-02-2010 03:30:05 3.7 C 3.74 g/m*3 3.7 C 0 km/h
2374 27-02-2010 03:42:05 3.6 C 3.78 g/m*3 3.6 C 0 km/h
2375 27-02-2010 03:54:05 3.5 C 3.81 g/m*3 3.5 C 0 km/h
Sensor: Nr:Datum:Temp:Abs-Feuchte:Windchill:Wind:
Aussen-T/F 2376 27-02-2010 04:06:06 3.4 C 3.79 g/m*3 3.4 C 0 km/h
2377 27-02-2010 04:18:06 3.3 C 3.88 g/m*3 3.3 C 0 km/h
2378 27-02-2010 04:30:06 3.4 C 3.97 g/m*3 3.4 C 0 km/h
2379 27-02-2010 04:42:06 3.6 C 4.09 g/m*3 3.6 C 0 km/h
2380 27-02-2010 04:54:06 4.1 C 4.16 g/m*3 4.1 C 0 km/h
2381 27-02-2010 05:06:06 4 C 4.07 g/m*3 4 C 0 km/h
2382 27-02-2010 05:18:06 3.9 C 4.17 g/m*3 3.9 C 0 km/h
2383 27-02-2010 05:30:06 3.9 C 4.23 g/m*3 3.9 C 0 km/h
2384 27-02-2010 05:42:06 3.8 C 4.2 g/m*3 3.8 C 0 km/h
2385 27-02-2010 05:54:06 3.6 C 4.21 g/m*3 3.6 C 0 km/h
2386 27-02-2010 06:06:06 4 C 4.26 g/m*3 4 C 0 km/h
2387 27-02-2010 06:18:06 4.3 C 4.28 g/m*3 4.3 C 0 km/h
2388 27-02-2010 06:30:06 4.3 C 4.22 g/m*3 4.3 C 0 km/h
2389 27-02-2010 06:42:06 4.4 C 4.31 g/m*3 4.4 C 0 km/h
2390 27-02-2010 06:54:06 4.6 C 4.37 g/m*3 4.6 C 0 km/h
2391 27-02-2010 07:06:06 4.4 C 4.31 g/m*3 4.4 C 0 km/h
2392 27-02-2010 07:18:06 4.7 C 4.46 g/m*3 4.7 C 0 km/h
2393 27-02-2010 07:30:06 4.8 C 4.49 g/m*3 4.8 C 0 km/h
2394 27-02-2010 07:42:06 5.2 C 4.54 g/m*3 5.2 C 0 km/h
2395 27-02-2010 07:54:06 5.3 C 4.57 g/m*3 5.3 C 0 km/h
2396 27-02-2010 08:06:07 5.4 C 4.6 g/m*3 5.4 C 0 km/h
2397 27-02-2010 08:18:07 5.6 C 4.67 g/m*3 5.6 C 0 km/h
2398 27-02-2010 08:30:07 5.8 C 4.66 g/m*3 5.8 C 0 km/h
2399 27-02-2010 08:42:03 6.4 C 4.62 g/m*3 6.4 C 0 km/h
2400 27-02-2010 08:54:01 6.5 C 4.57 g/m*3 6.5 C 0 km/h
Sensor: Nr:Datum:Temp:Abs-Feuchte:Windchill:Wind:
Aussen-T/F 2401 27-02-2010 09:06:02 6.6 C 4.6 g/m*3 6.6 C 0 km/h
2402 27-02-2010 09:18:02 6.8 C 4.59 g/m*3 6.8 C 0 km/h
2403 27-02-2010 09:30:02 7 C 4.49 g/m*3 7 C 0 km/h
2404 27-02-2010 09:42:01 7.1 C 4.45 g/m*3 7.1 C 0 km/h
2405 27-02-2010 09:54:02 7.3 C 4.5 g/m*3 7.3 C 0 km/h
2406 27-02-2010 10:06:01 7.5 C 4.48 g/m*3 7.5 C 0 km/h
2407 27-02-2010 10:18:02 7.6 C 4.43 g/m*3 7.6 C 0 km/h
2408 27-02-2010 10:30:02 8.1 C 4.49 g/m*3 8.1 C 0 km/h
2409 27-02-2010 10:42:01 8.7 C 4.58 g/m*3 8.7 C 0 km/h
2410 27-02-2010 10:54:03 8.6 C 4.55 g/m*3 8.6 C 0 km/h
2411 27-02-2010 11:06:02 8.7 C 4.5 g/m*3 8.7 C 0 km/h
2412 27-02-2010 11:18:02 9.1 C 4.53 g/m*3 9.1 C 0 km/h
2413 27-02-2010 11:30:03 9.3 C 4.49 g/m*3 9.3 C 0 km/h
2414 27-02-2010 11:42:02 9.3 C 4.31 g/m*3 9.3 C 0 km/h
2415 27-02-2010 11:54:02 9.3 C 4.31 g/m*3 9.3 C 0 km/h
2416 27-02-2010 12:06:02 9.4 C 4.34 g/m*3 9.4 C 0 km/h
2417 27-02-2010 12:18:02 9.8 C 4.36 g/m*3 9.8 C 0 km/h
2418 27-02-2010 12:30:02 10.1 C 4.35 g/m*3 10.1 C 0 km/h
2419 27-02-2010 12:42:02 10.8 C 4.35 g/m*3 10.8 C 0 km/h
2420 27-02-2010 12:54:02 11.2 C 4.16 g/m*3 11.2 C 0 km/h
2421 27-02-2010 13:06:01 11.8 C 4.1 g/m*3 11.8 C 0 km/h
2422 27-02-2010 13:18:01 11.8 C 3.68 g/m*3 11.8 C 0 km/h
2423 27-02-2010 13:30:01 12.3 C 3.58 g/m*3 12.3 C 0 km/h
2424 27-02-2010 13:42:02 12.9 C 3.49 g/m*3 12.9 C 0 km/h
2425 27-02-2010 13:54:02 12.9 C 3.38 g/m*3 12.9 C 0 km/h
Sensor: Nr:Datum:Temp:Abs-Feuchte:Windchill:Wind:
Aussen-T/F 2426 27-02-2010 14:06:02 13.4 C 3.49 g/m*3 13.4 C 0 km/h
2427 27-02-2010 14:18:02 14.2 C 3.42 g/m*3 14.2 C 0 km/h
2428 27-02-2010 14:30:02 14.5 C 3.23 g/m*3 14.5 C 0 km/h
2429 27-02-2010 14:42:02 14.8 C 3.17 g/m*3 14.8 C 0 km/h
2430 27-02-2010 14:54:01 14.9 C 2.8 g/m*3 14.9 C 0 km/h
2431 27-02-2010 15:06:02 14.8 C 2.79 g/m*3 14.8 C 0 km/h
2432 27-02-2010 15:18:01 15.5 C 2.78 g/m*3 15.5 C 0 km/h
2433 27-02-2010 15:30:01 15.9 C 2.84 g/m*3 15.9 C 0 km/h
2434 27-02-2010 15:42:02 15.6 C 2.93 g/m*3 15.6 C 0 km/h
2435 27-02-2010 15:54:02 15.7 C 3.08 g/m*3 15.7 C 0 km/h
2436 27-02-2010 16:06:02 15.7 C 2.81 g/m*3 15.7 C 0 km/h
2437 27-02-2010 16:18:01 14.8 C 2.66 g/m*3 14.8 C 0 km/h
2438 27-02-2010 16:30:01 15 C 2.56 g/m*3 15 C 0 km/h
2439 27-02-2010 16:42:02 14.3 C 2.46 g/m*3 14.3 C 0 km/h
2440 27-02-2010 16:54:02 14.6 C 2.5 g/m*3 14.6 C 0 km/h
2441 27-02-2010 17:06:02 15.7 C 2.68 g/m*3 15.7 C 0 km/h
2442 27-02-2010 17:18:02 14.4 C 2.47 g/m*3 14.4 C 0 km/h
2443 27-02-2010 17:30:02 13.5 C 2.57 g/m*3 13.5 C 0 km/h
2444 27-02-2010 17:42:02 12.9 C 3.38 g/m*3 12.9 C 0 km/h
2445 27-02-2010 17:54:02 11.7 C 3.66 g/m*3 11.7 C 0 km/h
2446 27-02-2010 18:06:02 11 C 3.7 g/m*3 11 C 0 km/h
2447 27-02-2010 18:18:03 10.5 C 3.88 g/m*3 10.5 C 0 km/h
2448 27-02-2010 18:30:03 10.2 C 3.81 g/m*3 10.2 C 0 km/h
2449 27-02-2010 18:42:02 10 C 3.95 g/m*3 10 C 0 km/h
2450 27-02-2010 18:54:02 9.9 C 4.2 g/m*3 9.9 C 0 km/h
Sensor: Nr:Datum:Temp:Abs-Feuchte:Windchill:Wind:
Aussen-T/F 2451 27-02-2010 19:06:02 9.8 C 4.27 g/m*3 9.8 C 0 km/h
2452 27-02-2010 19:18:02 10 C 4.23 g/m*3 10 C 0 km/h
2453 27-02-2010 19:30:02 10 C 4.23 g/m*3 10 C 0 km/h
2454 27-02-2010 19:42:02 9.8 C 4.18 g/m*3 9.8 C 0 km/h
2455 27-02-2010 19:54:02 9.8 C 4.18 g/m*3 9.8 C 0 km/h
2456 27-02-2010 20:06:02 10 C 4.13 g/m*3 10 C 0 km/h
2457 27-02-2010 20:18:02 9.9 C 4.2 g/m*3 9.9 C 0 km/h
2458 27-02-2010 20:30:02 9.7 C 4.15 g/m*3 9.7 C 0 km/h
2459 27-02-2010 20:42:02 9.9 C 4.01 g/m*3 9.9 C 0 km/h
2460 27-02-2010 20:54:02 9.8 C 4.18 g/m*3 9.8 C 0 km/h
2461 27-02-2010 21:06:01 9.6 C 3.94 g/m*3 9.6 C 0 km/h
2462 27-02-2010 21:18:02 9.6 C 3.94 g/m*3 9.6 C 0 km/h
2463 27-02-2010 21:30:02 9.6 C 3.94 g/m*3 9.6 C 0 km/h
2464 27-02-2010 21:42:01 9.7 C 3.69 g/m*3 9.7 C 0 km/h
2465 27-02-2010 21:54:03 9.6 C 3.66 g/m*3 9.6 C 0 km/h
2466 27-02-2010 22:06:03 9.7 C 3.78 g/m*3 9.7 C 0 km/h
2467 27-02-2010 22:18:02 9.8 C 3.71 g/m*3 9.8 C 0 km/h
2468 27-02-2010 22:30:02 9.8 C 3.71 g/m*3 9.8 C 0 km/h
2469 27-02-2010 22:43:02 9.9 C 3.64 g/m*3 9.9 C 0 km/h
2470 27-02-2010 22:55:02 9.8 C 3.71 g/m*3 9.8 C 0 km/h
2471 27-02-2010 23:07:02 9.8 C 3.71 g/m*3 9.8 C 0 km/h
2472 27-02-2010 23:19:02 9.7 C 3.69 g/m*3 9.7 C 0 km/h
2473 27-02-2010 23:31:02 9.6 C 3.66 g/m*3 9.6 C 0 km/h
2474 27-02-2010 23:43:03 9.6 C 3.76 g/m*3 9.6 C 0 km/h
2475 27-02-2010 23:55:03 9.4 C 3.8 g/m*3 9.4 C 0 km/h
Sensor: Nr:Datum:Temp:Abs-Feuchte:Windchill:Wind:
Aussen-T/F 2476 28-02-2010 00:07:03 9.3 C 3.77 g/m*3 9.3 C 0 km/h
2477 28-02-2010 00:19:03 8.9 C 4.2 g/m*3 8.9 C 0 km/h
2478 28-02-2010 00:31:03 8.6 C 4.04 g/m*3 8.6 C 0 km/h
2479 28-02-2010 00:43:03 8.5 C 4.44 g/m*3 8.5 C 0 km/h
2480 28-02-2010 00:55:03 7.3 C 4.98 g/m*3 7.3 C 0 km/h
2481 28-02-2010 01:07:03 6.9 C 5.54 g/m*3 6.9 C 0 km/h
2482 28-02-2010 01:19:03 6.6 C 5.59 g/m*3 6.6 C 0 km/h
2483 28-02-2010 01:31:03 6.4 C 5.74 g/m*3 6.4 C 0 km/h
2484 28-02-2010 01:43:03 6.4 C 5.89 g/m*3 6.4 C 0 km/h
2485 28-02-2010 01:55:03 6.2 C 5.88 g/m*3 6.2 C 0 km/h
2486 28-02-2010 02:07:03 6.2 C 6.03 g/m*3 6.2 C 0 km/h
2487 28-02-2010 02:19:03 6.2 C 6.1 g/m*3 6.2 C 0 km/h
2488 28-02-2010 02:31:03 5.9 C 6.06 g/m*3 5.9 C 0 km/h
2489 28-02-2010 02:43:03 5.9 C 6.13 g/m*3 5.9 C 0 km/h
2490 28-02-2010 02:55:03 5.8 C 6.09 g/m*3 5.8 C 0 km/h
2491 28-02-2010 03:07:03 5.8 C 6.16 g/m*3 5.8 C 0 km/h
2492 28-02-2010 03:19:03 5.7 C 6.12 g/m*3 5.7 C 0 km/h
2493 28-02-2010 03:31:03 5.7 C 6.12 g/m*3 5.7 C 0 km/h
2494 28-02-2010 03:43:03 5.7 C 6.12 g/m*3 5.7 C 0 km/h
2495 28-02-2010 03:55:04 5.8 C 6.09 g/m*3 5.8 C 0 km/h
2496 28-02-2010 04:07:04 5.9 C 6.13 g/m*3 5.9 C 0 km/h
2497 28-02-2010 04:19:04 6 C 6.17 g/m*3 6 C 0 km/h
2498 28-02-2010 04:31:04 6.3 C 6.29 g/m*3 6.3 C 0 km/h
2499 28-02-2010 04:43:04 6.3 C 6.37 g/m*3 6.3 C 0 km/h
2500 28-02-2010 04:55:04 6.1 C 6.28 g/m*3 6.1 C 0 km/h
Sensor: Nr:Datum:Temp:Abs-Feuchte:Windchill:Wind:
Aussen-T/F 2501 28-02-2010 05:07:04 6.1 C 6.36 g/m*3 6.1 C 0 km/h
2502 28-02-2010 05:19:04 6.3 C 6.44 g/m*3 6.3 C 0 km/h
2503 28-02-2010 05:31:04 6.3 C 6.44 g/m*3 6.3 C 0 km/h
2504 28-02-2010 05:43:04 6.3 C 6.44 g/m*3 6.3 C 0 km/h
2505 28-02-2010 05:55:04 6.3 C 6.44 g/m*3 6.3 C 0 km/h
2506 28-02-2010 06:07:04 6.1 C 6.43 g/m*3 6.1 C 0 km/h
2507 28-02-2010 06:19:04 6.3 C 6.51 g/m*3 6.3 C 0 km/h
2508 28-02-2010 06:31:04 6.2 C 6.47 g/m*3 6.2 C 0 km/h
2509 28-02-2010 06:43:04 6.1 C 6.5 g/m*3 6.1 C 0 km/h
2510 28-02-2010 06:55:04 6.1 C 6.5 g/m*3 6.1 C 0 km/h
2511 28-02-2010 07:07:04 6.3 C 6.66 g/m*3 6.3 C 0 km/h
2512 28-02-2010 07:19:04 6.3 C 6.66 g/m*3 6.3 C 0 km/h
2513 28-02-2010 07:31:04 6.2 C 6.69 g/m*3 6.2 C 0 km/h
2514 28-02-2010 07:43:04 6.3 C 6.74 g/m*3 6.3 C 0 km/h
2515 28-02-2010 07:55:04 6.4 C 6.85 g/m*3 6.4 C 0 km/h
2516 28-02-2010 08:07:01 6.5 C 6.9 g/m*3 6.5 C 0 km/h
2517 28-02-2010 08:19:02 6.7 C 7.07 g/m*3 6.7 C 0 km/h
2518 28-02-2010 08:31:02 6.9 C 7.16 g/m*3 6.9 C 0 km/h
2519 28-02-2010 08:43:02 7 C 7.13 g/m*3 7 C 0 km/h
2520 28-02-2010 08:55:01 7.3 C 7.35 g/m*3 7.3 C 0 km/h
2521 28-02-2010 09:07:02 7.9 C 7.47 g/m*3 7.9 C 0 km/h
2522 28-02-2010 09:19:02 8.2 C 7.2 g/m*3 8.2 C 0 km/h
2523 28-02-2010 09:31:01 8.5 C 7.09 g/m*3 8.5 C 0 km/h
2524 28-02-2010 09:43:01 8.8 C 6.96 g/m*3 8.8 C 0 km/h
2525 28-02-2010 09:55:01 8.8 C 6.88 g/m*3 8.8 C 0 km/h
Sensor: Nr:Datum:Temp:Abs-Feuchte:Windchill:Wind:
Aussen-T/F 2526 28-02-2010 10:07:02 8.9 C 6.75 g/m*3 8.9 C 0 km/h
2527 28-02-2010 10:19:02 9.3 C 6.65 g/m*3 9.3 C 0 km/h
2528 28-02-2010 10:31:01 9.6 C 6.69 g/m*3 9.6 C 0 km/h
2529 28-02-2010 10:43:01 9.8 C 6.87 g/m*3 9.8 C 0 km/h
2530 28-02-2010 10:55:01 10.2 C 6.66 g/m*3 10.2 C 0 km/h
2531 28-02-2010 11:07:02 10.7 C 6.78 g/m*3 10.7 C 0 km/h
2532 28-02-2010 11:19:02 12.3 C 5.97 g/m*3 12.3 C 0 km/h
2533 28-02-2010 11:31:01 13.2 C 5.28 g/m*3 13.2 C 0 km/h
2534 28-02-2010 11:43:01 13 C 5.22 g/m*3 13 C 0 km/h
2535 28-02-2010 11:55:01 13 C 4.65 g/m*3 13 C 0 km/h
2536 28-02-2010 12:07:01 13 C 4.65 g/m*3 13 C 0 km/h
2537 28-02-2010 12:19:02 12.7 C 4.56 g/m*3 12.7 C 0 km/h
2538 28-02-2010 12:31:01 13 C 4.31 g/m*3 13 C 0 km/h
2539 28-02-2010 12:43:01 12.6 C 4.54 g/m*3 12.6 C 0 km/h
2540 28-02-2010 12:55:02 12.5 C 4.29 g/m*3 12.5 C 0 km/h
2541 28-02-2010 13:07:01 12.5 C 4.18 g/m*3 12.5 C 0 km/h
2542 28-02-2010 13:19:02 12.2 C 4.1 g/m*3 12.2 C 0 km/h
2543 28-02-2010 13:31:01 11.9 C 3.92 g/m*3 11.9 C 0 km/h
2544 28-02-2010 13:43:01 11.8 C 3.89 g/m*3 11.8 C 0 km/h
2545 28-02-2010 13:55:02 11.8 C 3.79 g/m*3 11.8 C 0 km/h
2546 28-02-2010 14:07:42 11.6 C 3.64 g/m*3 11.6 C 0 km/h
2547 28-02-2010 14:19:02 11.4 C 3.59 g/m*3 11.4 C 0 km/h
2548 28-02-2010 14:31:02 11.1 C 3.63 g/m*3 11.1 C 0 km/h
2549 28-02-2010 14:43:02 10.7 C 3.83 g/m*3 10.7 C 0 km/h
2550 28-02-2010 14:55:02 10.5 C 3.88 g/m*3 10.5 C 0 km/h
Sensor: Nr:Datum:Temp:Abs-Feuchte:Windchill:Wind:
Aussen-T/F 2551 28-02-2010 15:07:01 10.6 C 3.9 g/m*3 10.6 C 0 km/h
2552 28-02-2010 15:19:02 10.5 C 3.88 g/m*3 10.5 C 0 km/h
2553 28-02-2010 15:31:01 9.7 C 4.52 g/m*3 9.7 C 0 km/h
2554 28-02-2010 15:43:01 10 C 4.51 g/m*3 10 C 0 km/h
2555 28-02-2010 15:55:03 10 C 4.32 g/m*3 10 C 0 km/h
2556 28-02-2010 16:07:02 10 C 4.42 g/m*3 10 C 0 km/h
2557 28-02-2010 16:19:02 9.8 C 4.45 g/m*3 9.8 C 0 km/h
2558 28-02-2010 16:31:02 9.6 C 4.49 g/m*3 9.6 C 0 km/h
2559 28-02-2010 16:43:02 9.5 C 4.64 g/m*3 9.5 C 0 km/h
2560 28-02-2010 16:55:02 9.2 C 4.64 g/m*3 9.2 C 0 km/h
2561 28-02-2010 17:07:02 9.2 C 4.64 g/m*3 9.2 C 0 km/h
2562 28-02-2010 17:19:02 9.2 C 4.64 g/m*3 9.2 C 0 km/h
2563 28-02-2010 17:31:02 9.1 C 4.53 g/m*3 9.1 C 0 km/h
2564 28-02-2010 17:43:02 8.9 C 4.56 g/m*3 8.9 C 0 km/h
2565 28-02-2010 17:55:02 8.7 C 4.76 g/m*3 8.7 C 0 km/h
2566 28-02-2010 18:07:01 8.2 C 5.02 g/m*3 8.2 C 0 km/h
2567 28-02-2010 18:19:02 8.1 C 4.99 g/m*3 8.1 C 0 km/h
2568 28-02-2010 18:31:01 8.2 C 5.02 g/m*3 8.2 C 0 km/h
2569 28-02-2010 18:43:01 8.2 C 4.94 g/m*3 8.2 C 0 km/h
2570 28-02-2010 18:55:03 8 C 5.13 g/m*3 8 C 0 km/h
2571 28-02-2010 19:07:02 7.9 C 5.09 g/m*3 7.9 C 0 km/h
2572 28-02-2010 19:19:03 8 C 4.88 g/m*3 8 C 0 km/h
2573 28-02-2010 19:31:03 8.1 C 4.74 g/m*3 8.1 C 0 km/h
2574 28-02-2010 19:43:03 8 C 4.71 g/m*3 8 C 0 km/h
2575 28-02-2010 19:55:02 8.1 C 4.74 g/m*3 8.1 C 0 km/h
Sensor: Nr:Datum:Temp:Abs-Feuchte:Windchill:Wind:
Aussen-T/F 2576 28-02-2010 20:07:03 8 C 4.71 g/m*3 8 C 0 km/h
2577 28-02-2010 20:19:02 7.8 C 4.9 g/m*3 7.8 C 0 km/h
2578 28-02-2010 20:31:01 7.8 C 4.98 g/m*3 7.8 C 0 km/h
2579 28-02-2010 20:43:01 7.7 C 4.95 g/m*3 7.7 C 0 km/h
2580 28-02-2010 20:55:01 7.8 C 4.73 g/m*3 7.8 C 0 km/h
2581 28-02-2010 21:07:02 7.8 C 4.57 g/m*3 7.8 C 0 km/h
2582 28-02-2010 21:19:02 7.6 C 4.51 g/m*3 7.6 C 0 km/h
2583 28-02-2010 21:31:02 7.5 C 4.56 g/m*3 7.5 C 0 km/h
2584 28-02-2010 21:43:02 7.6 C 4.51 g/m*3 7.6 C 0 km/h
2585 28-02-2010 21:55:02 7.7 C 4.54 g/m*3 7.7 C 0 km/h
2586 28-02-2010 22:08:03 7.6 C 4.51 g/m*3 7.6 C 0 km/h
2587 28-02-2010 22:20:03 7.5 C 4.48 g/m*3 7.5 C 0 km/h
2588 28-02-2010 22:32:03 7.4 C 4.53 g/m*3 7.4 C 0 km/h
2589 28-02-2010 22:44:03 7.1 C 4.68 g/m*3 7.1 C 0 km/h
2590 28-02-2010 22:56:03 7 C 4.65 g/m*3 7 C 0 km/h
2591 28-02-2010 23:08:03 7 C 4.8 g/m*3 7 C 0 km/h
2592 28-02-2010 23:20:03 7 C 4.8 g/m*3 7 C 0 km/h
2593 28-02-2010 23:32:03 6.9 C 4.93 g/m*3 6.9 C 0 km/h
2594 28-02-2010 23:44:03 6.7 C 4.94 g/m*3 6.7 C 0 km/h
2595 28-02-2010 23:56:03 6.6 C 4.98 g/m*3 6.6 C 0 km/h
2596 01-03-2010 00:08:03 6.3 C 4.89 g/m*3 6.3 C 0 km/h
2597 01-03-2010 00:20:04 6.1 C 4.89 g/m*3 6.1 C 0 km/h
2598 01-03-2010 00:32:04 6.2 C 4.85 g/m*3 6.2 C 0 km/h
2599 01-03-2010 00:44:04 6.1 C 4.75 g/m*3 6.1 C 0 km/h
2600 01-03-2010 00:56:04 6.1 C 4.6 g/m*3 6.1 C 0 km/h
Sensor: Nr:Datum:Temp:Abs-Feuchte:Windchill:Wind:
Aussen-T/F 2601 01-03-2010 01:08:04 5.9 C 4.76 g/m*3 5.9 C 0 km/h
2602 01-03-2010 01:20:04 5.7 C 4.7 g/m*3 5.7 C 0 km/h
2603 01-03-2010 01:32:04 5.8 C 4.37 g/m*3 5.8 C 0 km/h
2604 01-03-2010 01:44:04 5.7 C 4.34 g/m*3 5.7 C 0 km/h
2605 01-03-2010 01:56:04 5.8 C 4.23 g/m*3 5.8 C 0 km/h
2606 01-03-2010 02:08:04 5.8 C 4.23 g/m*3 5.8 C 0 km/h
2607 01-03-2010 02:20:04 5.7 C 3.99 g/m*3 5.7 C 0 km/h
2608 01-03-2010 02:32:04 5.6 C 3.96 g/m*3 5.6 C 0 km/h
2609 01-03-2010 02:44:05 5.5 C 3.93 g/m*3 5.5 C 0 km/h
2610 01-03-2010 02:56:05 5.4 C 4.05 g/m*3 5.4 C 0 km/h
2611 01-03-2010 03:08:05 5.3 C 4.09 g/m*3 5.3 C 0 km/h
2612 01-03-2010 03:20:05 5 C 4.14 g/m*3 5 C 0 km/h
2613 01-03-2010 03:32:05 5 C 4.14 g/m*3 5 C 0 km/h
2614 01-03-2010 03:44:05 4.9 C 4.12 g/m*3 4.9 C 0 km/h
2615 01-03-2010 03:56:05 4.8 C 4.09 g/m*3 4.8 C 0 km/h
2616 01-03-2010 04:08:05 4.7 C 4.13 g/m*3 4.7 C 0 km/h
2617 01-03-2010 04:20:05 4.6 C 4.17 g/m*3 4.6 C 0 km/h
2618 01-03-2010 04:32:05 4.6 C 4.23 g/m*3 4.6 C 0 km/h
2619 01-03-2010 04:44:05 4.7 C 4.33 g/m*3 4.7 C 0 km/h
2620 01-03-2010 04:56:05 4.8 C 4.36 g/m*3 4.8 C 0 km/h
2621 01-03-2010 05:08:05 4.4 C 4.7 g/m*3 4.4 C 0 km/h
2622 01-03-2010 05:20:05 4.1 C 4.99 g/m*3 4.1 C 0 km/h
2623 01-03-2010 05:32:05 3.8 C 5.08 g/m*3 3.8 C 0 km/h
2624 01-03-2010 05:44:05 3.5 C 5.04 g/m*3 3.5 C 0 km/h
2625 01-03-2010 05:56:05 3.5 C 5.04 g/m*3 3.5 C 0 km/h
Sensor: Nr:Datum:Temp:Abs-Feuchte:Windchill:Wind:
Aussen-T/F 2626 01-03-2010 06:08:05 3.4 C 5.01 g/m*3 3.4 C 0 km/h
2627 01-03-2010 06:20:05 3.4 C 5.01 g/m*3 3.4 C 0 km/h
2628 01-03-2010 06:32:05 3.6 C 4.89 g/m*3 3.6 C 0 km/h
2629 01-03-2010 06:44:05 3.8 C 4.77 g/m*3 3.8 C 0 km/h
2630 01-03-2010 06:56:05 4 C 4.64 g/m*3 4 C 0 km/h
2631 01-03-2010 07:08:05 4.1 C 4.48 g/m*3 4.1 C 0 km/h
2632 01-03-2010 07:20:03 4.2 C 4.38 g/m*3 4.2 C 0 km/h
2633 01-03-2010 07:32:03 4.2 C 4.12 g/m*3 4.2 C 0 km/h
2634 01-03-2010 07:44:03 4.4 C 3.92 g/m*3 4.4 C 0 km/h
2635 01-03-2010 07:56:02 4.6 C 3.77 g/m*3 4.6 C 0 km/h
2636 01-03-2010 08:08:02 4.6 C 3.71 g/m*3 4.6 C 0 km/h
2637 01-03-2010 08:20:02 4.8 C 3.69 g/m*3 4.8 C 0 km/h
2638 01-03-2010 08:32:02 4.9 C 3.71 g/m*3 4.9 C 0 km/h
2639 01-03-2010 08:44:02 5 C 3.67 g/m*3 5 C 0 km/h
2640 01-03-2010 08:56:01 5.1 C 3.69 g/m*3 5.1 C 0 km/h
2641 01-03-2010 09:08:02 5.2 C 3.86 g/m*3 5.2 C 0 km/h
2642 01-03-2010 09:20:01 5.3 C 4.02 g/m*3 5.3 C 0 km/h
2643 01-03-2010 09:32:02 5.4 C 3.91 g/m*3 5.4 C 0 km/h
2644 01-03-2010 09:44:02 5.6 C 3.96 g/m*3 5.6 C 0 km/h
2645 01-03-2010 09:56:01 5.8 C 4.01 g/m*3 5.8 C 0 km/h
2646 01-03-2010 10:08:02 6 C 3.7 g/m*3 6 C 0 km/h
2647 01-03-2010 10:20:01 6.2 C 3.6 g/m*3 6.2 C 0 km/h
2648 01-03-2010 10:32:02 6.4 C 3.65 g/m*3 6.4 C 0 km/h
2649 01-03-2010 10:44:02 6.3 C 3.48 g/m*3 6.3 C 0 km/h
2650 01-03-2010 10:56:01 6.4 C 3.5 g/m*3 6.4 C 0 km/h
Sensor: Nr:Datum:Temp:Abs-Feuchte:Windchill:Wind:
Aussen-T/F 2651 01-03-2010 11:08:02 6.7 C 3.5 g/m*3 6.7 C 0 km/h
2652 01-03-2010 11:20:02 6.6 C 3.47 g/m*3 6.6 C 0 km/h
2653 01-03-2010 11:32:02 6.3 C 3.41 g/m*3 6.3 C 0 km/h
2654 01-03-2010 11:44:02 6.6 C 3.47 g/m*3 6.6 C 0 km/h
2655 01-03-2010 11:56:01 7 C 3.33 g/m*3 7 C 0 km/h
2656 01-03-2010 12:08:02 7 C 3.33 g/m*3 7 C 0 km/h
2657 01-03-2010 12:20:02 7.2 C 3.3 g/m*3 7.2 C 0 km/h
2658 01-03-2010 12:32:01 7.5 C 3.2 g/m*3 7.5 C 0 km/h
2659 01-03-2010 12:44:01 7.9 C 3.2 g/m*3 7.9 C 0 km/h
2660 01-03-2010 12:56:02 7.8 C 3.18 g/m*3 7.8 C 0 km/h
2661 01-03-2010 13:08:01 7.7 C 3.16 g/m*3 7.7 C 0 km/h
2662 01-03-2010 13:20:02 8 C 3.14 g/m*3 8 C 0 km/h
2663 01-03-2010 13:32:01 8 C 3.06 g/m*3 8 C 0 km/h
2664 01-03-2010 13:44:01 7.8 C 3.02 g/m*3 7.8 C 0 km/h
2665 01-03-2010 13:56:01 7.7 C 3 g/m*3 7.7 C 0 km/h
2666 01-03-2010 14:08:01 7.3 C 3.16 g/m*3 7.3 C 0 km/h
2667 01-03-2010 14:20:01 7.1 C 3.2 g/m*3 7.1 C 0 km/h
2668 01-03-2010 14:32:02 7.6 C 3.22 g/m*3 7.6 C 0 km/h
2669 01-03-2010 14:44:02 7.5 C 3.2 g/m*3 7.5 C 0 km/h
2670 01-03-2010 14:56:02 7.4 C 3.18 g/m*3 7.4 C 0 km/h
2671 01-03-2010 15:08:02 7.3 C 3.24 g/m*3 7.3 C 0 km/h
2672 01-03-2010 15:20:02 7.6 C 3.3 g/m*3 7.6 C 0 km/h
2673 01-03-2010 15:32:02 7.5 C 3.28 g/m*3 7.5 C 0 km/h
2674 01-03-2010 15:44:02 7.4 C 3.1 g/m*3 7.4 C 0 km/h
2675 01-03-2010 15:56:02 7.3 C 3 g/m*3 7.3 C 0 km/h
Sensor: Nr:Datum:Temp:Abs-Feuchte:Windchill:Wind:
Aussen-T/F 2676 01-03-2010 16:08:01 7.3 C 3.08 g/m*3 7.3 C 0 km/h
2677 01-03-2010 16:20:02 7.3 C 3.08 g/m*3 7.3 C 0 km/h
2678 01-03-2010 16:32:02 7.3 C 3.08 g/m*3 7.3 C 0 km/h
2679 01-03-2010 16:44:02 7.3 C 3.08 g/m*3 7.3 C 0 km/h
2680 01-03-2010 16:56:02 7.2 C 3.06 g/m*3 7.2 C 0 km/h
2681 01-03-2010 17:08:03 7.1 C 3.12 g/m*3 7.1 C 0 km/h
2682 01-03-2010 17:20:02 6.9 C 3.08 g/m*3 6.9 C 0 km/h
2683 01-03-2010 17:32:02 6.8 C 3.06 g/m*3 6.8 C 0 km/h
2684 01-03-2010 17:44:02 6.8 C 3.14 g/m*3 6.8 C 0 km/h
2685 01-03-2010 17:56:01 6.7 C 3.12 g/m*3 6.7 C 0 km/h
2686 01-03-2010 18:08:02 6.5 C 3.22 g/m*3 6.5 C 0 km/h
2687 01-03-2010 18:20:01 6.4 C 3.5 g/m*3 6.4 C 0 km/h
2688 01-03-2010 18:32:01 6 C 3.56 g/m*3 6 C 0 km/h
2689 01-03-2010 18:44:01 5.8 C 3.72 g/m*3 5.8 C 0 km/h
2690 01-03-2010 18:56:01 5.7 C 3.77 g/m*3 5.7 C 0 km/h
2691 01-03-2010 19:08:02 5.6 C 3.68 g/m*3 5.6 C 0 km/h
2692 01-03-2010 19:20:01 5.6 C 3.53 g/m*3 5.6 C 0 km/h
2693 01-03-2010 19:32:02 5.4 C 3.56 g/m*3 5.4 C 0 km/h
2694 01-03-2010 19:44:02 5.3 C 3.53 g/m*3 5.3 C 0 km/h
2695 01-03-2010 19:56:02 5.1 C 3.42 g/m*3 5.1 C 0 km/h
2696 01-03-2010 20:08:03 5 C 3.4 g/m*3 5 C 0 km/h
2697 01-03-2010 20:20:02 5.1 C 3.42 g/m*3 5.1 C 0 km/h
2698 01-03-2010 20:32:02 4.6 C 3.44 g/m*3 4.6 C 0 km/h
2699 01-03-2010 20:44:02 4.4 C 3.46 g/m*3 4.4 C 0 km/h
2700 01-03-2010 20:56:02 4.4 C 3.4 g/m*3 4.4 C 0 km/h
Sensor: Nr:Datum:Temp:Abs-Feuchte:Windchill:Wind:
Aussen-T/F 2701 01-03-2010 21:08:02 3.8 C 3.51 g/m*3 3.8 C 0 km/h
2702 01-03-2010 21:20:02 3.4 C 3.54 g/m*3 3.4 C 0 km/h
2703 01-03-2010 21:32:01 3.4 C 3.6 g/m*3 3.4 C 0 km/h
2704 01-03-2010 21:44:01 3.3 C 3.64 g/m*3 3.3 C 0 km/h
2705 01-03-2010 21:56:02 3.1 C 3.71 g/m*3 3.1 C 0 km/h
2706 01-03-2010 22:08:02 2.8 C 3.64 g/m*3 2.8 C 0 km/h
2707 01-03-2010 22:21:03 2.6 C 3.82 g/m*3 2.6 C 0 km/h
2708 01-03-2010 22:33:03 2.4 C 3.83 g/m*3 2.4 C 0 km/h
2709 01-03-2010 22:45:03 2.1 C 3.86 g/m*3 2.1 C 0 km/h
2710 01-03-2010 22:57:03 2 C 3.89 g/m*3 2 C 0 km/h
2711 01-03-2010 23:09:03 1.8 C 3.95 g/m*3 1.8 C 0 km/h
2712 01-03-2010 23:21:03 1.5 C 3.92 g/m*3 1.5 C 0 km/h
2713 01-03-2010 23:33:03 1.2 C 3.89 g/m*3 1.2 C 0 km/h
2714 01-03-2010 23:45:03 1.1 C 3.92 g/m*3 1.1 C 0 km/h
2715 01-03-2010 23:57:03 1.1 C 3.97 g/m*3 1.1 C 0 km/h

Legende:
   Min
   Max


Maximal/Minimal-Werte vom 30.01.2010 - 01.03.2010

Sensor Min Max Avg
Temp
(Aussen-T/F)
-8.1 °C
11-02-2010  01:46:20
15.9 °C
27-02-2010  15:30:01
3.12 °C
Abs-Feuchte
(Aussen-T/F)
1.75 g/m*3
09-02-2010  21:26:17
7.91 g/m*3
23-02-2010  21:04:02
4.29 g/m*3
Windchill
(Aussen-T/F)
-8.1 C
11-02-2010  01:46:20
15.9 C
27-02-2010  15:30:01
3.12 C

Die Daten stammen von einer Davis Vantage Pro 2 Wetter-Station und werden unter Linux mit der Software wview2wettercgi und aufbereitet. Alle Angaben erfolgen ohne Gewähr für ihre Vollständigkeit oder Richtigkeit.
Kontakt: Rainer Krienke krienke@uni-koblenz.de . Meine Webseiten an der Uni Koblenz oder privat.
Version: $Revision: 0.78 $